Darstellungsparameter: Aktuell verwendete Einstellungen:
Skalierung der Graphiken ... ?
xyx+y,   Skalierungsfaktor:      Skalierung: Modus: x, Faktor: 1
Darstellungszeitraum ... ?
Vom - - bis: - -   Zeitraum: 05.03.2010 - 01.06.2010
Min/Max/Avg-Anzeige ... ?
Zeige MMA aktuell
Zeige MMA Monat
Zeige MMA alles
Zeige --A aktuell
Zeige --A Monat
Zeige --A alles
Keine MMA-Anzeige
MMA:
Average (ber die Originaldaten)
MMA-Basis: 17.04.2010 - 19.05.2010
Quicknavigation für Darstellung... ?
Tage:      1T, 2T, 3T, 5T -1T -2T -3T -5T +1T +2T +3T +5T
Wochen: 1W, 2W, 3W -1W -2W -3W +1W +2W +3W
Monate: 1M, 3M, 6M -1M -3M -6M +1M +3M +6M
Jahre:    1J, 3J, 5J, 10J -1J -3J -5J -10J +1J +3J +5J +10J
Nutze für die Darstellung ... ?
Originaldaten oder Mittelwerte auf ...
Stundenbasis Tagesbasis Wochenbasis
Monatsbasis Jahresbasis      Datenbasis: Original-Daten
Darstellen als:
Statistik (Auto) Statistik J:M      Darstellung:
Zur Graphik,    zurück zur Übersicht aller Sensoren.
 
Tabellarische Datenbersicht: ?
 
Sensor: Nr:Datum:Temp:Abs-Feuchte:Windchill:Wind:
Aussen-T/F 1 05-03-2010 00:00:03 -0.4 C 2.5 g/m*3 -0.4 C 0 km/h
2 05-03-2010 00:12:03 -0.5 C 2.53 g/m*3 -0.5 C 0 km/h
3 05-03-2010 00:24:03 -0.7 C 2.49 g/m*3 -0.7 C 0 km/h
4 05-03-2010 00:36:03 -1 C 2.49 g/m*3 -1 C 0 km/h
5 05-03-2010 00:48:03 -1.1 C 2.47 g/m*3 -1.1 C 0 km/h
6 05-03-2010 01:00:03 -1.3 C 2.43 g/m*3 -1.3 C 0 km/h
7 05-03-2010 01:12:03 -1.4 C 2.46 g/m*3 -1.4 C 0 km/h
8 05-03-2010 01:24:03 -1.6 C 2.43 g/m*3 -1.6 C 0 km/h
9 05-03-2010 01:36:04 -1.5 C 2.44 g/m*3 -1.5 C 0 km/h
10 05-03-2010 01:48:04 -1.5 C 2.4 g/m*3 -1.5 C 0 km/h
11 05-03-2010 02:00:04 -1.6 C 2.38 g/m*3 -1.6 C 0 km/h
12 05-03-2010 02:12:04 -1.4 C 2.37 g/m*3 -1.4 C 0 km/h
13 05-03-2010 02:24:04 -1.3 C 2.26 g/m*3 -1.3 C 0 km/h
14 05-03-2010 02:36:04 -1.5 C 2.18 g/m*3 -1.5 C 0 km/h
15 05-03-2010 02:48:04 -1.7 C 2.15 g/m*3 -1.7 C 0 km/h
16 05-03-2010 03:00:04 -1.7 C 2.11 g/m*3 -1.7 C 0 km/h
17 05-03-2010 03:12:04 -1.9 C 2.04 g/m*3 -1.9 C 0 km/h
18 05-03-2010 03:24:04 -2 C 2.11 g/m*3 -2 C 0 km/h
19 05-03-2010 03:36:04 -1.9 C 2.16 g/m*3 -1.9 C 0 km/h
20 05-03-2010 03:48:04 -1.9 C 2.16 g/m*3 -1.9 C 0 km/h
21 05-03-2010 04:00:04 -1.9 C 2.21 g/m*3 -1.9 C 0 km/h
22 05-03-2010 04:12:04 -2.1 C 2.18 g/m*3 -2.1 C 0 km/h
23 05-03-2010 04:24:04 -2.3 C 2.19 g/m*3 -2.3 C 0 km/h
24 05-03-2010 04:36:04 -2.4 C 2.21 g/m*3 -2.4 C 0 km/h
25 05-03-2010 04:48:04 -2.4 C 2.25 g/m*3 -2.4 C 0 km/h
Sensor: Nr:Datum:Temp:Abs-Feuchte:Windchill:Wind:
Aussen-T/F 26 05-03-2010 05:00:04 -2.5 C 2.28 g/m*3 -2.5 C 0 km/h
27 05-03-2010 05:12:04 -2.6 C 2.3 g/m*3 -2.6 C 0 km/h
28 05-03-2010 05:24:04 -2.6 C 2.38 g/m*3 -2.6 C 0 km/h
29 05-03-2010 05:36:04 -2.8 C 2.43 g/m*3 -2.8 C 0 km/h
30 05-03-2010 05:48:05 -2.3 C 2.64 g/m*3 -2.3 C 0 km/h
31 05-03-2010 06:00:05 -1.9 C 2.67 g/m*3 -1.9 C 0 km/h
32 05-03-2010 06:12:05 -2 C 2.7 g/m*3 -2 C 0 km/h
33 05-03-2010 06:24:05 -2.4 C 2.62 g/m*3 -2.4 C 0 km/h
34 05-03-2010 06:36:05 -2.6 C 2.63 g/m*3 -2.6 C 0 km/h
35 05-03-2010 06:48:05 -2.8 C 2.63 g/m*3 -2.8 C 0 km/h
36 05-03-2010 07:00:05 -2.9 C 2.65 g/m*3 -2.9 C 0 km/h
37 05-03-2010 07:12:02 -2.9 C 2.69 g/m*3 -2.9 C 0 km/h
38 05-03-2010 07:24:03 -2.8 C 2.71 g/m*3 -2.8 C 0 km/h
39 05-03-2010 07:36:02 -2.7 C 2.77 g/m*3 -2.7 C 0 km/h
40 05-03-2010 07:48:02 -2.9 C 2.69 g/m*3 -2.9 C 0 km/h
41 05-03-2010 08:00:02 -2.9 C 2.73 g/m*3 -2.9 C 0 km/h
42 05-03-2010 08:12:02 -2.8 C 2.75 g/m*3 -2.8 C 0 km/h
43 05-03-2010 08:24:03 -2.8 C 2.75 g/m*3 -2.8 C 0 km/h
44 05-03-2010 08:36:02 -2.6 C 2.83 g/m*3 -2.6 C 0 km/h
45 05-03-2010 08:48:01 -2.6 C 2.79 g/m*3 -2.6 C 0 km/h
46 05-03-2010 09:00:01 -2.5 C 2.77 g/m*3 -2.5 C 0 km/h
47 05-03-2010 09:12:02 -2.3 C 2.72 g/m*3 -2.3 C 0 km/h
48 05-03-2010 09:24:01 -2 C 2.66 g/m*3 -2 C 0 km/h
49 05-03-2010 09:36:02 -1.8 C 2.48 g/m*3 -1.8 C 0 km/h
50 05-03-2010 09:48:02 -1.4 C 2.46 g/m*3 -1.4 C 0 km/h
Sensor: Nr:Datum:Temp:Abs-Feuchte:Windchill:Wind:
Aussen-T/F 51 05-03-2010 10:00:02 -1 C 2.49 g/m*3 -1 C 0 km/h
52 05-03-2010 10:12:02 -0.5 C 2.53 g/m*3 -0.5 C 0 km/h
53 05-03-2010 10:24:02 0.4 C 2.54 g/m*3 0.4 C 0 km/h
54 05-03-2010 10:36:02 0.9 C 2.06 g/m*3 0.9 C 0 km/h
55 05-03-2010 10:48:02 1.4 C 1.92 g/m*3 1.4 C 0 km/h
56 05-03-2010 11:00:02 1.8 C 1.97 g/m*3 1.8 C 0 km/h
57 05-03-2010 11:12:02 2.1 C 2.01 g/m*3 2.1 C 0 km/h
58 05-03-2010 11:24:02 2.1 C 1.96 g/m*3 2.1 C 0 km/h
59 05-03-2010 11:36:02 2.2 C 1.52 g/m*3 2.2 C 0 km/h
60 05-03-2010 11:48:01 2.5 C 1.21 g/m*3 2.5 C 0 km/h
61 05-03-2010 12:00:01 3.5 C 1.54 g/m*3 3.5 C 0 km/h
62 05-03-2010 12:12:02 2.5 C 1.21 g/m*3 2.5 C 0 km/h
63 05-03-2010 12:24:01 2.7 C 1.34 g/m*3 2.7 C 0 km/h
64 05-03-2010 12:36:01 3 C 1.19 g/m*3 3 C 0 km/h
65 05-03-2010 12:48:01 3.6 C 1.24 g/m*3 3.6 C 0 km/h
66 05-03-2010 13:00:01 3.5 C 1.23 g/m*3 3.5 C 0 km/h
67 05-03-2010 13:12:02 3.3 C 1.21 g/m*3 3.3 C 0 km/h
68 05-03-2010 13:24:01 3.5 C 1.23 g/m*3 3.5 C 0 km/h
69 05-03-2010 13:36:01 3.2 C 1.21 g/m*3 3.2 C 0 km/h
70 05-03-2010 13:48:01 3.2 C 1.51 g/m*3 3.2 C 0 km/h
71 05-03-2010 14:00:01 3.1 C 1.26 g/m*3 3.1 C 0 km/h
72 05-03-2010 14:12:02 3.6 C 1.3 g/m*3 3.6 C 0 km/h
73 05-03-2010 14:24:02 4 C 1.27 g/m*3 4 C 0 km/h
74 05-03-2010 14:36:01 3.7 C 1.25 g/m*3 3.7 C 0 km/h
75 05-03-2010 14:48:01 4 C 1.34 g/m*3 4 C 0 km/h
Sensor: Nr:Datum:Temp:Abs-Feuchte:Windchill:Wind:
Aussen-T/F 76 05-03-2010 15:00:01 4.5 C 1.38 g/m*3 4.5 C 0 km/h
77 05-03-2010 15:12:02 5.2 C 1.58 g/m*3 5.2 C 0 km/h
78 05-03-2010 15:24:02 4.8 C 1.41 g/m*3 4.8 C 0 km/h
79 05-03-2010 15:36:01 5.5 C 1.47 g/m*3 5.5 C 0 km/h
80 05-03-2010 15:48:01 6 C 1.45 g/m*3 6 C 0 km/h
81 05-03-2010 16:00:01 5.4 C 1.4 g/m*3 5.4 C 0 km/h
82 05-03-2010 16:12:01 4.9 C 1.35 g/m*3 4.9 C 0 km/h
83 05-03-2010 16:24:02 4.8 C 1.34 g/m*3 4.8 C 0 km/h
84 05-03-2010 16:36:01 4.5 C 1.38 g/m*3 4.5 C 0 km/h
85 05-03-2010 16:48:02 4.4 C 1.63 g/m*3 4.4 C 0 km/h
86 05-03-2010 17:00:02 4.4 C 1.7 g/m*3 4.4 C 0 km/h
87 05-03-2010 17:12:01 4.3 C 1.49 g/m*3 4.3 C 0 km/h
88 05-03-2010 17:24:02 4.2 C 1.48 g/m*3 4.2 C 0 km/h
89 05-03-2010 17:36:01 4 C 1.46 g/m*3 4 C 0 km/h
90 05-03-2010 17:48:03 3.8 C 1.44 g/m*3 3.8 C 0 km/h
91 05-03-2010 18:00:03 3.8 C 1.57 g/m*3 3.8 C 0 km/h
92 05-03-2010 18:12:02 3.5 C 1.66 g/m*3 3.5 C 0 km/h
93 05-03-2010 18:24:02 3.3 C 1.82 g/m*3 3.3 C 0 km/h
94 05-03-2010 18:36:02 3.2 C 1.99 g/m*3 3.2 C 0 km/h
95 05-03-2010 18:48:02 3.1 C 2.21 g/m*3 3.1 C 0 km/h
96 05-03-2010 19:00:02 3 C 2.32 g/m*3 3 C 0 km/h
97 05-03-2010 19:12:02 2.9 C 2.42 g/m*3 2.9 C 0 km/h
98 05-03-2010 19:24:02 2.8 C 2.46 g/m*3 2.8 C 0 km/h
99 05-03-2010 19:36:02 2.7 C 2.56 g/m*3 2.7 C 0 km/h
100 05-03-2010 19:48:02 2.6 C 2.66 g/m*3 2.6 C 0 km/h
Sensor: Nr:Datum:Temp:Abs-Feuchte:Windchill:Wind:
Aussen-T/F 101 05-03-2010 20:00:02 2.5 C 2.7 g/m*3 2.5 C 0 km/h
102 05-03-2010 20:12:01 2.5 C 2.76 g/m*3 2.5 C 0 km/h
103 05-03-2010 20:24:02 2.4 C 2.8 g/m*3 2.4 C 0 km/h
104 05-03-2010 20:36:01 2.5 C 2.82 g/m*3 2.5 C 0 km/h
105 05-03-2010 20:48:02 2.5 C 2.82 g/m*3 2.5 C 0 km/h
106 05-03-2010 21:00:02 2.5 C 2.82 g/m*3 2.5 C 0 km/h
107 05-03-2010 21:12:01 2.4 C 2.91 g/m*3 2.4 C 0 km/h
108 05-03-2010 21:24:01 2.1 C 3.13 g/m*3 2.1 C 0 km/h
109 05-03-2010 21:36:02 1.8 C 3.4 g/m*3 1.8 C 0 km/h
110 05-03-2010 21:48:02 1.5 C 3.54 g/m*3 1.5 C 0 km/h
111 05-03-2010 22:00:03 1.3 C 3.71 g/m*3 1.3 C 0 km/h
112 05-03-2010 22:12:02 1 C 3.84 g/m*3 1 C 0 km/h
113 05-03-2010 22:24:02 0.9 C 3.97 g/m*3 0.9 C 0 km/h
114 05-03-2010 22:36:02 0.8 C 4.04 g/m*3 0.8 C 0 km/h
115 05-03-2010 22:48:02 0.8 C 4.1 g/m*3 0.8 C 0 km/h
116 05-03-2010 23:00:02 0.7 C 4.12 g/m*3 0.7 C 0 km/h
117 05-03-2010 23:12:01 0.5 C 4.16 g/m*3 0.5 C 0 km/h
118 05-03-2010 23:24:02 0.6 C 4.24 g/m*3 0.6 C 0 km/h
119 05-03-2010 23:36:02 0.7 C 4.27 g/m*3 0.7 C 0 km/h
120 05-03-2010 23:48:02 0.7 C 4.27 g/m*3 0.7 C 0 km/h
121 06-03-2010 00:00:03 0.9 C 4.28 g/m*3 0.9 C 0 km/h
122 06-03-2010 00:12:02 0.7 C 4.17 g/m*3 0.7 C 0 km/h
123 06-03-2010 00:25:05 0.6 C 4.24 g/m*3 0.6 C 0 km/h
124 06-03-2010 00:37:05 0.7 C 4.27 g/m*3 0.7 C 0 km/h
125 06-03-2010 00:49:05 0.6 C 4.29 g/m*3 0.6 C 0 km/h
Sensor: Nr:Datum:Temp:Abs-Feuchte:Windchill:Wind:
Aussen-T/F 126 06-03-2010 01:01:05 0.6 C 4.34 g/m*3 0.6 C 0 km/h
127 06-03-2010 01:13:05 0.5 C 4.36 g/m*3 0.5 C 0 km/h
128 06-03-2010 01:25:05 0.5 C 4.41 g/m*3 0.5 C 0 km/h
129 06-03-2010 01:37:06 0.4 C 4.43 g/m*3 0.4 C 0 km/h
130 06-03-2010 01:49:06 0.5 C 4.46 g/m*3 0.5 C 0 km/h
131 06-03-2010 02:01:06 0.6 C 4.54 g/m*3 0.6 C 0 km/h
132 06-03-2010 02:13:06 0.6 C 4.6 g/m*3 0.6 C 0 km/h
133 06-03-2010 02:25:06 0.6 C 4.6 g/m*3 0.6 C 0 km/h
134 06-03-2010 02:37:06 0.6 C 4.6 g/m*3 0.6 C 0 km/h
135 06-03-2010 02:49:06 0.5 C 4.61 g/m*3 0.5 C 0 km/h
136 06-03-2010 03:01:06 0.4 C 4.58 g/m*3 0.4 C 0 km/h
137 06-03-2010 03:13:06 0.3 C 4.55 g/m*3 0.3 C 0 km/h
138 06-03-2010 03:25:06 0.2 C 4.57 g/m*3 0.2 C 0 km/h
139 06-03-2010 03:37:06 0.1 C 4.54 g/m*3 0.1 C 0 km/h
140 06-03-2010 03:49:06 0 C 4.51 g/m*3 0 C 0 km/h
141 06-03-2010 04:01:06 0 C 4.51 g/m*3 0 C 0 km/h
142 06-03-2010 04:13:06 0 C 4.51 g/m*3 0 C 0 km/h
143 06-03-2010 04:25:06 0 C 4.51 g/m*3 0 C 0 km/h
144 06-03-2010 04:37:06 0 C 4.55 g/m*3 0 C 0 km/h
145 06-03-2010 04:49:06 0 C 4.55 g/m*3 0 C 0 km/h
146 06-03-2010 05:01:06 0 C 4.55 g/m*3 0 C 0 km/h
147 06-03-2010 05:13:06 -0.1 C 4.47 g/m*3 -0.1 C 0 km/h
148 06-03-2010 05:25:06 0 C 4.51 g/m*3 0 C 0 km/h
149 06-03-2010 05:37:06 0 C 4.51 g/m*3 0 C 0 km/h
150 06-03-2010 05:49:07 0 C 4.51 g/m*3 0 C 0 km/h
Sensor: Nr:Datum:Temp:Abs-Feuchte:Windchill:Wind:
Aussen-T/F 151 06-03-2010 06:01:07 -0.1 C 4.43 g/m*3 -0.1 C 0 km/h
152 06-03-2010 06:13:07 -0.2 C 4.4 g/m*3 -0.2 C 0 km/h
153 06-03-2010 06:25:07 -0.2 C 4.3 g/m*3 -0.2 C 0 km/h
154 06-03-2010 06:37:07 -0.2 C 4.21 g/m*3 -0.2 C 0 km/h
155 06-03-2010 06:49:07 -0.1 C 4.14 g/m*3 -0.1 C 0 km/h
156 06-03-2010 07:01:07 -0.1 C 4.09 g/m*3 -0.1 C 0 km/h
157 06-03-2010 07:13:07 0 C 4.12 g/m*3 0 C 0 km/h
158 06-03-2010 07:25:07 0 C 4.17 g/m*3 0 C 0 km/h
159 06-03-2010 07:37:07 0 C 4.17 g/m*3 0 C 0 km/h
160 06-03-2010 07:49:01 0 C 4.12 g/m*3 0 C 0 km/h
161 06-03-2010 08:01:02 0.1 C 4.2 g/m*3 0.1 C 0 km/h
162 06-03-2010 08:13:02 0.1 C 4.2 g/m*3 0.1 C 0 km/h
163 06-03-2010 08:25:01 0.2 C 4.22 g/m*3 0.2 C 0 km/h
164 06-03-2010 08:37:02 0.4 C 4.23 g/m*3 0.4 C 0 km/h
165 06-03-2010 08:49:01 0.4 C 4.13 g/m*3 0.4 C 0 km/h
166 06-03-2010 09:01:02 0.4 C 4.03 g/m*3 0.4 C 0 km/h
167 06-03-2010 09:13:02 0.4 C 4.03 g/m*3 0.4 C 0 km/h
168 06-03-2010 09:25:02 0.4 C 4.08 g/m*3 0.4 C 0 km/h
169 06-03-2010 09:37:02 0.3 C 4.06 g/m*3 0.3 C 0 km/h
170 06-03-2010 09:49:02 0.4 C 4.03 g/m*3 0.4 C 0 km/h
171 06-03-2010 10:01:02 0.4 C 3.88 g/m*3 0.4 C 0 km/h
172 06-03-2010 10:13:02 0.5 C 3.71 g/m*3 0.5 C 0 km/h
173 06-03-2010 10:25:02 0.5 C 3.71 g/m*3 0.5 C 0 km/h
174 06-03-2010 10:37:02 0.5 C 3.71 g/m*3 0.5 C 0 km/h
175 06-03-2010 10:49:01 0.4 C 3.59 g/m*3 0.4 C 0 km/h
Sensor: Nr:Datum:Temp:Abs-Feuchte:Windchill:Wind:
Aussen-T/F 176 06-03-2010 11:01:02 0.5 C 3.66 g/m*3 0.5 C 0 km/h
177 06-03-2010 11:13:02 0.4 C 3.59 g/m*3 0.4 C 0 km/h
178 06-03-2010 11:25:01 0.5 C 3.56 g/m*3 0.5 C 0 km/h
179 06-03-2010 11:37:01 0.4 C 3.39 g/m*3 0.4 C 0 km/h
180 06-03-2010 11:49:01 0.3 C 3.26 g/m*3 0.3 C 0 km/h
181 06-03-2010 12:01:02 0.4 C 3.34 g/m*3 0.4 C 0 km/h
182 06-03-2010 12:13:02 0.5 C 3.26 g/m*3 0.5 C 0 km/h
183 06-03-2010 12:25:01 0.4 C 3.19 g/m*3 0.4 C 0 km/h
184 06-03-2010 12:37:02 0.6 C 3.23 g/m*3 0.6 C 0 km/h
185 06-03-2010 12:49:02 0.7 C 3.36 g/m*3 0.7 C 0 km/h
186 06-03-2010 13:01:02 0.8 C 3.28 g/m*3 0.8 C 0 km/h
187 06-03-2010 13:13:02 1.1 C 3.29 g/m*3 1.1 C 0 km/h
188 06-03-2010 13:25:01 0.9 C 2.94 g/m*3 0.9 C 0 km/h
189 06-03-2010 13:37:02 0.5 C 3.11 g/m*3 0.5 C 0 km/h
190 06-03-2010 13:49:02 0.4 C 3.34 g/m*3 0.4 C 0 km/h
191 06-03-2010 14:01:02 0.2 C 3.19 g/m*3 0.2 C 0 km/h
192 06-03-2010 14:13:02 0.5 C 3.36 g/m*3 0.5 C 0 km/h
193 06-03-2010 14:25:02 1 C 3.32 g/m*3 1 C 0 km/h
194 06-03-2010 14:37:02 1.7 C 3.27 g/m*3 1.7 C 0 km/h
195 06-03-2010 14:49:02 1.4 C 3.04 g/m*3 1.4 C 0 km/h
196 06-03-2010 15:01:02 1.3 C 3.02 g/m*3 1.3 C 0 km/h
197 06-03-2010 15:13:02 1.3 C 2.97 g/m*3 1.3 C 0 km/h
198 06-03-2010 15:25:02 1.5 C 2.79 g/m*3 1.5 C 0 km/h
199 06-03-2010 15:37:02 1.3 C 2.7 g/m*3 1.3 C 0 km/h
200 06-03-2010 15:49:02 1.4 C 2.67 g/m*3 1.4 C 0 km/h
Sensor: Nr:Datum:Temp:Abs-Feuchte:Windchill:Wind:
Aussen-T/F 201 06-03-2010 16:01:02 1.4 C 2.72 g/m*3 1.4 C 0 km/h
202 06-03-2010 16:13:02 0.9 C 2.63 g/m*3 0.9 C 0 km/h
203 06-03-2010 16:25:02 1 C 2.6 g/m*3 1 C 0 km/h
204 06-03-2010 16:37:02 0.8 C 2.66 g/m*3 0.8 C 0 km/h
205 06-03-2010 16:49:02 0.5 C 2.71 g/m*3 0.5 C 0 km/h
206 06-03-2010 17:01:02 0.2 C 2.55 g/m*3 0.2 C 0 km/h
207 06-03-2010 17:13:02 -0.2 C 2.25 g/m*3 -0.2 C 0 km/h
208 06-03-2010 17:25:02 -0.5 C 2.15 g/m*3 -0.5 C 0 km/h
209 06-03-2010 17:37:02 -0.6 C 2.14 g/m*3 -0.6 C 0 km/h
210 06-03-2010 17:49:01 -1 C 2.08 g/m*3 -1 C 0 km/h
211 06-03-2010 18:01:02 -1.4 C 2.02 g/m*3 -1.4 C 0 km/h
212 06-03-2010 18:13:02 -1.6 C 2.08 g/m*3 -1.6 C 0 km/h
213 06-03-2010 18:25:02 -1.8 C 2.05 g/m*3 -1.8 C 0 km/h
214 06-03-2010 18:37:02 -1.9 C 2.08 g/m*3 -1.9 C 0 km/h
215 06-03-2010 18:49:02 -1.8 C 2.05 g/m*3 -1.8 C 0 km/h
216 06-03-2010 19:01:02 -2 C 2.11 g/m*3 -2 C 0 km/h
217 06-03-2010 19:13:02 -2.3 C 2.1 g/m*3 -2.3 C 0 km/h
218 06-03-2010 19:25:02 -2.5 C 2.2 g/m*3 -2.5 C 0 km/h
219 06-03-2010 19:37:01 -2.6 C 2.22 g/m*3 -2.6 C 0 km/h
220 06-03-2010 19:49:02 -2.7 C 2.21 g/m*3 -2.7 C 0 km/h
221 06-03-2010 20:01:01 -2.7 C 2.21 g/m*3 -2.7 C 0 km/h
222 06-03-2010 20:13:01 -2.8 C 2.15 g/m*3 -2.8 C 0 km/h
223 06-03-2010 20:25:02 -3.1 C 2.15 g/m*3 -3.1 C 0 km/h
224 06-03-2010 20:37:01 -3.4 C 2.25 g/m*3 -3.4 C 0 km/h
225 06-03-2010 20:49:02 -3.6 C 2.3 g/m*3 -3.6 C 0 km/h
Sensor: Nr:Datum:Temp:Abs-Feuchte:Windchill:Wind:
Aussen-T/F 226 06-03-2010 21:01:01 -3.8 C 2.3 g/m*3 -3.8 C 0 km/h
227 06-03-2010 21:13:01 -4 C 2.34 g/m*3 -4 C 0 km/h
228 06-03-2010 21:25:02 -4 C 2.38 g/m*3 -4 C 0 km/h
229 06-03-2010 21:37:01 -4.2 C 2.38 g/m*3 -4.2 C 0 km/h
230 06-03-2010 21:50:03 -4.2 C 2.42 g/m*3 -4.2 C 0 km/h
231 06-03-2010 22:02:03 -4.3 C 2.43 g/m*3 -4.3 C 0 km/h
232 06-03-2010 22:14:03 -4.2 C 2.49 g/m*3 -4.2 C 0 km/h
233 06-03-2010 22:26:03 -4 C 2.52 g/m*3 -4 C 0 km/h
234 06-03-2010 22:38:03 -3.7 C 2.58 g/m*3 -3.7 C 0 km/h
235 06-03-2010 22:50:03 -3.4 C 2.6 g/m*3 -3.4 C 0 km/h
236 06-03-2010 23:02:03 -3.4 C 2.6 g/m*3 -3.4 C 0 km/h
237 06-03-2010 23:14:03 -3.3 C 2.58 g/m*3 -3.3 C 0 km/h
238 06-03-2010 23:26:03 -3.3 C 2.58 g/m*3 -3.3 C 0 km/h
239 06-03-2010 23:38:03 -3.5 C 2.5 g/m*3 -3.5 C 0 km/h
240 06-03-2010 23:50:03 -3.8 C 2.45 g/m*3 -3.8 C 0 km/h
241 07-03-2010 00:02:03 -4.2 C 2.42 g/m*3 -4.2 C 0 km/h
242 07-03-2010 00:14:03 -4.4 C 2.42 g/m*3 -4.4 C 0 km/h
243 07-03-2010 00:26:04 -4.5 C 2.4 g/m*3 -4.5 C 0 km/h
244 07-03-2010 00:38:04 -4.7 C 2.4 g/m*3 -4.7 C 0 km/h
245 07-03-2010 00:50:04 -4.6 C 2.42 g/m*3 -4.6 C 0 km/h
246 07-03-2010 01:02:04 -4.4 C 2.49 g/m*3 -4.4 C 0 km/h
247 07-03-2010 01:14:04 -4.3 C 2.47 g/m*3 -4.3 C 0 km/h
248 07-03-2010 01:26:04 -4.4 C 2.45 g/m*3 -4.4 C 0 km/h
249 07-03-2010 01:38:04 -4.5 C 2.44 g/m*3 -4.5 C 0 km/h
250 07-03-2010 01:50:04 -4.4 C 2.45 g/m*3 -4.4 C 0 km/h
Sensor: Nr:Datum:Temp:Abs-Feuchte:Windchill:Wind:
Aussen-T/F 251 07-03-2010 02:02:04 -4.4 C 2.49 g/m*3 -4.4 C 0 km/h
252 07-03-2010 02:14:04 -4.4 C 2.49 g/m*3 -4.4 C 0 km/h
253 07-03-2010 02:26:04 -4.6 C 2.45 g/m*3 -4.6 C 0 km/h
254 07-03-2010 02:38:04 -4.4 C 2.52 g/m*3 -4.4 C 0 km/h
255 07-03-2010 02:50:04 -4.5 C 2.51 g/m*3 -4.5 C 0 km/h
256 07-03-2010 03:02:04 -4.6 C 2.49 g/m*3 -4.6 C 0 km/h
257 07-03-2010 03:14:04 -4.8 C 2.45 g/m*3 -4.8 C 0 km/h
258 07-03-2010 03:26:04 -5 C 2.45 g/m*3 -5 C 0 km/h
259 07-03-2010 03:38:04 -5.1 C 2.43 g/m*3 -5.1 C 0 km/h
260 07-03-2010 03:50:04 -5.2 C 2.45 g/m*3 -5.2 C 0 km/h
261 07-03-2010 04:02:04 -5.3 C 2.43 g/m*3 -5.3 C 0 km/h
262 07-03-2010 04:14:04 -5.1 C 2.5 g/m*3 -5.1 C 0 km/h
263 07-03-2010 04:26:05 -4.9 C 2.54 g/m*3 -4.9 C 0 km/h
264 07-03-2010 04:38:05 -4.6 C 2.63 g/m*3 -4.6 C 0 km/h
265 07-03-2010 04:50:05 -4.6 C 2.63 g/m*3 -4.6 C 0 km/h
266 07-03-2010 05:02:05 -4.8 C 2.56 g/m*3 -4.8 C 0 km/h
267 07-03-2010 05:14:05 -5 C 2.52 g/m*3 -5 C 0 km/h
268 07-03-2010 05:26:05 -5.2 C 2.48 g/m*3 -5.2 C 0 km/h
269 07-03-2010 05:38:05 -5.3 C 2.47 g/m*3 -5.3 C 0 km/h
270 07-03-2010 05:50:05 -5.3 C 2.47 g/m*3 -5.3 C 0 km/h
271 07-03-2010 06:02:05 -5.6 C 2.41 g/m*3 -5.6 C 0 km/h
272 07-03-2010 06:14:05 -5.8 C 2.38 g/m*3 -5.8 C 0 km/h
273 07-03-2010 06:26:05 -5.8 C 2.41 g/m*3 -5.8 C 0 km/h
274 07-03-2010 06:38:05 -5.9 C 2.42 g/m*3 -5.9 C 0 km/h
275 07-03-2010 06:50:05 -6 C 2.41 g/m*3 -6 C 0 km/h
Sensor: Nr:Datum:Temp:Abs-Feuchte:Windchill:Wind:
Aussen-T/F 276 07-03-2010 07:02:05 -6 C 2.44 g/m*3 -6 C 0 km/h
277 07-03-2010 07:14:05 -6.1 C 2.42 g/m*3 -6.1 C 0 km/h
278 07-03-2010 07:26:05 -6.1 C 2.42 g/m*3 -6.1 C 0 km/h
279 07-03-2010 07:38:05 -6.4 C 2.34 g/m*3 -6.4 C 0 km/h
280 07-03-2010 07:50:05 -6.5 C 2.32 g/m*3 -6.5 C 0 km/h
281 07-03-2010 08:02:05 -6.5 C 2.32 g/m*3 -6.5 C 0 km/h
282 07-03-2010 08:14:05 -6.4 C 2.34 g/m*3 -6.4 C 0 km/h
283 07-03-2010 08:26:02 -6.2 C 2.4 g/m*3 -6.2 C 0 km/h
284 07-03-2010 08:38:03 -5.7 C 2.49 g/m*3 -5.7 C 0 km/h
285 07-03-2010 08:50:02 -5.3 C 2.57 g/m*3 -5.3 C 0 km/h
286 07-03-2010 09:02:02 -5 C 2.59 g/m*3 -5 C 0 km/h
287 07-03-2010 09:14:02 -4.6 C 2.63 g/m*3 -4.6 C 0 km/h
288 07-03-2010 09:26:02 -4.1 C 2.65 g/m*3 -4.1 C 0 km/h
289 07-03-2010 09:38:02 -3.5 C 2.65 g/m*3 -3.5 C 0 km/h
290 07-03-2010 09:50:02 -3 C 2.59 g/m*3 -3 C 0 km/h
291 07-03-2010 10:02:01 -2 C 2.66 g/m*3 -2 C 0 km/h
292 07-03-2010 10:14:01 -1.4 C 2.51 g/m*3 -1.4 C 0 km/h
293 07-03-2010 10:26:02 -1 C 2.4 g/m*3 -1 C 0 km/h
294 07-03-2010 10:38:02 -1 C 2.35 g/m*3 -1 C 0 km/h
295 07-03-2010 10:50:02 -1 C 2.31 g/m*3 -1 C 0 km/h
296 07-03-2010 11:02:03 -0.7 C 2.35 g/m*3 -0.7 C 0 km/h
297 07-03-2010 11:14:03 -0.5 C 2.29 g/m*3 -0.5 C 0 km/h
298 07-03-2010 11:26:02 -0.5 C 2.2 g/m*3 -0.5 C 0 km/h
299 07-03-2010 11:38:02 -0.4 C 2.22 g/m*3 -0.4 C 0 km/h
300 07-03-2010 11:50:02 -0.1 C 2.26 g/m*3 -0.1 C 0 km/h
Sensor: Nr:Datum:Temp:Abs-Feuchte:Windchill:Wind:
Aussen-T/F 301 07-03-2010 12:02:02 -0.2 C 2.15 g/m*3 -0.2 C 0 km/h
302 07-03-2010 12:14:02 0 C 2.23 g/m*3 0 C 0 km/h
303 07-03-2010 12:26:01 0.4 C 2.29 g/m*3 0.4 C 0 km/h
304 07-03-2010 12:38:02 0.9 C 2.32 g/m*3 0.9 C 0 km/h
305 07-03-2010 12:50:02 1.5 C 2.31 g/m*3 1.5 C 0 km/h
306 07-03-2010 13:02:02 1.6 C 2.16 g/m*3 1.6 C 0 km/h
307 07-03-2010 13:14:02 1.8 C 2.14 g/m*3 1.8 C 0 km/h
308 07-03-2010 13:26:02 2.2 C 2.14 g/m*3 2.2 C 0 km/h
309 07-03-2010 13:38:02 2.5 C 2.07 g/m*3 2.5 C 0 km/h
310 07-03-2010 13:50:02 2.9 C 2.07 g/m*3 2.9 C 0 km/h
311 07-03-2010 14:02:03 3 C 1.96 g/m*3 3 C 0 km/h
312 07-03-2010 14:14:03 3.3 C 2.06 g/m*3 3.3 C 0 km/h
313 07-03-2010 14:26:02 3.7 C 1.99 g/m*3 3.7 C 0 km/h
314 07-03-2010 14:38:02 3.7 C 1.74 g/m*3 3.7 C 0 km/h
315 07-03-2010 14:50:01 3.9 C 1.77 g/m*3 3.9 C 0 km/h
316 07-03-2010 15:02:02 4.2 C 1.68 g/m*3 4.2 C 0 km/h
317 07-03-2010 15:14:02 4.5 C 1.31 g/m*3 4.5 C 0 km/h
318 07-03-2010 15:26:01 4.6 C 1.32 g/m*3 4.6 C 0 km/h
319 07-03-2010 15:38:02 4.7 C 1.33 g/m*3 4.7 C 0 km/h
320 07-03-2010 15:50:02 5 C 1.36 g/m*3 5 C 0 km/h
321 07-03-2010 16:02:02 5.1 C 1.37 g/m*3 5.1 C 0 km/h
322 07-03-2010 16:14:02 5.3 C 1.39 g/m*3 5.3 C 0 km/h
323 07-03-2010 16:26:01 5.8 C 1.43 g/m*3 5.8 C 0 km/h
324 07-03-2010 16:38:02 5.9 C 1.44 g/m*3 5.9 C 0 km/h
325 07-03-2010 16:50:02 5.7 C 1.42 g/m*3 5.7 C 0 km/h
Sensor: Nr:Datum:Temp:Abs-Feuchte:Windchill:Wind:
Aussen-T/F 326 07-03-2010 17:02:02 5.8 C 1.43 g/m*3 5.8 C 0 km/h
327 07-03-2010 17:14:02 5.1 C 1.37 g/m*3 5.1 C 0 km/h
328 07-03-2010 17:26:02 4.9 C 1.35 g/m*3 4.9 C 0 km/h
329 07-03-2010 17:38:02 4.7 C 1.33 g/m*3 4.7 C 0 km/h
330 07-03-2010 17:50:02 4.1 C 1.28 g/m*3 4.1 C 0 km/h
331 07-03-2010 18:02:02 3.2 C 1.21 g/m*3 3.2 C 0 km/h
332 07-03-2010 18:14:03 2.2 C 1.63 g/m*3 2.2 C 0 km/h
333 07-03-2010 18:26:02 1.4 C 1.71 g/m*3 1.4 C 0 km/h
334 07-03-2010 18:38:02 0.6 C 1.77 g/m*3 0.6 C 0 km/h
335 07-03-2010 18:50:02 0.1 C 1.76 g/m*3 0.1 C 0 km/h
336 07-03-2010 19:02:02 -0.2 C 1.77 g/m*3 -0.2 C 0 km/h
337 07-03-2010 19:14:02 -0.4 C 1.74 g/m*3 -0.4 C 0 km/h
338 07-03-2010 19:26:02 -0.6 C 1.81 g/m*3 -0.6 C 0 km/h
339 07-03-2010 19:38:02 -0.7 C 1.85 g/m*3 -0.7 C 0 km/h
340 07-03-2010 19:50:01 -1.2 C 1.87 g/m*3 -1.2 C 0 km/h
341 07-03-2010 20:02:01 -1.4 C 1.89 g/m*3 -1.4 C 0 km/h
342 07-03-2010 20:14:02 -1.5 C 1.83 g/m*3 -1.5 C 0 km/h
343 07-03-2010 20:26:01 -1.7 C 1.89 g/m*3 -1.7 C 0 km/h
344 07-03-2010 20:38:01 -1.9 C 1.95 g/m*3 -1.9 C 0 km/h
345 07-03-2010 20:50:01 -2 C 2.02 g/m*3 -2 C 0 km/h
346 07-03-2010 21:02:01 -2.3 C 2.02 g/m*3 -2.3 C 0 km/h
347 07-03-2010 21:14:01 -2.4 C 2.01 g/m*3 -2.4 C 0 km/h
348 07-03-2010 21:26:01 -2.5 C 1.95 g/m*3 -2.5 C 0 km/h
349 07-03-2010 21:38:01 -2.5 C 1.83 g/m*3 -2.5 C 0 km/h
350 07-03-2010 21:51:03 -2.5 C 1.87 g/m*3 -2.5 C 0 km/h
Sensor: Nr:Datum:Temp:Abs-Feuchte:Windchill:Wind:
Aussen-T/F 351 07-03-2010 22:03:03 -2.6 C 1.82 g/m*3 -2.6 C 0 km/h
352 07-03-2010 22:15:03 -2.8 C 1.79 g/m*3 -2.8 C 0 km/h
353 07-03-2010 22:27:03 -2.8 C 1.83 g/m*3 -2.8 C 0 km/h
354 07-03-2010 22:39:03 -3 C 1.85 g/m*3 -3 C 0 km/h
355 07-03-2010 22:51:03 -3.2 C 1.9 g/m*3 -3.2 C 0 km/h
356 07-03-2010 23:03:04 -3.3 C 1.96 g/m*3 -3.3 C 0 km/h
357 07-03-2010 23:15:04 -3.4 C 1.95 g/m*3 -3.4 C 0 km/h
358 07-03-2010 23:27:04 -3.4 C 1.91 g/m*3 -3.4 C 0 km/h
359 07-03-2010 23:39:04 -3.4 C 1.83 g/m*3 -3.4 C 0 km/h
360 07-03-2010 23:51:04 -3.7 C 1.76 g/m*3 -3.7 C 0 km/h
361 08-03-2010 00:03:04 -3.9 C 1.81 g/m*3 -3.9 C 0 km/h
362 08-03-2010 00:15:04 -4 C 1.83 g/m*3 -4 C 0 km/h
363 08-03-2010 00:27:04 -4.2 C 1.77 g/m*3 -4.2 C 0 km/h
364 08-03-2010 00:39:04 -4.3 C 1.79 g/m*3 -4.3 C 0 km/h
365 08-03-2010 00:51:04 -4.5 C 1.8 g/m*3 -4.5 C 0 km/h
366 08-03-2010 01:03:04 -4.5 C 1.76 g/m*3 -4.5 C 0 km/h
367 08-03-2010 01:15:04 -4.6 C 1.75 g/m*3 -4.6 C 0 km/h
368 08-03-2010 01:27:04 -4.6 C 1.75 g/m*3 -4.6 C 0 km/h
369 08-03-2010 01:39:04 -4.7 C 1.7 g/m*3 -4.7 C 0 km/h
370 08-03-2010 01:51:04 -4.8 C 1.73 g/m*3 -4.8 C 0 km/h
371 08-03-2010 02:03:04 -5 C 1.7 g/m*3 -5 C 0 km/h
372 08-03-2010 02:15:04 -4.9 C 1.68 g/m*3 -4.9 C 0 km/h
373 08-03-2010 02:27:04 -5 C 1.6 g/m*3 -5 C 0 km/h
374 08-03-2010 02:39:04 -4.7 C 1.53 g/m*3 -4.7 C 0 km/h
375 08-03-2010 02:51:04 -5 C 1.63 g/m*3 -5 C 0 km/h
Sensor: Nr:Datum:Temp:Abs-Feuchte:Windchill:Wind:
Aussen-T/F 376 08-03-2010 03:03:04 -5.3 C 1.7 g/m*3 -5.3 C 0 km/h
377 08-03-2010 03:15:05 -5.8 C 1.67 g/m*3 -5.8 C 0 km/h
378 08-03-2010 03:27:05 -5.9 C 1.72 g/m*3 -5.9 C 0 km/h
379 08-03-2010 03:39:05 -5.8 C 1.74 g/m*3 -5.8 C 0 km/h
380 08-03-2010 03:51:05 -6 C 1.71 g/m*3 -6 C 0 km/h
381 08-03-2010 04:03:05 -6.1 C 1.73 g/m*3 -6.1 C 0 km/h
382 08-03-2010 04:15:05 -6.1 C 1.73 g/m*3 -6.1 C 0 km/h
383 08-03-2010 04:27:05 -6.4 C 1.72 g/m*3 -6.4 C 0 km/h
384 08-03-2010 04:39:05 -6.4 C 1.75 g/m*3 -6.4 C 0 km/h
385 08-03-2010 04:51:05 -6.6 C 1.73 g/m*3 -6.6 C 0 km/h
386 08-03-2010 05:03:05 -6.6 C 1.73 g/m*3 -6.6 C 0 km/h
387 08-03-2010 05:15:05 -6.8 C 1.73 g/m*3 -6.8 C 0 km/h
388 08-03-2010 05:27:05 -6.9 C 1.75 g/m*3 -6.9 C 0 km/h
389 08-03-2010 05:39:05 -7.1 C 1.72 g/m*3 -7.1 C 0 km/h
390 08-03-2010 05:51:05 -7.2 C 1.74 g/m*3 -7.2 C 0 km/h
391 08-03-2010 06:03:05 -7.3 C 1.76 g/m*3 -7.3 C 0 km/h
392 08-03-2010 06:15:05 -7.3 C 1.76 g/m*3 -7.3 C 0 km/h
393 08-03-2010 06:27:05 -7.3 C 1.76 g/m*3 -7.3 C 0 km/h
394 08-03-2010 06:39:05 -7.2 C 1.83 g/m*3 -7.2 C 0 km/h
395 08-03-2010 06:51:05 -7.4 C 1.83 g/m*3 -7.4 C 0 km/h
396 08-03-2010 07:03:02 -7.4 C 1.83 g/m*3 -7.4 C 0 km/h
397 08-03-2010 07:15:03 -7.5 C 1.82 g/m*3 -7.5 C 0 km/h
398 08-03-2010 07:27:03 -7.3 C 1.9 g/m*3 -7.3 C 0 km/h
399 08-03-2010 07:39:03 -7 C 1.97 g/m*3 -7 C 0 km/h
400 08-03-2010 07:51:01 -6.5 C 2.05 g/m*3 -6.5 C 0 km/h
Sensor: Nr:Datum:Temp:Abs-Feuchte:Windchill:Wind:
Aussen-T/F 401 08-03-2010 08:03:01 -6.1 C 2.11 g/m*3 -6.1 C 0 km/h
402 08-03-2010 08:15:01 -5.8 C 2.09 g/m*3 -5.8 C 0 km/h
403 08-03-2010 08:27:01 -5.3 C 2.1 g/m*3 -5.3 C 0 km/h
404 08-03-2010 08:39:02 -5 C 2.08 g/m*3 -5 C 0 km/h
405 08-03-2010 08:51:02 -4.5 C 2.12 g/m*3 -4.5 C 0 km/h
406 08-03-2010 09:03:02 -4.2 C 2.02 g/m*3 -4.2 C 0 km/h
407 08-03-2010 09:15:02 -3.7 C 2.06 g/m*3 -3.7 C 0 km/h
408 08-03-2010 09:27:02 -3.1 C 2.15 g/m*3 -3.1 C 0 km/h
409 08-03-2010 09:39:02 -2.5 C 2.12 g/m*3 -2.5 C 0 km/h
410 08-03-2010 09:51:02 -2.1 C 2.01 g/m*3 -2.1 C 0 km/h
411 08-03-2010 10:03:01 -1.7 C 2.02 g/m*3 -1.7 C 0 km/h
412 08-03-2010 10:15:01 -1.3 C 1.99 g/m*3 -1.3 C 0 km/h
413 08-03-2010 10:27:01 -0.6 C 1.95 g/m*3 -0.6 C 0 km/h
414 08-03-2010 10:39:02 0 C 1.94 g/m*3 0 C 0 km/h
415 08-03-2010 10:51:02 0.4 C 1.74 g/m*3 0.4 C 0 km/h
416 08-03-2010 11:03:01 0.7 C 1.78 g/m*3 0.7 C 0 km/h
417 08-03-2010 11:15:02 1.1 C 1.83 g/m*3 1.1 C 0 km/h
418 08-03-2010 11:27:02 1.3 C 1.7 g/m*3 1.3 C 0 km/h
419 08-03-2010 11:39:02 1.7 C 1.85 g/m*3 1.7 C 0 km/h
420 08-03-2010 11:51:01 2.4 C 1.77 g/m*3 2.4 C 0 km/h
421 08-03-2010 12:03:02 2.6 C 1.62 g/m*3 2.6 C 0 km/h
422 08-03-2010 12:15:01 3.1 C 1.68 g/m*3 3.1 C 0 km/h
423 08-03-2010 12:27:01 3.2 C 1.63 g/m*3 3.2 C 0 km/h
424 08-03-2010 12:39:02 3.4 C 1.53 g/m*3 3.4 C 0 km/h
425 08-03-2010 12:51:02 3.2 C 1.39 g/m*3 3.2 C 0 km/h
Sensor: Nr:Datum:Temp:Abs-Feuchte:Windchill:Wind:
Aussen-T/F 426 08-03-2010 13:03:02 3.2 C 1.51 g/m*3 3.2 C 0 km/h
427 08-03-2010 13:15:02 3.6 C 1.61 g/m*3 3.6 C 0 km/h
428 08-03-2010 13:27:02 4.5 C 1.31 g/m*3 4.5 C 0 km/h
429 08-03-2010 13:39:02 4.9 C 1.35 g/m*3 4.9 C 0 km/h
430 08-03-2010 13:51:02 4.9 C 1.35 g/m*3 4.9 C 0 km/h
431 08-03-2010 14:03:02 4.8 C 1.34 g/m*3 4.8 C 0 km/h
432 08-03-2010 14:15:02 3.9 C 1.26 g/m*3 3.9 C 0 km/h
433 08-03-2010 14:27:02 3.5 C 1.41 g/m*3 3.5 C 0 km/h
434 08-03-2010 14:39:02 3.8 C 1.44 g/m*3 3.8 C 0 km/h
435 08-03-2010 14:51:02 4.6 C 1.32 g/m*3 4.6 C 0 km/h
436 08-03-2010 15:03:01 4.3 C 1.3 g/m*3 4.3 C 0 km/h
437 08-03-2010 15:15:02 4.9 C 1.35 g/m*3 4.9 C 0 km/h
438 08-03-2010 15:27:02 5.1 C 1.37 g/m*3 5.1 C 0 km/h
439 08-03-2010 15:39:01 6.4 C 1.49 g/m*3 6.4 C 0 km/h
440 08-03-2010 15:51:02 6.7 C 1.52 g/m*3 6.7 C 0 km/h
441 08-03-2010 16:03:01 6.5 C 1.5 g/m*3 6.5 C 0 km/h
442 08-03-2010 16:15:02 6.6 C 1.51 g/m*3 6.6 C 0 km/h
443 08-03-2010 16:27:02 6.9 C 1.54 g/m*3 6.9 C 0 km/h
444 08-03-2010 16:39:01 6.7 C 1.52 g/m*3 6.7 C 0 km/h
445 08-03-2010 16:51:02 6.4 C 1.49 g/m*3 6.4 C 0 km/h
446 08-03-2010 17:03:02 6.2 C 1.47 g/m*3 6.2 C 0 km/h
447 08-03-2010 17:15:02 6.3 C 1.48 g/m*3 6.3 C 0 km/h
448 08-03-2010 17:27:02 5.8 C 1.43 g/m*3 5.8 C 0 km/h
449 08-03-2010 17:39:02 4.6 C 1.32 g/m*3 4.6 C 0 km/h
450 08-03-2010 17:51:02 4.2 C 1.29 g/m*3 4.2 C 0 km/h
Sensor: Nr:Datum:Temp:Abs-Feuchte:Windchill:Wind:
Aussen-T/F 451 08-03-2010 18:03:02 3.7 C 1.56 g/m*3 3.7 C 0 km/h
452 08-03-2010 18:15:01 2.9 C 1.71 g/m*3 2.9 C 0 km/h
453 08-03-2010 18:27:01 1.8 C 1.75 g/m*3 1.8 C 0 km/h
454 08-03-2010 18:39:02 1.4 C 1.87 g/m*3 1.4 C 0 km/h
455 08-03-2010 18:51:02 0.7 C 2.03 g/m*3 0.7 C 0 km/h
456 08-03-2010 19:03:02 0.4 C 2.04 g/m*3 0.4 C 0 km/h
457 08-03-2010 19:15:02 0.1 C 2.1 g/m*3 0.1 C 0 km/h
458 08-03-2010 19:27:02 -0.2 C 2.15 g/m*3 -0.2 C 0 km/h
459 08-03-2010 19:39:02 -0.3 C 2.04 g/m*3 -0.3 C 0 km/h
460 08-03-2010 19:51:01 -0.3 C 1.99 g/m*3 -0.3 C 0 km/h
461 08-03-2010 20:03:02 -0.6 C 2 g/m*3 -0.6 C 0 km/h
462 08-03-2010 20:15:01 -0.7 C 2.08 g/m*3 -0.7 C 0 km/h
463 08-03-2010 20:27:01 -1.1 C 2.11 g/m*3 -1.1 C 0 km/h
464 08-03-2010 20:39:01 -1.2 C 2.1 g/m*3 -1.2 C 0 km/h
465 08-03-2010 20:51:01 -1.4 C 2.15 g/m*3 -1.4 C 0 km/h
466 08-03-2010 21:03:02 -1.4 C 2.15 g/m*3 -1.4 C 0 km/h
467 08-03-2010 21:15:01 -1.5 C 2.18 g/m*3 -1.5 C 0 km/h
468 08-03-2010 21:27:01 -1.3 C 2.26 g/m*3 -1.3 C 0 km/h
469 08-03-2010 21:40:03 -1.3 C 2.26 g/m*3 -1.3 C 0 km/h
470 08-03-2010 21:52:03 -1.2 C 2.32 g/m*3 -1.2 C 0 km/h
471 08-03-2010 22:04:03 -1.2 C 2.36 g/m*3 -1.2 C 0 km/h
472 08-03-2010 22:16:03 -1.2 C 2.32 g/m*3 -1.2 C 0 km/h
473 08-03-2010 22:28:03 -1.1 C 2.24 g/m*3 -1.1 C 0 km/h
474 08-03-2010 22:40:03 -0.9 C 2.09 g/m*3 -0.9 C 0 km/h
475 08-03-2010 22:52:03 -1 C 2.08 g/m*3 -1 C 0 km/h
Sensor: Nr:Datum:Temp:Abs-Feuchte:Windchill:Wind:
Aussen-T/F 476 08-03-2010 23:04:03 -1.4 C 2.07 g/m*3 -1.4 C 0 km/h
477 08-03-2010 23:16:04 -1.8 C 2.05 g/m*3 -1.8 C 0 km/h
478 08-03-2010 23:28:04 -1.9 C 2.04 g/m*3 -1.9 C 0 km/h
479 08-03-2010 23:40:04 -1.9 C 2.08 g/m*3 -1.9 C 0 km/h
480 08-03-2010 23:52:04 -2 C 2.11 g/m*3 -2 C 0 km/h
481 09-03-2010 00:04:04 -2.1 C 2.13 g/m*3 -2.1 C 0 km/h
482 09-03-2010 00:16:04 -2.2 C 2.12 g/m*3 -2.2 C 0 km/h
483 09-03-2010 00:28:04 -2.4 C 2.09 g/m*3 -2.4 C 0 km/h
484 09-03-2010 00:40:04 -2.4 C 2.09 g/m*3 -2.4 C 0 km/h
485 09-03-2010 00:52:04 -2.6 C 2.14 g/m*3 -2.6 C 0 km/h
486 09-03-2010 01:04:04 -2.8 C 2.15 g/m*3 -2.8 C 0 km/h
487 09-03-2010 01:16:04 -3 C 2.2 g/m*3 -3 C 0 km/h
488 09-03-2010 01:28:04 -3.1 C 2.22 g/m*3 -3.1 C 0 km/h
489 09-03-2010 01:40:04 -3.2 C 2.21 g/m*3 -3.2 C 0 km/h
490 09-03-2010 01:52:04 -3.3 C 2.19 g/m*3 -3.3 C 0 km/h
491 09-03-2010 02:04:04 -3.4 C 2.18 g/m*3 -3.4 C 0 km/h
492 09-03-2010 02:16:05 -3.4 C 2.21 g/m*3 -3.4 C 0 km/h
493 09-03-2010 02:28:05 -3.3 C 2.23 g/m*3 -3.3 C 0 km/h
494 09-03-2010 02:40:05 -3.3 C 2.23 g/m*3 -3.3 C 0 km/h
495 09-03-2010 02:52:05 -3.5 C 2.24 g/m*3 -3.5 C 0 km/h
496 09-03-2010 03:04:05 -3.7 C 2.24 g/m*3 -3.7 C 0 km/h
497 09-03-2010 03:16:05 -3.8 C 2.23 g/m*3 -3.8 C 0 km/h
498 09-03-2010 03:28:05 -3.9 C 2.25 g/m*3 -3.9 C 0 km/h
499 09-03-2010 03:40:05 -4 C 2.27 g/m*3 -4 C 0 km/h
500 09-03-2010 03:52:05 -4.1 C 2.29 g/m*3 -4.1 C 0 km/h
Sensor: Nr:Datum:Temp:Abs-Feuchte:Windchill:Wind:
Aussen-T/F 501 09-03-2010 04:04:05 -4.2 C 2.27 g/m*3 -4.2 C 0 km/h
502 09-03-2010 04:16:05 -4.3 C 2.29 g/m*3 -4.3 C 0 km/h
503 09-03-2010 04:28:05 -4.5 C 2.22 g/m*3 -4.5 C 0 km/h
504 09-03-2010 04:40:05 -4.5 C 2.19 g/m*3 -4.5 C 0 km/h
505 09-03-2010 04:52:05 -4.5 C 2.19 g/m*3 -4.5 C 0 km/h
506 09-03-2010 05:04:05 -4.6 C 2.17 g/m*3 -4.6 C 0 km/h
507 09-03-2010 05:16:05 -4.7 C 2.16 g/m*3 -4.7 C 0 km/h
508 09-03-2010 05:28:05 -4.8 C 2.14 g/m*3 -4.8 C 0 km/h
509 09-03-2010 05:40:05 -4.9 C 2.16 g/m*3 -4.9 C 0 km/h
510 09-03-2010 05:52:05 -4.9 C 2.16 g/m*3 -4.9 C 0 km/h
511 09-03-2010 06:04:05 -4.8 C 2.14 g/m*3 -4.8 C 0 km/h
512 09-03-2010 06:16:05 -4.8 C 2.14 g/m*3 -4.8 C 0 km/h
513 09-03-2010 06:28:05 -4.9 C 2.13 g/m*3 -4.9 C 0 km/h
514 09-03-2010 06:40:06 -5.2 C 2.08 g/m*3 -5.2 C 0 km/h
515 09-03-2010 06:52:06 -5.3 C 2.07 g/m*3 -5.3 C 0 km/h
516 09-03-2010 07:04:03 -5.6 C 2.05 g/m*3 -5.6 C 0 km/h
517 09-03-2010 07:16:03 -5.6 C 2.09 g/m*3 -5.6 C 0 km/h
518 09-03-2010 07:28:03 -5.4 C 2.15 g/m*3 -5.4 C 0 km/h
519 09-03-2010 07:40:03 -5.3 C 2.17 g/m*3 -5.3 C 0 km/h
520 09-03-2010 07:52:02 -5.3 C 2.17 g/m*3 -5.3 C 0 km/h
521 09-03-2010 08:04:02 -5.2 C 2.18 g/m*3 -5.2 C 0 km/h
522 09-03-2010 08:16:02 -5 C 2.18 g/m*3 -5 C 0 km/h
523 09-03-2010 08:28:02 -4.9 C 2.16 g/m*3 -4.9 C 0 km/h
524 09-03-2010 08:40:02 -4.8 C 2.14 g/m*3 -4.8 C 0 km/h
525 09-03-2010 08:52:02 -4.7 C 2.16 g/m*3 -4.7 C 0 km/h
Sensor: Nr:Datum:Temp:Abs-Feuchte:Windchill:Wind:
Aussen-T/F 526 09-03-2010 09:04:01 -4.5 C 2.19 g/m*3 -4.5 C 0 km/h
527 09-03-2010 09:16:02 -4.2 C 2.16 g/m*3 -4.2 C 0 km/h
528 09-03-2010 09:28:02 -3.9 C 2.17 g/m*3 -3.9 C 0 km/h
529 09-03-2010 09:40:01 -3.4 C 2.18 g/m*3 -3.4 C 0 km/h
530 09-03-2010 09:52:02 -2.7 C 2.13 g/m*3 -2.7 C 0 km/h
531 09-03-2010 10:04:01 -2.4 C 2.09 g/m*3 -2.4 C 0 km/h
532 09-03-2010 10:16:01 -1.9 C 2.08 g/m*3 -1.9 C 0 km/h
533 09-03-2010 10:28:01 -1.2 C 2.05 g/m*3 -1.2 C 0 km/h
534 09-03-2010 10:40:02 -0.7 C 1.94 g/m*3 -0.7 C 0 km/h
535 09-03-2010 10:52:02 -0.4 C 1.84 g/m*3 -0.4 C 0 km/h
536 09-03-2010 11:04:01 -0.1 C 1.73 g/m*3 -0.1 C 0 km/h
537 09-03-2010 11:16:02 0.3 C 1.63 g/m*3 0.3 C 0 km/h
538 09-03-2010 11:28:02 0.5 C 1.5 g/m*3 0.5 C 0 km/h
539 09-03-2010 11:40:02 0.5 C 1.3 g/m*3 0.5 C 0 km/h
540 09-03-2010 11:52:01 0.8 C 1.28 g/m*3 0.8 C 0 km/h
541 09-03-2010 12:04:02 1 C 1.09 g/m*3 1 C 0 km/h
542 09-03-2010 12:16:01 1.3 C 1.06 g/m*3 1.3 C 0 km/h
543 09-03-2010 12:28:01 1.6 C 1.14 g/m*3 1.6 C 0 km/h
544 09-03-2010 12:40:02 1.8 C 1.1 g/m*3 1.8 C 0 km/h
545 09-03-2010 12:52:02 2.2 C 1.13 g/m*3 2.2 C 0 km/h
546 09-03-2010 13:04:02 2.2 C 1.13 g/m*3 2.2 C 0 km/h
547 09-03-2010 13:16:01 2.9 C 1.18 g/m*3 2.9 C 0 km/h
548 09-03-2010 13:28:01 3.2 C 1.21 g/m*3 3.2 C 0 km/h
549 09-03-2010 13:40:02 3.5 C 1.23 g/m*3 3.5 C 0 km/h
550 09-03-2010 13:52:02 3.7 C 1.25 g/m*3 3.7 C 0 km/h
Sensor: Nr:Datum:Temp:Abs-Feuchte:Windchill:Wind:
Aussen-T/F 551 09-03-2010 14:04:02 3.9 C 1.26 g/m*3 3.9 C 0 km/h
552 09-03-2010 14:16:02 4.5 C 1.31 g/m*3 4.5 C 0 km/h
553 09-03-2010 14:28:02 4.9 C 1.35 g/m*3 4.9 C 0 km/h
554 09-03-2010 14:40:02 5.3 C 1.39 g/m*3 5.3 C 0 km/h
555 09-03-2010 14:52:02 5.7 C 1.42 g/m*3 5.7 C 0 km/h
556 09-03-2010 15:04:02 5.7 C 1.42 g/m*3 5.7 C 0 km/h
557 09-03-2010 15:16:02 5.7 C 1.42 g/m*3 5.7 C 0 km/h
558 09-03-2010 15:28:02 5.7 C 1.42 g/m*3 5.7 C 0 km/h
559 09-03-2010 15:40:02 6.2 C 1.47 g/m*3 6.2 C 0 km/h
560 09-03-2010 15:52:02 6 C 1.45 g/m*3 6 C 0 km/h
561 09-03-2010 16:04:02 5.9 C 1.44 g/m*3 5.9 C 0 km/h
562 09-03-2010 16:16:02 5.8 C 1.43 g/m*3 5.8 C 0 km/h
563 09-03-2010 16:28:02 6.3 C 1.48 g/m*3 6.3 C 0 km/h
564 09-03-2010 16:40:02 6.3 C 1.48 g/m*3 6.3 C 0 km/h
565 09-03-2010 16:52:02 6.2 C 1.47 g/m*3 6.2 C 0 km/h
566 09-03-2010 17:04:02 5.5 C 1.4 g/m*3 5.5 C 0 km/h
567 09-03-2010 17:16:03 5.2 C 1.38 g/m*3 5.2 C 0 km/h
568 09-03-2010 17:28:03 4.8 C 1.34 g/m*3 4.8 C 0 km/h
569 09-03-2010 17:40:02 4.4 C 1.31 g/m*3 4.4 C 0 km/h
570 09-03-2010 17:52:02 4 C 1.27 g/m*3 4 C 0 km/h
571 09-03-2010 18:04:02 3.2 C 1.21 g/m*3 3.2 C 0 km/h
572 09-03-2010 18:16:02 2.4 C 1.14 g/m*3 2.4 C 0 km/h
573 09-03-2010 18:28:02 1.5 C 1.07 g/m*3 1.5 C 0 km/h
574 09-03-2010 18:40:02 1.1 C 1.05 g/m*3 1.1 C 0 km/h
575 09-03-2010 18:52:02 0.7 C 1.02 g/m*3 0.7 C 0 km/h
Sensor: Nr:Datum:Temp:Abs-Feuchte:Windchill:Wind:
Aussen-T/F 576 09-03-2010 19:04:02 0.5 C 1 g/m*3 0.5 C 0 km/h
577 09-03-2010 19:16:02 0.2 C 0.98 g/m*3 0.2 C 0 km/h
578 09-03-2010 19:28:02 -0.1 C 0.96 g/m*3 -0.1 C 0 km/h
579 09-03-2010 19:40:02 -0.3 C 0.95 g/m*3 -0.3 C 0 km/h
580 09-03-2010 19:52:02 -0.6 C 0.93 g/m*3 -0.6 C 0 km/h
581 09-03-2010 20:04:01 -0.6 C 0.93 g/m*3 -0.6 C 0 km/h
582 09-03-2010 20:16:02 -0.8 C 0.92 g/m*3 -0.8 C 0 km/h
583 09-03-2010 20:28:03 -1.2 C 0.89 g/m*3 -1.2 C 0 km/h
584 09-03-2010 20:40:01 -1.4 C 0.88 g/m*3 -1.4 C 0 km/h
585 09-03-2010 20:52:02 -1.5 C 0.92 g/m*3 -1.5 C 0 km/h
586 09-03-2010 21:04:01 -1.7 C 0.9 g/m*3 -1.7 C 0 km/h
587 09-03-2010 21:16:02 -1.7 C 0.86 g/m*3 -1.7 C 0 km/h
588 09-03-2010 21:28:02 -1.9 C 0.85 g/m*3 -1.9 C 0 km/h
589 09-03-2010 21:40:02 -1.8 C 0.85 g/m*3 -1.8 C 0 km/h
590 09-03-2010 21:52:02 -1.9 C 0.85 g/m*3 -1.9 C 0 km/h
591 09-03-2010 22:04:02 -1.8 C 0.85 g/m*3 -1.8 C 0 km/h
592 09-03-2010 22:16:02 -1.7 C 0.86 g/m*3 -1.7 C 0 km/h
593 09-03-2010 22:28:02 -1.7 C 0.86 g/m*3 -1.7 C 0 km/h
594 09-03-2010 22:40:02 -1.8 C 0.85 g/m*3 -1.8 C 0 km/h
595 09-03-2010 22:52:02 -1.8 C 0.9 g/m*3 -1.8 C 0 km/h
596 09-03-2010 23:05:02 -2 C 1.1 g/m*3 -2 C 0 km/h
597 09-03-2010 23:17:02 -2.3 C 1.24 g/m*3 -2.3 C 0 km/h
598 09-03-2010 23:29:02 -2.4 C 1.27 g/m*3 -2.4 C 0 km/h
599 09-03-2010 23:41:02 -2.5 C 1.34 g/m*3 -2.5 C 0 km/h
600 09-03-2010 23:53:02 -2.6 C 1.41 g/m*3 -2.6 C 0 km/h
Sensor: Nr:Datum:Temp:Abs-Feuchte:Windchill:Wind:
Aussen-T/F 601 10-03-2010 00:05:02 -2.7 C 1.48 g/m*3 -2.7 C 0 km/h
602 10-03-2010 00:17:02 -2.8 C 1.55 g/m*3 -2.8 C 0 km/h
603 10-03-2010 00:29:02 -2.7 C 1.56 g/m*3 -2.7 C 0 km/h
604 10-03-2010 00:41:02 -2.6 C 1.58 g/m*3 -2.6 C 0 km/h
605 10-03-2010 00:53:02 -2.7 C 1.6 g/m*3 -2.7 C 0 km/h
606 10-03-2010 01:05:03 -3 C 1.65 g/m*3 -3 C 0 km/h
607 10-03-2010 01:17:03 -3.1 C 1.68 g/m*3 -3.1 C 0 km/h
608 10-03-2010 01:29:03 -3.2 C 1.7 g/m*3 -3.2 C 0 km/h
609 10-03-2010 01:41:03 -3 C 1.73 g/m*3 -3 C 0 km/h
610 10-03-2010 01:53:03 -3.4 C 1.72 g/m*3 -3.4 C 0 km/h
611 10-03-2010 02:05:03 -3.4 C 1.76 g/m*3 -3.4 C 0 km/h
612 10-03-2010 02:17:03 -3.5 C 1.74 g/m*3 -3.5 C 0 km/h
613 10-03-2010 02:29:03 -3.6 C 1.77 g/m*3 -3.6 C 0 km/h
614 10-03-2010 02:41:03 -3.8 C 1.78 g/m*3 -3.8 C 0 km/h
615 10-03-2010 02:53:03 -3.8 C 1.78 g/m*3 -3.8 C 0 km/h
616 10-03-2010 03:05:03 -3.8 C 1.78 g/m*3 -3.8 C 0 km/h
617 10-03-2010 03:17:03 -3.8 C 1.82 g/m*3 -3.8 C 0 km/h
618 10-03-2010 03:29:03 -3.9 C 1.81 g/m*3 -3.9 C 0 km/h
619 10-03-2010 03:41:03 -3.9 C 1.77 g/m*3 -3.9 C 0 km/h
620 10-03-2010 03:53:03 -3.9 C 1.77 g/m*3 -3.9 C 0 km/h
621 10-03-2010 04:05:03 -3.6 C 1.81 g/m*3 -3.6 C 0 km/h
622 10-03-2010 04:17:03 -3.5 C 1.78 g/m*3 -3.5 C 0 km/h
623 10-03-2010 04:29:03 -3.5 C 1.74 g/m*3 -3.5 C 0 km/h
624 10-03-2010 04:41:03 -3.5 C 1.74 g/m*3 -3.5 C 0 km/h
625 10-03-2010 04:53:03 -3.5 C 1.71 g/m*3 -3.5 C 0 km/h
Sensor: Nr:Datum:Temp:Abs-Feuchte:Windchill:Wind:
Aussen-T/F 626 10-03-2010 05:05:03 -3.6 C 1.69 g/m*3 -3.6 C 0 km/h
627 10-03-2010 05:17:03 -3.5 C 1.71 g/m*3 -3.5 C 0 km/h
628 10-03-2010 05:29:04 -3.5 C 1.71 g/m*3 -3.5 C 0 km/h
629 10-03-2010 05:41:04 -3.5 C 1.71 g/m*3 -3.5 C 0 km/h
630 10-03-2010 05:53:04 -3.4 C 1.68 g/m*3 -3.4 C 0 km/h
631 10-03-2010 06:05:04 -3.6 C 1.66 g/m*3 -3.6 C 0 km/h
632 10-03-2010 06:17:04 -3.6 C 1.69 g/m*3 -3.6 C 0 km/h
633 10-03-2010 06:29:04 -3.9 C 1.69 g/m*3 -3.9 C 0 km/h
634 10-03-2010 06:41:04 -3.8 C 1.67 g/m*3 -3.8 C 0 km/h
635 10-03-2010 06:53:04 -3.7 C 1.68 g/m*3 -3.7 C 0 km/h
636 10-03-2010 07:05:02 -3.7 C 1.68 g/m*3 -3.7 C 0 km/h
637 10-03-2010 07:17:02 -3.6 C 1.69 g/m*3 -3.6 C 0 km/h
638 10-03-2010 07:29:02 -3.6 C 1.69 g/m*3 -3.6 C 0 km/h
639 10-03-2010 07:41:02 -3.4 C 1.72 g/m*3 -3.4 C 0 km/h
640 10-03-2010 07:53:02 -3 C 1.69 g/m*3 -3 C 0 km/h
641 10-03-2010 08:05:02 -2.7 C 1.69 g/m*3 -2.7 C 0 km/h
642 10-03-2010 08:17:02 -2.5 C 1.67 g/m*3 -2.5 C 0 km/h
643 10-03-2010 08:29:02 -2.1 C 1.67 g/m*3 -2.1 C 0 km/h
644 10-03-2010 08:41:02 -1.8 C 1.62 g/m*3 -1.8 C 0 km/h
645 10-03-2010 08:53:02 -1.3 C 1.51 g/m*3 -1.3 C 0 km/h
646 10-03-2010 09:05:02 -1 C 1.4 g/m*3 -1 C 0 km/h
647 10-03-2010 09:17:02 -0.8 C 1.38 g/m*3 -0.8 C 0 km/h
648 10-03-2010 09:29:02 -0.4 C 1.23 g/m*3 -0.4 C 0 km/h
649 10-03-2010 09:41:01 -0.1 C 1.2 g/m*3 -0.1 C 0 km/h
650 10-03-2010 09:53:01 0.5 C 1 g/m*3 0.5 C 0 km/h
Sensor: Nr:Datum:Temp:Abs-Feuchte:Windchill:Wind:
Aussen-T/F 651 10-03-2010 10:05:01 1.1 C 1.05 g/m*3 1.1 C 0 km/h
652 10-03-2010 10:17:02 1.4 C 1.07 g/m*3 1.4 C 0 km/h
653 10-03-2010 10:29:02 1.8 C 1.1 g/m*3 1.8 C 0 km/h
654 10-03-2010 10:41:01 2.3 C 1.13 g/m*3 2.3 C 0 km/h
655 10-03-2010 10:53:02 2.8 C 1.17 g/m*3 2.8 C 0 km/h
656 10-03-2010 11:05:01 3.3 C 1.21 g/m*3 3.3 C 0 km/h
657 10-03-2010 11:17:02 3.6 C 1.24 g/m*3 3.6 C 0 km/h
658 10-03-2010 11:29:02 3.9 C 1.26 g/m*3 3.9 C 0 km/h
659 10-03-2010 11:41:01 4.1 C 1.28 g/m*3 4.1 C 0 km/h
660 10-03-2010 11:53:02 4.3 C 1.62 g/m*3 4.3 C 0 km/h
661 10-03-2010 12:05:02 4.6 C 1.52 g/m*3 4.6 C 0 km/h
662 10-03-2010 12:17:02 5.1 C 1.57 g/m*3 5.1 C 0 km/h
663 10-03-2010 12:29:02 5.7 C 1.49 g/m*3 5.7 C 0 km/h
664 10-03-2010 12:41:01 6.1 C 1.46 g/m*3 6.1 C 0 km/h
665 10-03-2010 12:53:02 6.5 C 1.5 g/m*3 6.5 C 0 km/h
666 10-03-2010 13:05:01 6.6 C 1.51 g/m*3 6.6 C 0 km/h
667 10-03-2010 13:17:01 7 C 1.55 g/m*3 7 C 0 km/h
668 10-03-2010 13:29:01 7.4 C 1.59 g/m*3 7.4 C 0 km/h
669 10-03-2010 13:41:02 7.6 C 1.61 g/m*3 7.6 C 0 km/h
670 10-03-2010 13:53:02 8 C 1.65 g/m*3 8 C 0 km/h
671 10-03-2010 14:05:02 8.2 C 1.67 g/m*3 8.2 C 0 km/h
672 10-03-2010 14:17:02 8.2 C 1.67 g/m*3 8.2 C 0 km/h
673 10-03-2010 14:29:02 8.3 C 1.69 g/m*3 8.3 C 0 km/h
674 10-03-2010 14:41:02 8.5 C 1.71 g/m*3 8.5 C 0 km/h
675 10-03-2010 14:53:02 8.2 C 1.67 g/m*3 8.2 C 0 km/h
Sensor: Nr:Datum:Temp:Abs-Feuchte:Windchill:Wind:
Aussen-T/F 676 10-03-2010 15:05:03 8.7 C 1.73 g/m*3 8.7 C 0 km/h
677 10-03-2010 15:17:02 9.3 C 1.8 g/m*3 9.3 C 0 km/h
678 10-03-2010 15:29:02 8.7 C 1.73 g/m*3 8.7 C 0 km/h
679 10-03-2010 15:41:02 8.4 C 1.7 g/m*3 8.4 C 0 km/h
680 10-03-2010 15:53:01 8.8 C 1.74 g/m*3 8.8 C 0 km/h
681 10-03-2010 16:05:02 8.7 C 1.73 g/m*3 8.7 C 0 km/h
682 10-03-2010 16:17:01 8.3 C 1.69 g/m*3 8.3 C 0 km/h
683 10-03-2010 16:29:01 7.8 C 1.63 g/m*3 7.8 C 0 km/h
684 10-03-2010 16:41:01 7.4 C 1.59 g/m*3 7.4 C 0 km/h
685 10-03-2010 16:53:01 7.1 C 1.56 g/m*3 7.1 C 0 km/h
686 10-03-2010 17:05:02 6.8 C 1.53 g/m*3 6.8 C 0 km/h
687 10-03-2010 17:17:02 6.5 C 1.5 g/m*3 6.5 C 0 km/h
688 10-03-2010 17:29:02 6.2 C 1.47 g/m*3 6.2 C 0 km/h
689 10-03-2010 17:41:01 6.1 C 1.46 g/m*3 6.1 C 0 km/h
690 10-03-2010 17:53:01 5.7 C 1.42 g/m*3 5.7 C 0 km/h
691 10-03-2010 18:05:01 5.4 C 1.4 g/m*3 5.4 C 0 km/h
692 10-03-2010 18:17:02 5 C 1.36 g/m*3 5 C 0 km/h
693 10-03-2010 18:29:02 4.4 C 1.5 g/m*3 4.4 C 0 km/h
694 10-03-2010 18:41:01 4 C 1.78 g/m*3 4 C 0 km/h
695 10-03-2010 18:53:02 3.7 C 1.93 g/m*3 3.7 C 0 km/h
696 10-03-2010 19:05:01 3.7 C 1.81 g/m*3 3.7 C 0 km/h
697 10-03-2010 19:17:02 3.5 C 1.72 g/m*3 3.5 C 0 km/h
698 10-03-2010 19:29:02 3.3 C 1.7 g/m*3 3.3 C 0 km/h
699 10-03-2010 19:41:01 2.9 C 1.89 g/m*3 2.9 C 0 km/h
700 10-03-2010 19:53:03 2.7 C 1.81 g/m*3 2.7 C 0 km/h
Sensor: Nr:Datum:Temp:Abs-Feuchte:Windchill:Wind:
Aussen-T/F 701 10-03-2010 20:05:02 2.7 C 1.81 g/m*3 2.7 C 0 km/h
702 10-03-2010 20:17:02 2.5 C 1.78 g/m*3 2.5 C 0 km/h
703 10-03-2010 20:29:02 2.4 C 1.83 g/m*3 2.4 C 0 km/h
704 10-03-2010 20:41:02 2.3 C 1.76 g/m*3 2.3 C 0 km/h
705 10-03-2010 20:53:02 2.2 C 1.8 g/m*3 2.2 C 0 km/h
706 10-03-2010 21:05:01 2.2 C 1.75 g/m*3 2.2 C 0 km/h
707 10-03-2010 21:18:02 2.1 C 1.73 g/m*3 2.1 C 0 km/h
708 10-03-2010 21:30:02 1.9 C 1.93 g/m*3 1.9 C 0 km/h
709 10-03-2010 21:42:02 1.8 C 1.92 g/m*3 1.8 C 0 km/h
710 10-03-2010 21:54:02 1.7 C 1.96 g/m*3 1.7 C 0 km/h
711 10-03-2010 22:06:02 1.5 C 1.99 g/m*3 1.5 C 0 km/h
712 10-03-2010 22:18:02 1.5 C 1.99 g/m*3 1.5 C 0 km/h
713 10-03-2010 22:30:02 1.4 C 2.03 g/m*3 1.4 C 0 km/h
714 10-03-2010 22:42:02 1.4 C 2.03 g/m*3 1.4 C 0 km/h
715 10-03-2010 22:54:02 1.4 C 2.08 g/m*3 1.4 C 0 km/h
716 10-03-2010 23:06:02 1.1 C 2.09 g/m*3 1.1 C 0 km/h
717 10-03-2010 23:18:02 0.8 C 2.15 g/m*3 0.8 C 0 km/h
718 10-03-2010 23:30:02 0.6 C 2.22 g/m*3 0.6 C 0 km/h
719 10-03-2010 23:42:02 0.4 C 2.24 g/m*3 0.4 C 0 km/h
720 10-03-2010 23:54:02 0.2 C 2.26 g/m*3 0.2 C 0 km/h
721 11-03-2010 00:06:02 0 C 2.33 g/m*3 0 C 0 km/h
722 11-03-2010 00:18:02 0 C 2.33 g/m*3 0 C 0 km/h
723 11-03-2010 00:30:02 -0.2 C 2.29 g/m*3 -0.2 C 0 km/h
724 11-03-2010 00:42:02 -0.2 C 2.29 g/m*3 -0.2 C 0 km/h
725 11-03-2010 00:54:02 -0.2 C 2.29 g/m*3 -0.2 C 0 km/h
Sensor: Nr:Datum:Temp:Abs-Feuchte:Windchill:Wind:
Aussen-T/F 726 11-03-2010 01:06:02 -0.3 C 2.28 g/m*3 -0.3 C 0 km/h
727 11-03-2010 01:18:03 -0.5 C 2.25 g/m*3 -0.5 C 0 km/h
728 11-03-2010 01:30:03 -0.9 C 2.28 g/m*3 -0.9 C 0 km/h
729 11-03-2010 01:42:03 -0.9 C 2.37 g/m*3 -0.9 C 0 km/h
730 11-03-2010 01:54:03 -1.1 C 2.29 g/m*3 -1.1 C 0 km/h
731 11-03-2010 02:06:03 -1 C 2.31 g/m*3 -1 C 0 km/h
732 11-03-2010 02:18:03 -1.1 C 2.29 g/m*3 -1.1 C 0 km/h
733 11-03-2010 02:30:03 -1.3 C 2.3 g/m*3 -1.3 C 0 km/h
734 11-03-2010 02:42:03 -1.3 C 2.3 g/m*3 -1.3 C 0 km/h
735 11-03-2010 02:54:03 -1.4 C 2.33 g/m*3 -1.4 C 0 km/h
736 11-03-2010 03:06:03 -1.5 C 2.31 g/m*3 -1.5 C 0 km/h
737 11-03-2010 03:18:03 -1.5 C 2.36 g/m*3 -1.5 C 0 km/h
738 11-03-2010 03:30:03 -1.7 C 2.32 g/m*3 -1.7 C 0 km/h
739 11-03-2010 03:42:03 -1.8 C 2.31 g/m*3 -1.8 C 0 km/h
740 11-03-2010 03:54:03 -1.9 C 2.29 g/m*3 -1.9 C 0 km/h
741 11-03-2010 04:06:03 -2 C 2.32 g/m*3 -2 C 0 km/h
742 11-03-2010 04:18:03 -2 C 2.32 g/m*3 -2 C 0 km/h
743 11-03-2010 04:30:03 -2.1 C 2.3 g/m*3 -2.1 C 0 km/h
744 11-03-2010 04:42:03 -2.2 C 2.29 g/m*3 -2.2 C 0 km/h
745 11-03-2010 04:54:03 -2.3 C 2.31 g/m*3 -2.3 C 0 km/h
746 11-03-2010 05:06:03 -2.6 C 2.26 g/m*3 -2.6 C 0 km/h
747 11-03-2010 05:18:03 -3 C 2.2 g/m*3 -3 C 0 km/h
748 11-03-2010 05:30:04 -3 C 2.32 g/m*3 -3 C 0 km/h
749 11-03-2010 05:42:04 -3 C 2.4 g/m*3 -3 C 0 km/h
750 11-03-2010 05:54:04 -2.8 C 2.39 g/m*3 -2.8 C 0 km/h
Sensor: Nr:Datum:Temp:Abs-Feuchte:Windchill:Wind:
Aussen-T/F 751 11-03-2010 06:06:04 -2.7 C 2.37 g/m*3 -2.7 C 0 km/h
752 11-03-2010 06:18:04 -2.8 C 2.35 g/m*3 -2.8 C 0 km/h
753 11-03-2010 06:30:04 -2.8 C 2.39 g/m*3 -2.8 C 0 km/h
754 11-03-2010 06:42:04 -2.8 C 2.39 g/m*3 -2.8 C 0 km/h
755 11-03-2010 06:54:04 -2.8 C 2.43 g/m*3 -2.8 C 0 km/h
756 11-03-2010 07:06:02 -2.9 C 2.45 g/m*3 -2.9 C 0 km/h
757 11-03-2010 07:18:01 -3 C 2.44 g/m*3 -3 C 0 km/h
758 11-03-2010 07:30:01 -3 C 2.47 g/m*3 -3 C 0 km/h
759 11-03-2010 07:42:02 -2.9 C 2.49 g/m*3 -2.9 C 0 km/h
760 11-03-2010 07:54:01 -2.7 C 2.53 g/m*3 -2.7 C 0 km/h
761 11-03-2010 08:06:02 -2.4 C 2.58 g/m*3 -2.4 C 0 km/h
762 11-03-2010 08:18:02 -2.1 C 2.55 g/m*3 -2.1 C 0 km/h
763 11-03-2010 08:30:02 -1.8 C 2.52 g/m*3 -1.8 C 0 km/h
764 11-03-2010 08:42:01 -1.3 C 2.52 g/m*3 -1.3 C 0 km/h
765 11-03-2010 08:54:02 -0.9 C 2.55 g/m*3 -0.9 C 0 km/h
766 11-03-2010 09:06:01 -0.7 C 2.54 g/m*3 -0.7 C 0 km/h
767 11-03-2010 09:18:02 -0.4 C 2.45 g/m*3 -0.4 C 0 km/h
768 11-03-2010 09:30:03 -0.3 C 2.42 g/m*3 -0.3 C 0 km/h
769 11-03-2010 09:42:01 -0.2 C 2.39 g/m*3 -0.2 C 0 km/h
770 11-03-2010 09:54:02 -0.2 C 2.29 g/m*3 -0.2 C 0 km/h
771 11-03-2010 10:06:02 0.1 C 2.34 g/m*3 0.1 C 0 km/h
772 11-03-2010 10:18:02 0.2 C 2.36 g/m*3 0.2 C 0 km/h
773 11-03-2010 10:30:02 0.2 C 2.31 g/m*3 0.2 C 0 km/h
774 11-03-2010 10:42:03 0.4 C 2.39 g/m*3 0.4 C 0 km/h
775 11-03-2010 10:54:02 0.9 C 2.42 g/m*3 0.9 C 0 km/h
Sensor: Nr:Datum:Temp:Abs-Feuchte:Windchill:Wind:
Aussen-T/F 776 11-03-2010 11:06:01 1.1 C 2.35 g/m*3 1.1 C 0 km/h
777 11-03-2010 11:18:02 1.4 C 2.35 g/m*3 1.4 C 0 km/h
778 11-03-2010 11:30:02 1.6 C 2.27 g/m*3 1.6 C 0 km/h
779 11-03-2010 11:42:02 1.9 C 2.26 g/m*3 1.9 C 0 km/h
780 11-03-2010 11:54:02 2 C 2.17 g/m*3 2 C 0 km/h
781 11-03-2010 12:06:03 2.2 C 2.2 g/m*3 2.2 C 0 km/h
782 11-03-2010 12:18:02 2.7 C 2.21 g/m*3 2.7 C 0 km/h
783 11-03-2010 12:30:02 3.1 C 2.04 g/m*3 3.1 C 0 km/h
784 11-03-2010 12:42:02 3.6 C 1.98 g/m*3 3.6 C 0 km/h
785 11-03-2010 12:54:02 4 C 1.91 g/m*3 4 C 0 km/h
786 11-03-2010 13:06:02 4.5 C 1.84 g/m*3 4.5 C 0 km/h
787 11-03-2010 13:18:01 4.8 C 1.68 g/m*3 4.8 C 0 km/h
788 11-03-2010 13:30:01 5.1 C 1.78 g/m*3 5.1 C 0 km/h
789 11-03-2010 13:42:02 5.9 C 1.87 g/m*3 5.9 C 0 km/h
790 11-03-2010 13:54:02 5.6 C 1.84 g/m*3 5.6 C 0 km/h
791 11-03-2010 14:06:02 6.1 C 1.9 g/m*3 6.1 C 0 km/h
792 11-03-2010 14:18:01 6.5 C 1.95 g/m*3 6.5 C 0 km/h
793 11-03-2010 14:30:01 6.2 C 2.13 g/m*3 6.2 C 0 km/h
794 11-03-2010 14:42:02 6.6 C 2.04 g/m*3 6.6 C 0 km/h
795 11-03-2010 14:54:02 6.3 C 2.07 g/m*3 6.3 C 0 km/h
796 11-03-2010 15:06:02 5.7 C 2.35 g/m*3 5.7 C 0 km/h
797 11-03-2010 15:18:01 5.9 C 2.45 g/m*3 5.9 C 0 km/h
798 11-03-2010 15:30:01 4.9 C 2.57 g/m*3 4.9 C 0 km/h
799 11-03-2010 15:42:02 4.6 C 2.65 g/m*3 4.6 C 0 km/h
800 11-03-2010 15:54:02 4.8 C 2.68 g/m*3 4.8 C 0 km/h
Sensor: Nr:Datum:Temp:Abs-Feuchte:Windchill:Wind:
Aussen-T/F 801 11-03-2010 16:06:02 4.7 C 2.66 g/m*3 4.7 C 0 km/h
802 11-03-2010 16:18:02 4.8 C 2.68 g/m*3 4.8 C 0 km/h
803 11-03-2010 16:30:02 4.3 C 2.66 g/m*3 4.3 C 0 km/h
804 11-03-2010 16:42:02 4.2 C 2.71 g/m*3 4.2 C 0 km/h
805 11-03-2010 16:54:02 4 C 2.67 g/m*3 4 C 0 km/h
806 11-03-2010 17:06:02 3.9 C 2.78 g/m*3 3.9 C 0 km/h
807 11-03-2010 17:18:02 3.6 C 2.79 g/m*3 3.6 C 0 km/h
808 11-03-2010 17:30:02 3.1 C 2.75 g/m*3 3.1 C 0 km/h
809 11-03-2010 17:42:04 2.8 C 2.82 g/m*3 2.8 C 0 km/h
810 11-03-2010 17:54:02 2.2 C 2.76 g/m*3 2.2 C 0 km/h
811 11-03-2010 18:06:01 2 C 2.78 g/m*3 2 C 0 km/h
812 11-03-2010 18:18:02 1.6 C 2.87 g/m*3 1.6 C 0 km/h
813 11-03-2010 18:30:02 1.2 C 2.84 g/m*3 1.2 C 0 km/h
814 11-03-2010 18:42:02 0.9 C 2.89 g/m*3 0.9 C 0 km/h
815 11-03-2010 18:54:02 0.7 C 2.9 g/m*3 0.7 C 0 km/h
816 11-03-2010 19:06:02 0.4 C 2.89 g/m*3 0.4 C 0 km/h
817 11-03-2010 19:18:02 0.3 C 2.92 g/m*3 0.3 C 0 km/h
818 11-03-2010 19:30:02 0.3 C 2.97 g/m*3 0.3 C 0 km/h
819 11-03-2010 19:42:02 0.1 C 2.93 g/m*3 0.1 C 0 km/h
820 11-03-2010 19:54:02 0 C 2.91 g/m*3 0 C 0 km/h
821 11-03-2010 20:06:02 -0.1 C 2.89 g/m*3 -0.1 C 0 km/h
822 11-03-2010 20:18:02 -0.2 C 2.91 g/m*3 -0.2 C 0 km/h
823 11-03-2010 20:30:02 -0.4 C 2.92 g/m*3 -0.4 C 0 km/h
824 11-03-2010 20:42:02 -0.4 C 2.97 g/m*3 -0.4 C 0 km/h
825 11-03-2010 20:54:01 -0.6 C 2.97 g/m*3 -0.6 C 0 km/h
Sensor: Nr:Datum:Temp:Abs-Feuchte:Windchill:Wind:
Aussen-T/F 826 11-03-2010 21:07:04 -0.8 C 2.93 g/m*3 -0.8 C 0 km/h
827 11-03-2010 21:19:04 -0.8 C 2.98 g/m*3 -0.8 C 0 km/h
828 11-03-2010 21:31:04 -0.9 C 2.96 g/m*3 -0.9 C 0 km/h
829 11-03-2010 21:43:05 -1.1 C 2.96 g/m*3 -1.1 C 0 km/h
830 11-03-2010 21:55:05 -1.1 C 2.96 g/m*3 -1.1 C 0 km/h
831 11-03-2010 22:07:05 -1.2 C 3.03 g/m*3 -1.2 C 0 km/h
832 11-03-2010 22:19:05 -1.3 C 3.01 g/m*3 -1.3 C 0 km/h
833 11-03-2010 22:31:05 -1.2 C 3.08 g/m*3 -1.2 C 0 km/h
834 11-03-2010 22:43:05 -1.4 C 3.03 g/m*3 -1.4 C 0 km/h
835 11-03-2010 22:55:05 -1.5 C 3.06 g/m*3 -1.5 C 0 km/h
836 11-03-2010 23:07:05 -1.7 C 3.01 g/m*3 -1.7 C 0 km/h
837 11-03-2010 23:19:05 -1.9 C 2.97 g/m*3 -1.9 C 0 km/h
838 11-03-2010 23:31:05 -2 C 2.99 g/m*3 -2 C 0 km/h
839 11-03-2010 23:43:05 -2.2 C 2.95 g/m*3 -2.2 C 0 km/h
840 11-03-2010 23:55:05 -2.5 C 2.89 g/m*3 -2.5 C 0 km/h
841 12-03-2010 00:07:05 -2.6 C 2.87 g/m*3 -2.6 C 0 km/h
842 12-03-2010 00:19:05 -2.6 C 2.87 g/m*3 -2.6 C 0 km/h
843 12-03-2010 00:31:05 -2.7 C 2.89 g/m*3 -2.7 C 0 km/h
844 12-03-2010 00:43:05 -2.7 C 2.89 g/m*3 -2.7 C 0 km/h
845 12-03-2010 00:55:05 -2.3 C 2.97 g/m*3 -2.3 C 0 km/h
846 12-03-2010 01:07:05 -1.9 C 3.06 g/m*3 -1.9 C 0 km/h
847 12-03-2010 01:19:05 -1.6 C 3.08 g/m*3 -1.6 C 0 km/h
848 12-03-2010 01:31:05 -1.5 C 3.06 g/m*3 -1.5 C 0 km/h
849 12-03-2010 01:43:05 -1.3 C 3.1 g/m*3 -1.3 C 0 km/h
850 12-03-2010 01:55:06 -1.4 C 3.03 g/m*3 -1.4 C 0 km/h
Sensor: Nr:Datum:Temp:Abs-Feuchte:Windchill:Wind:
Aussen-T/F 851 12-03-2010 02:07:06 -1.4 C 3.03 g/m*3 -1.4 C 0 km/h
852 12-03-2010 02:19:06 -1.3 C 3.1 g/m*3 -1.3 C 0 km/h
853 12-03-2010 02:31:06 -1.3 C 3.1 g/m*3 -1.3 C 0 km/h
854 12-03-2010 02:43:06 -1.3 C 3.1 g/m*3 -1.3 C 0 km/h
855 12-03-2010 02:55:06 -1.3 C 3.1 g/m*3 -1.3 C 0 km/h
856 12-03-2010 03:07:06 -1.2 C 3.12 g/m*3 -1.2 C 0 km/h
857 12-03-2010 03:19:06 -1.3 C 3.1 g/m*3 -1.3 C 0 km/h
858 12-03-2010 03:31:06 -1.3 C 3.1 g/m*3 -1.3 C 0 km/h
859 12-03-2010 03:43:06 -1.3 C 3.14 g/m*3 -1.3 C 0 km/h
860 12-03-2010 03:55:06 -1.2 C 3.17 g/m*3 -1.2 C 0 km/h
861 12-03-2010 04:07:06 -1.3 C 3.14 g/m*3 -1.3 C 0 km/h
862 12-03-2010 04:19:06 -1.3 C 3.14 g/m*3 -1.3 C 0 km/h
863 12-03-2010 04:31:06 -1.3 C 3.14 g/m*3 -1.3 C 0 km/h
864 12-03-2010 04:43:06 -1.3 C 3.14 g/m*3 -1.3 C 0 km/h
865 12-03-2010 04:55:06 -1.3 C 3.14 g/m*3 -1.3 C 0 km/h
866 12-03-2010 05:07:06 -1.2 C 3.17 g/m*3 -1.2 C 0 km/h
867 12-03-2010 05:19:06 -1.2 C 3.21 g/m*3 -1.2 C 0 km/h
868 12-03-2010 05:31:06 -1.2 C 3.21 g/m*3 -1.2 C 0 km/h
869 12-03-2010 05:43:06 -1.1 C 3.23 g/m*3 -1.1 C 0 km/h
870 12-03-2010 05:55:06 -1.1 C 3.23 g/m*3 -1.1 C 0 km/h
871 12-03-2010 06:07:07 -1.1 C 3.28 g/m*3 -1.1 C 0 km/h
872 12-03-2010 06:19:07 -1.1 C 3.28 g/m*3 -1.1 C 0 km/h
873 12-03-2010 06:31:07 -0.9 C 3.32 g/m*3 -0.9 C 0 km/h
874 12-03-2010 06:43:07 -0.9 C 3.32 g/m*3 -0.9 C 0 km/h
875 12-03-2010 06:55:07 -0.9 C 3.37 g/m*3 -0.9 C 0 km/h
Sensor: Nr:Datum:Temp:Abs-Feuchte:Windchill:Wind:
Aussen-T/F 876 12-03-2010 07:07:03 -0.9 C 3.41 g/m*3 -0.9 C 0 km/h
877 12-03-2010 07:19:04 -0.9 C 3.46 g/m*3 -0.9 C 0 km/h
878 12-03-2010 07:31:03 -0.9 C 3.51 g/m*3 -0.9 C 0 km/h
879 12-03-2010 07:43:03 -0.9 C 3.55 g/m*3 -0.9 C 0 km/h
880 12-03-2010 07:55:01 -0.9 C 3.6 g/m*3 -0.9 C 0 km/h
881 12-03-2010 08:07:02 -0.7 C 3.69 g/m*3 -0.7 C 0 km/h
882 12-03-2010 08:19:02 -0.7 C 3.69 g/m*3 -0.7 C 0 km/h
883 12-03-2010 08:31:01 -0.5 C 3.74 g/m*3 -0.5 C 0 km/h
884 12-03-2010 08:43:01 -0.4 C 3.77 g/m*3 -0.4 C 0 km/h
885 12-03-2010 08:55:03 -0.4 C 3.82 g/m*3 -0.4 C 0 km/h
886 12-03-2010 09:07:02 -0.3 C 3.89 g/m*3 -0.3 C 0 km/h
887 12-03-2010 09:19:02 -0.2 C 3.92 g/m*3 -0.2 C 0 km/h
888 12-03-2010 09:31:03 0 C 4.02 g/m*3 0 C 0 km/h
889 12-03-2010 09:43:03 0.1 C 4.05 g/m*3 0.1 C 0 km/h
890 12-03-2010 09:55:02 0.3 C 4.06 g/m*3 0.3 C 0 km/h
891 12-03-2010 10:07:01 0.4 C 4.08 g/m*3 0.4 C 0 km/h
892 12-03-2010 10:19:02 0.7 C 4.12 g/m*3 0.7 C 0 km/h
893 12-03-2010 10:31:02 0.9 C 4.12 g/m*3 0.9 C 0 km/h
894 12-03-2010 10:43:02 1.3 C 4.13 g/m*3 1.3 C 0 km/h
895 12-03-2010 10:55:02 1.5 C 4.14 g/m*3 1.5 C 0 km/h
896 12-03-2010 11:07:03 1.8 C 4.11 g/m*3 1.8 C 0 km/h
897 12-03-2010 11:19:02 2.1 C 4.08 g/m*3 2.1 C 0 km/h
898 12-03-2010 11:31:02 2.2 C 4.06 g/m*3 2.2 C 0 km/h
899 12-03-2010 11:43:03 2.6 C 4.17 g/m*3 2.6 C 0 km/h
900 12-03-2010 11:55:01 2.7 C 4.2 g/m*3 2.7 C 0 km/h
Sensor: Nr:Datum:Temp:Abs-Feuchte:Windchill:Wind:
Aussen-T/F 901 12-03-2010 12:07:02 2.8 C 4.16 g/m*3 2.8 C 0 km/h
902 12-03-2010 12:19:01 3.1 C 4.19 g/m*3 3.1 C 0 km/h
903 12-03-2010 12:31:01 3.4 C 4.28 g/m*3 3.4 C 0 km/h
904 12-03-2010 12:43:01 3.8 C 4.27 g/m*3 3.8 C 0 km/h
905 12-03-2010 12:55:01 3.9 C 4.29 g/m*3 3.9 C 0 km/h
906 12-03-2010 13:07:02 4.4 C 4.31 g/m*3 4.4 C 0 km/h
907 12-03-2010 13:19:01 4.4 C 4.24 g/m*3 4.4 C 0 km/h
908 12-03-2010 13:31:02 4.6 C 4.3 g/m*3 4.6 C 0 km/h
909 12-03-2010 13:43:02 5 C 4.14 g/m*3 5 C 0 km/h
910 12-03-2010 13:55:01 5.2 C 4.27 g/m*3 5.2 C 0 km/h
911 12-03-2010 14:07:02 4.8 C 4.16 g/m*3 4.8 C 0 km/h
912 12-03-2010 14:19:02 5 C 4.08 g/m*3 5 C 0 km/h
913 12-03-2010 14:31:01 5.1 C 4.1 g/m*3 5.1 C 0 km/h
914 12-03-2010 14:43:01 5.4 C 4.12 g/m*3 5.4 C 0 km/h
915 12-03-2010 14:55:01 6.1 C 4.09 g/m*3 6.1 C 0 km/h
916 12-03-2010 15:07:02 7.1 C 4.29 g/m*3 7.1 C 0 km/h
917 12-03-2010 15:19:02 6.9 C 3.85 g/m*3 6.9 C 0 km/h
918 12-03-2010 15:31:01 7.4 C 4.06 g/m*3 7.4 C 0 km/h
919 12-03-2010 15:43:01 7.3 C 3.95 g/m*3 7.3 C 0 km/h
920 12-03-2010 15:55:01 6.1 C 3.8 g/m*3 6.1 C 0 km/h
921 12-03-2010 16:07:01 5.3 C 4.09 g/m*3 5.3 C 0 km/h
922 12-03-2010 16:19:02 4.9 C 4.25 g/m*3 4.9 C 0 km/h
923 12-03-2010 16:31:01 5.1 C 4.38 g/m*3 5.1 C 0 km/h
924 12-03-2010 16:43:01 5.2 C 4.41 g/m*3 5.2 C 0 km/h
925 12-03-2010 16:55:02 5.1 C 4.31 g/m*3 5.1 C 0 km/h
Sensor: Nr:Datum:Temp:Abs-Feuchte:Windchill:Wind:
Aussen-T/F 926 12-03-2010 17:07:01 4.9 C 4.32 g/m*3 4.9 C 0 km/h
927 12-03-2010 17:19:01 4.9 C 4.32 g/m*3 4.9 C 0 km/h
928 12-03-2010 17:31:01 4.8 C 4.29 g/m*3 4.8 C 0 km/h
929 12-03-2010 17:43:01 4.4 C 4.24 g/m*3 4.4 C 0 km/h
930 12-03-2010 17:55:02 4.1 C 4.29 g/m*3 4.1 C 0 km/h
931 12-03-2010 18:07:02 3.9 C 4.36 g/m*3 3.9 C 0 km/h
932 12-03-2010 18:19:02 3.7 C 4.36 g/m*3 3.7 C 0 km/h
933 12-03-2010 18:31:01 3.5 C 4.37 g/m*3 3.5 C 0 km/h
934 12-03-2010 18:43:01 3.2 C 4.28 g/m*3 3.2 C 0 km/h
935 12-03-2010 18:55:02 3 C 4.28 g/m*3 3 C 0 km/h
936 12-03-2010 19:07:01 2.8 C 4.34 g/m*3 2.8 C 0 km/h
937 12-03-2010 19:19:02 2.8 C 4.34 g/m*3 2.8 C 0 km/h
938 12-03-2010 19:31:01 2.8 C 4.4 g/m*3 2.8 C 0 km/h
939 12-03-2010 19:43:01 2.9 C 4.43 g/m*3 2.9 C 0 km/h
940 12-03-2010 19:55:02 3.1 C 4.43 g/m*3 3.1 C 0 km/h
941 12-03-2010 20:07:02 3.1 C 4.43 g/m*3 3.1 C 0 km/h
942 12-03-2010 20:19:02 3.1 C 4.43 g/m*3 3.1 C 0 km/h
943 12-03-2010 20:31:03 3.2 C 4.46 g/m*3 3.2 C 0 km/h
944 12-03-2010 20:43:03 3.1 C 4.37 g/m*3 3.1 C 0 km/h
945 12-03-2010 20:55:02 2.9 C 4.43 g/m*3 2.9 C 0 km/h
946 12-03-2010 21:07:01 2.8 C 4.4 g/m*3 2.8 C 0 km/h
947 12-03-2010 21:19:02 2.8 C 4.46 g/m*3 2.8 C 0 km/h
948 12-03-2010 21:31:02 2.7 C 4.43 g/m*3 2.7 C 0 km/h
949 12-03-2010 21:43:02 2.7 C 4.43 g/m*3 2.7 C 0 km/h
950 12-03-2010 21:55:03 2.6 C 4.4 g/m*3 2.6 C 0 km/h
Sensor: Nr:Datum:Temp:Abs-Feuchte:Windchill:Wind:
Aussen-T/F 951 12-03-2010 22:07:03 2.6 C 4.4 g/m*3 2.6 C 0 km/h
952 12-03-2010 22:20:03 2.6 C 4.46 g/m*3 2.6 C 0 km/h
953 12-03-2010 22:32:03 2.4 C 4.4 g/m*3 2.4 C 0 km/h
954 12-03-2010 22:44:03 2.4 C 4.45 g/m*3 2.4 C 0 km/h
955 12-03-2010 22:56:03 2.4 C 4.45 g/m*3 2.4 C 0 km/h
956 12-03-2010 23:08:03 2.4 C 4.45 g/m*3 2.4 C 0 km/h
957 12-03-2010 23:20:03 2.4 C 4.45 g/m*3 2.4 C 0 km/h
958 12-03-2010 23:32:03 2.3 C 4.42 g/m*3 2.3 C 0 km/h
959 12-03-2010 23:44:03 2.2 C 4.45 g/m*3 2.2 C 0 km/h
960 12-03-2010 23:56:03 2.3 C 4.48 g/m*3 2.3 C 0 km/h
961 13-03-2010 00:08:03 2.3 C 4.48 g/m*3 2.3 C 0 km/h
962 13-03-2010 00:20:03 2.2 C 4.45 g/m*3 2.2 C 0 km/h
963 13-03-2010 00:32:03 2.3 C 4.48 g/m*3 2.3 C 0 km/h
964 13-03-2010 00:44:03 2.3 C 4.48 g/m*3 2.3 C 0 km/h
965 13-03-2010 00:56:03 2.3 C 4.48 g/m*3 2.3 C 0 km/h
966 13-03-2010 01:08:03 2.2 C 4.45 g/m*3 2.2 C 0 km/h
967 13-03-2010 01:20:03 2.2 C 4.39 g/m*3 2.2 C 0 km/h
968 13-03-2010 01:32:03 2.3 C 4.42 g/m*3 2.3 C 0 km/h
969 13-03-2010 01:44:03 2.2 C 4.39 g/m*3 2.2 C 0 km/h
970 13-03-2010 01:56:03 2.2 C 4.39 g/m*3 2.2 C 0 km/h
971 13-03-2010 02:08:03 2.2 C 4.39 g/m*3 2.2 C 0 km/h
972 13-03-2010 02:20:03 2.1 C 4.31 g/m*3 2.1 C 0 km/h
973 13-03-2010 02:32:03 2.2 C 4.34 g/m*3 2.2 C 0 km/h
974 13-03-2010 02:44:04 2.1 C 4.25 g/m*3 2.1 C 0 km/h
975 13-03-2010 02:56:04 2.2 C 4.28 g/m*3 2.2 C 0 km/h
Sensor: Nr:Datum:Temp:Abs-Feuchte:Windchill:Wind:
Aussen-T/F 976 13-03-2010 03:08:04 2.2 C 4.22 g/m*3 2.2 C 0 km/h
977 13-03-2010 03:20:04 2.2 C 4.22 g/m*3 2.2 C 0 km/h
978 13-03-2010 03:32:04 2.2 C 4.22 g/m*3 2.2 C 0 km/h
979 13-03-2010 03:44:04 2 C 4.17 g/m*3 2 C 0 km/h
980 13-03-2010 03:56:04 1.8 C 4.22 g/m*3 1.8 C 0 km/h
981 13-03-2010 04:08:04 1.9 C 4.19 g/m*3 1.9 C 0 km/h
982 13-03-2010 04:20:04 2 C 4.17 g/m*3 2 C 0 km/h
983 13-03-2010 04:32:04 2 C 4.17 g/m*3 2 C 0 km/h
984 13-03-2010 04:44:04 2 C 4.17 g/m*3 2 C 0 km/h
985 13-03-2010 04:56:04 2 C 4.17 g/m*3 2 C 0 km/h
986 13-03-2010 05:08:04 2 C 4.17 g/m*3 2 C 0 km/h
987 13-03-2010 05:20:04 1.8 C 4.17 g/m*3 1.8 C 0 km/h
988 13-03-2010 05:32:04 1.9 C 4.19 g/m*3 1.9 C 0 km/h
989 13-03-2010 05:44:04 2 C 4.11 g/m*3 2 C 0 km/h
990 13-03-2010 05:56:04 2 C 4.11 g/m*3 2 C 0 km/h
991 13-03-2010 06:08:04 2 C 4.11 g/m*3 2 C 0 km/h
992 13-03-2010 06:20:04 2.1 C 4.08 g/m*3 2.1 C 0 km/h
993 13-03-2010 06:32:04 2.2 C 4.11 g/m*3 2.2 C 0 km/h
994 13-03-2010 06:44:04 2.1 C 4.08 g/m*3 2.1 C 0 km/h
995 13-03-2010 06:56:02 2.3 C 4.2 g/m*3 2.3 C 0 km/h
996 13-03-2010 07:08:02 2.3 C 4.25 g/m*3 2.3 C 0 km/h
997 13-03-2010 07:20:02 2.3 C 4.31 g/m*3 2.3 C 0 km/h
998 13-03-2010 07:32:02 2.3 C 4.31 g/m*3 2.3 C 0 km/h
999 13-03-2010 07:44:02 2.4 C 4.45 g/m*3 2.4 C 0 km/h
1000 13-03-2010 07:56:02 2.6 C 4.63 g/m*3 2.6 C 0 km/h
Sensor: Nr:Datum:Temp:Abs-Feuchte:Windchill:Wind:
Aussen-T/F 1001 13-03-2010 08:08:02 2.7 C 4.66 g/m*3 2.7 C 0 km/h
1002 13-03-2010 08:20:02 2.8 C 4.69 g/m*3 2.8 C 0 km/h
1003 13-03-2010 08:32:02 2.9 C 4.72 g/m*3 2.9 C 0 km/h
1004 13-03-2010 08:44:02 3.1 C 4.73 g/m*3 3.1 C 0 km/h
1005 13-03-2010 08:56:02 3.3 C 4.73 g/m*3 3.3 C 0 km/h
1006 13-03-2010 09:08:01 3.4 C 4.7 g/m*3 3.4 C 0 km/h
1007 13-03-2010 09:20:02 3.4 C 4.64 g/m*3 3.4 C 0 km/h
1008 13-03-2010 09:32:01 3.6 C 4.7 g/m*3 3.6 C 0 km/h
1009 13-03-2010 09:44:01 3.6 C 4.7 g/m*3 3.6 C 0 km/h
1010 13-03-2010 09:56:02 3.7 C 4.74 g/m*3 3.7 C 0 km/h
1011 13-03-2010 10:08:01 4 C 4.7 g/m*3 4 C 0 km/h
1012 13-03-2010 10:20:02 4.4 C 4.7 g/m*3 4.4 C 0 km/h
1013 13-03-2010 10:32:02 4.8 C 4.69 g/m*3 4.8 C 0 km/h
1014 13-03-2010 10:44:02 4.8 C 4.49 g/m*3 4.8 C 0 km/h
1015 13-03-2010 10:56:02 5 C 4.42 g/m*3 5 C 0 km/h
1016 13-03-2010 11:08:02 4.8 C 4.22 g/m*3 4.8 C 0 km/h
1017 13-03-2010 11:20:02 4.7 C 4.26 g/m*3 4.7 C 0 km/h
1018 13-03-2010 11:32:02 5.2 C 4.34 g/m*3 5.2 C 0 km/h
1019 13-03-2010 11:44:02 5.3 C 4.23 g/m*3 5.3 C 0 km/h
1020 13-03-2010 11:56:02 6 C 4.06 g/m*3 6 C 0 km/h
1021 13-03-2010 12:08:02 6.5 C 4.05 g/m*3 6.5 C 0 km/h
1022 13-03-2010 12:20:01 6.2 C 3.75 g/m*3 6.2 C 0 km/h
1023 13-03-2010 12:32:02 5.8 C 3.72 g/m*3 5.8 C 0 km/h
1024 13-03-2010 12:44:02 6.3 C 3.78 g/m*3 6.3 C 0 km/h
1025 13-03-2010 12:56:02 6.7 C 3.72 g/m*3 6.7 C 0 km/h
Sensor: Nr:Datum:Temp:Abs-Feuchte:Windchill:Wind:
Aussen-T/F 1026 13-03-2010 13:08:02 6.3 C 3.7 g/m*3 6.3 C 0 km/h
1027 13-03-2010 13:20:02 6 C 3.7 g/m*3 6 C 0 km/h
1028 13-03-2010 13:32:02 5.8 C 3.94 g/m*3 5.8 C 0 km/h
1029 13-03-2010 13:44:02 5.8 C 4.01 g/m*3 5.8 C 0 km/h
1030 13-03-2010 13:56:02 6.1 C 4.16 g/m*3 6.1 C 0 km/h
1031 13-03-2010 14:08:02 6.3 C 4.07 g/m*3 6.3 C 0 km/h
1032 13-03-2010 14:20:02 6.3 C 4.07 g/m*3 6.3 C 0 km/h
1033 13-03-2010 14:32:02 6.1 C 4.02 g/m*3 6.1 C 0 km/h
1034 13-03-2010 14:44:02 6.2 C 3.97 g/m*3 6.2 C 0 km/h
1035 13-03-2010 14:56:02 6.3 C 4 g/m*3 6.3 C 0 km/h
1036 13-03-2010 15:08:02 6.5 C 4.05 g/m*3 6.5 C 0 km/h
1037 13-03-2010 15:20:02 6.5 C 3.9 g/m*3 6.5 C 0 km/h
1038 13-03-2010 15:32:02 6.5 C 3.9 g/m*3 6.5 C 0 km/h
1039 13-03-2010 15:44:02 6.7 C 4.03 g/m*3 6.7 C 0 km/h
1040 13-03-2010 15:56:02 6.6 C 3.93 g/m*3 6.6 C 0 km/h
1041 13-03-2010 16:08:02 6.6 C 3.93 g/m*3 6.6 C 0 km/h
1042 13-03-2010 16:20:03 6.5 C 3.9 g/m*3 6.5 C 0 km/h
1043 13-03-2010 16:32:02 6.5 C 3.9 g/m*3 6.5 C 0 km/h
1044 13-03-2010 16:44:02 6.4 C 3.87 g/m*3 6.4 C 0 km/h
1045 13-03-2010 16:56:02 6.4 C 3.95 g/m*3 6.4 C 0 km/h
1046 13-03-2010 17:08:02 6.4 C 3.95 g/m*3 6.4 C 0 km/h
1047 13-03-2010 17:20:02 6.3 C 3.92 g/m*3 6.3 C 0 km/h
1048 13-03-2010 17:32:02 6.3 C 4 g/m*3 6.3 C 0 km/h
1049 13-03-2010 17:44:02 6.2 C 3.97 g/m*3 6.2 C 0 km/h
1050 13-03-2010 17:56:02 6.2 C 3.97 g/m*3 6.2 C 0 km/h
Sensor: Nr:Datum:Temp:Abs-Feuchte:Windchill:Wind:
Aussen-T/F 1051 13-03-2010 18:08:02 6.2 C 3.97 g/m*3 6.2 C 0 km/h
1052 13-03-2010 18:20:02 6.1 C 3.95 g/m*3 6.1 C 0 km/h
1053 13-03-2010 18:32:01 6.1 C 3.95 g/m*3 6.1 C 0 km/h
1054 13-03-2010 18:44:01 6 C 3.92 g/m*3 6 C 0 km/h
1055 13-03-2010 18:56:02 6.1 C 3.95 g/m*3 6.1 C 0 km/h
1056 13-03-2010 19:08:01 6 C 3.92 g/m*3 6 C 0 km/h
1057 13-03-2010 19:20:02 6 C 3.99 g/m*3 6 C 0 km/h
1058 13-03-2010 19:32:02 6 C 3.99 g/m*3 6 C 0 km/h
1059 13-03-2010 19:44:02 6 C 3.99 g/m*3 6 C 0 km/h
1060 13-03-2010 19:56:02 6 C 3.99 g/m*3 6 C 0 km/h
1061 13-03-2010 20:08:01 5.8 C 4.08 g/m*3 5.8 C 0 km/h
1062 13-03-2010 20:20:01 5.8 C 4.23 g/m*3 5.8 C 0 km/h
1063 13-03-2010 20:32:02 5.5 C 4.28 g/m*3 5.5 C 0 km/h
1064 13-03-2010 20:44:02 5.5 C 4.42 g/m*3 5.5 C 0 km/h
1065 13-03-2010 20:56:02 5.6 C 4.45 g/m*3 5.6 C 0 km/h
1066 13-03-2010 21:08:02 5.6 C 4.45 g/m*3 5.6 C 0 km/h
1067 13-03-2010 21:20:02 5.5 C 4.35 g/m*3 5.5 C 0 km/h
1068 13-03-2010 21:32:02 5.6 C 4.17 g/m*3 5.6 C 0 km/h
1069 13-03-2010 21:44:02 5.5 C 4.07 g/m*3 5.5 C 0 km/h
1070 13-03-2010 21:56:01 5.4 C 4.05 g/m*3 5.4 C 0 km/h
1071 13-03-2010 22:08:02 5.3 C 4.02 g/m*3 5.3 C 0 km/h
1072 13-03-2010 22:21:03 5.2 C 4.13 g/m*3 5.2 C 0 km/h
1073 13-03-2010 22:33:04 5 C 4.21 g/m*3 5 C 0 km/h
1074 13-03-2010 22:45:04 5 C 4.08 g/m*3 5 C 0 km/h
1075 13-03-2010 22:57:04 5.2 C 3.79 g/m*3 5.2 C 0 km/h
Sensor: Nr:Datum:Temp:Abs-Feuchte:Windchill:Wind:
Aussen-T/F 1076 13-03-2010 23:09:04 5.1 C 3.63 g/m*3 5.1 C 0 km/h
1077 13-03-2010 23:21:04 5.1 C 3.63 g/m*3 5.1 C 0 km/h
1078 13-03-2010 23:33:04 5.1 C 3.63 g/m*3 5.1 C 0 km/h
1079 13-03-2010 23:45:04 5 C 3.67 g/m*3 5 C 0 km/h
1080 13-03-2010 23:57:04 4.9 C 3.71 g/m*3 4.9 C 0 km/h
1081 14-03-2010 00:09:04 4.8 C 3.62 g/m*3 4.8 C 0 km/h
1082 14-03-2010 00:21:04 4.7 C 3.6 g/m*3 4.7 C 0 km/h
1083 14-03-2010 00:33:04 4.7 C 3.6 g/m*3 4.7 C 0 km/h
1084 14-03-2010 00:45:04 4.7 C 3.6 g/m*3 4.7 C 0 km/h
1085 14-03-2010 00:57:04 4.6 C 3.57 g/m*3 4.6 C 0 km/h
1086 14-03-2010 01:09:04 4.6 C 3.64 g/m*3 4.6 C 0 km/h
1087 14-03-2010 01:21:04 4.5 C 3.68 g/m*3 4.5 C 0 km/h
1088 14-03-2010 01:33:04 4.4 C 3.66 g/m*3 4.4 C 0 km/h
1089 14-03-2010 01:45:04 4.3 C 3.7 g/m*3 4.3 C 0 km/h
1090 14-03-2010 01:57:04 4.3 C 3.76 g/m*3 4.3 C 0 km/h
1091 14-03-2010 02:09:04 4.3 C 3.76 g/m*3 4.3 C 0 km/h
1092 14-03-2010 02:21:04 4.3 C 3.83 g/m*3 4.3 C 0 km/h
1093 14-03-2010 02:33:04 4.3 C 3.83 g/m*3 4.3 C 0 km/h
1094 14-03-2010 02:45:05 4.2 C 3.8 g/m*3 4.2 C 0 km/h
1095 14-03-2010 02:57:05 4.3 C 3.83 g/m*3 4.3 C 0 km/h
1096 14-03-2010 03:09:05 4.3 C 3.89 g/m*3 4.3 C 0 km/h
1097 14-03-2010 03:21:05 4.3 C 3.89 g/m*3 4.3 C 0 km/h
1098 14-03-2010 03:33:05 4.4 C 3.85 g/m*3 4.4 C 0 km/h
1099 14-03-2010 03:45:05 4.4 C 3.85 g/m*3 4.4 C 0 km/h
1100 14-03-2010 03:57:05 4.4 C 3.85 g/m*3 4.4 C 0 km/h
Sensor: Nr:Datum:Temp:Abs-Feuchte:Windchill:Wind:
Aussen-T/F 1101 14-03-2010 04:09:05 4.4 C 3.85 g/m*3 4.4 C 0 km/h
1102 14-03-2010 04:21:05 4.5 C 3.88 g/m*3 4.5 C 0 km/h
1103 14-03-2010 04:33:05 4.4 C 3.92 g/m*3 4.4 C 0 km/h
1104 14-03-2010 04:45:05 4.4 C 3.92 g/m*3 4.4 C 0 km/h
1105 14-03-2010 04:57:05 4.3 C 3.96 g/m*3 4.3 C 0 km/h
1106 14-03-2010 05:09:05 4.3 C 4.02 g/m*3 4.3 C 0 km/h
1107 14-03-2010 05:21:05 4.3 C 4.02 g/m*3 4.3 C 0 km/h
1108 14-03-2010 05:33:05 4.3 C 4.02 g/m*3 4.3 C 0 km/h
1109 14-03-2010 05:45:05 4.2 C 3.99 g/m*3 4.2 C 0 km/h
1110 14-03-2010 05:57:05 4.2 C 3.99 g/m*3 4.2 C 0 km/h
1111 14-03-2010 06:09:05 4.3 C 4.02 g/m*3 4.3 C 0 km/h
1112 14-03-2010 06:21:05 4.2 C 3.99 g/m*3 4.2 C 0 km/h
1113 14-03-2010 06:33:05 4.2 C 3.99 g/m*3 4.2 C 0 km/h
1114 14-03-2010 06:45:06 4.2 C 3.99 g/m*3 4.2 C 0 km/h
1115 14-03-2010 06:57:06 4.2 C 4.06 g/m*3 4.2 C 0 km/h
1116 14-03-2010 07:09:06 4.3 C 4.02 g/m*3 4.3 C 0 km/h
1117 14-03-2010 07:21:06 4.3 C 4.02 g/m*3 4.3 C 0 km/h
1118 14-03-2010 07:33:06 4.5 C 4.08 g/m*3 4.5 C 0 km/h
1119 14-03-2010 07:45:06 4.6 C 4.04 g/m*3 4.6 C 0 km/h
1120 14-03-2010 07:57:06 4.7 C 4 g/m*3 4.7 C 0 km/h
1121 14-03-2010 08:09:06 4.8 C 3.96 g/m*3 4.8 C 0 km/h
1122 14-03-2010 08:21:06 4.9 C 3.92 g/m*3 4.9 C 0 km/h
1123 14-03-2010 08:33:06 5.2 C 3.86 g/m*3 5.2 C 0 km/h
1124 14-03-2010 08:45:01 5.3 C 3.81 g/m*3 5.3 C 0 km/h
1125 14-03-2010 08:57:01 5.4 C 3.77 g/m*3 5.4 C 0 km/h
Sensor: Nr:Datum:Temp:Abs-Feuchte:Windchill:Wind:
Aussen-T/F 1126 14-03-2010 09:09:02 5.6 C 3.82 g/m*3 5.6 C 0 km/h
1127 14-03-2010 09:21:01 5.7 C 3.77 g/m*3 5.7 C 0 km/h
1128 14-03-2010 09:33:02 6 C 3.7 g/m*3 6 C 0 km/h
1129 14-03-2010 09:45:02 5.9 C 3.75 g/m*3 5.9 C 0 km/h
1130 14-03-2010 09:57:02 6 C 3.77 g/m*3 6 C 0 km/h
1131 14-03-2010 10:09:02 6.3 C 3.78 g/m*3 6.3 C 0 km/h
1132 14-03-2010 10:21:02 6.5 C 3.75 g/m*3 6.5 C 0 km/h
1133 14-03-2010 10:33:02 6.8 C 3.82 g/m*3 6.8 C 0 km/h
1134 14-03-2010 10:45:02 7 C 3.64 g/m*3 7 C 0 km/h
1135 14-03-2010 10:57:02 6.9 C 3.7 g/m*3 6.9 C 0 km/h
1136 14-03-2010 11:09:02 7.2 C 3.69 g/m*3 7.2 C 0 km/h
1137 14-03-2010 11:21:02 7.5 C 3.76 g/m*3 7.5 C 0 km/h
1138 14-03-2010 11:33:02 7.4 C 3.66 g/m*3 7.4 C 0 km/h
1139 14-03-2010 11:45:01 7.5 C 3.76 g/m*3 7.5 C 0 km/h
1140 14-03-2010 11:57:01 7.6 C 3.63 g/m*3 7.6 C 0 km/h
1141 14-03-2010 12:09:02 7.8 C 3.51 g/m*3 7.8 C 0 km/h
1142 14-03-2010 12:21:01 7.8 C 3.43 g/m*3 7.8 C 0 km/h
1143 14-03-2010 12:33:01 7.7 C 3.49 g/m*3 7.7 C 0 km/h
1144 14-03-2010 12:45:01 7.6 C 3.54 g/m*3 7.6 C 0 km/h
1145 14-03-2010 12:57:01 7.6 C 3.63 g/m*3 7.6 C 0 km/h
1146 14-03-2010 13:09:02 7.6 C 3.63 g/m*3 7.6 C 0 km/h
1147 14-03-2010 13:21:01 7.7 C 3.73 g/m*3 7.7 C 0 km/h
1148 14-03-2010 13:33:02 7.7 C 3.73 g/m*3 7.7 C 0 km/h
1149 14-03-2010 13:45:02 7.5 C 3.76 g/m*3 7.5 C 0 km/h
1150 14-03-2010 13:57:02 7.5 C 3.76 g/m*3 7.5 C 0 km/h
Sensor: Nr:Datum:Temp:Abs-Feuchte:Windchill:Wind:
Aussen-T/F 1151 14-03-2010 14:09:02 7.4 C 3.74 g/m*3 7.4 C 0 km/h
1152 14-03-2010 14:21:01 7.3 C 3.79 g/m*3 7.3 C 0 km/h
1153 14-03-2010 14:33:02 7.4 C 3.82 g/m*3 7.4 C 0 km/h
1154 14-03-2010 14:45:02 7.5 C 3.84 g/m*3 7.5 C 0 km/h
1155 14-03-2010 14:57:02 7.5 C 3.84 g/m*3 7.5 C 0 km/h
1156 14-03-2010 15:09:02 7.7 C 3.89 g/m*3 7.7 C 0 km/h
1157 14-03-2010 15:21:02 7.7 C 3.89 g/m*3 7.7 C 0 km/h
1158 14-03-2010 15:33:02 7.8 C 3.84 g/m*3 7.8 C 0 km/h
1159 14-03-2010 15:45:02 7.8 C 3.92 g/m*3 7.8 C 0 km/h
1160 14-03-2010 15:57:02 7.7 C 3.97 g/m*3 7.7 C 0 km/h
1161 14-03-2010 16:09:02 7.6 C 3.95 g/m*3 7.6 C 0 km/h
1162 14-03-2010 16:21:02 7.3 C 4.03 g/m*3 7.3 C 0 km/h
1163 14-03-2010 16:33:02 7.2 C 4.08 g/m*3 7.2 C 0 km/h
1164 14-03-2010 16:45:02 6.9 C 4.31 g/m*3 6.9 C 0 km/h
1165 14-03-2010 16:57:02 6.5 C 4.27 g/m*3 6.5 C 0 km/h
1166 14-03-2010 17:09:02 6.4 C 4.47 g/m*3 6.4 C 0 km/h
1167 14-03-2010 17:21:02 6.7 C 4.18 g/m*3 6.7 C 0 km/h
1168 14-03-2010 17:33:02 6.8 C 4.21 g/m*3 6.8 C 0 km/h
1169 14-03-2010 17:45:02 6.6 C 4.23 g/m*3 6.6 C 0 km/h
1170 14-03-2010 17:57:02 6.4 C 4.32 g/m*3 6.4 C 0 km/h
1171 14-03-2010 18:09:02 6.4 C 4.4 g/m*3 6.4 C 0 km/h
1172 14-03-2010 18:21:02 6.2 C 4.49 g/m*3 6.2 C 0 km/h
1173 14-03-2010 18:33:02 5.9 C 4.61 g/m*3 5.9 C 0 km/h
1174 14-03-2010 18:45:02 5.7 C 4.84 g/m*3 5.7 C 0 km/h
1175 14-03-2010 18:57:02 5.4 C 4.95 g/m*3 5.4 C 0 km/h
Sensor: Nr:Datum:Temp:Abs-Feuchte:Windchill:Wind:
Aussen-T/F 1176 14-03-2010 19:09:01 5.4 C 4.95 g/m*3 5.4 C 0 km/h
1177 14-03-2010 19:21:02 5.4 C 4.95 g/m*3 5.4 C 0 km/h
1178 14-03-2010 19:33:01 5.6 C 5.02 g/m*3 5.6 C 0 km/h
1179 14-03-2010 19:45:02 5.7 C 4.98 g/m*3 5.7 C 0 km/h
1180 14-03-2010 19:57:02 5.8 C 4.94 g/m*3 5.8 C 0 km/h
1181 14-03-2010 20:09:01 5.7 C 4.91 g/m*3 5.7 C 0 km/h
1182 14-03-2010 20:21:02 5.7 C 4.84 g/m*3 5.7 C 0 km/h
1183 14-03-2010 20:33:01 5.7 C 4.77 g/m*3 5.7 C 0 km/h
1184 14-03-2010 20:45:02 5.8 C 4.73 g/m*3 5.8 C 0 km/h
1185 14-03-2010 20:57:02 5.7 C 4.63 g/m*3 5.7 C 0 km/h
1186 14-03-2010 21:09:02 5.7 C 4.55 g/m*3 5.7 C 0 km/h
1187 14-03-2010 21:21:02 5.7 C 4.55 g/m*3 5.7 C 0 km/h
1188 14-03-2010 21:33:02 5.9 C 4.4 g/m*3 5.9 C 0 km/h
1189 14-03-2010 21:46:05 5.8 C 4.37 g/m*3 5.8 C 0 km/h
1190 14-03-2010 21:58:06 5.8 C 4.3 g/m*3 5.8 C 0 km/h
1191 14-03-2010 22:10:06 5.8 C 4.3 g/m*3 5.8 C 0 km/h
1192 14-03-2010 22:22:06 5.9 C 4.33 g/m*3 5.9 C 0 km/h
1193 14-03-2010 22:34:06 5.8 C 4.3 g/m*3 5.8 C 0 km/h
1194 14-03-2010 22:46:06 5.9 C 4.33 g/m*3 5.9 C 0 km/h
1195 14-03-2010 22:58:06 5.9 C 4.33 g/m*3 5.9 C 0 km/h
1196 14-03-2010 23:10:06 6.1 C 4.31 g/m*3 6.1 C 0 km/h
1197 14-03-2010 23:22:06 6 C 4.5 g/m*3 6 C 0 km/h
1198 14-03-2010 23:34:06 5.8 C 4.58 g/m*3 5.8 C 0 km/h
1199 14-03-2010 23:46:06 6.1 C 4.75 g/m*3 6.1 C 0 km/h
1200 14-03-2010 23:58:06 5.7 C 4.77 g/m*3 5.7 C 0 km/h
Sensor: Nr:Datum:Temp:Abs-Feuchte:Windchill:Wind:
Aussen-T/F 1201 15-03-2010 00:10:06 5.8 C 4.73 g/m*3 5.8 C 0 km/h
1202 15-03-2010 00:22:06 5.8 C 4.73 g/m*3 5.8 C 0 km/h
1203 15-03-2010 00:34:06 5.9 C 4.76 g/m*3 5.9 C 0 km/h
1204 15-03-2010 00:46:06 5.8 C 4.8 g/m*3 5.8 C 0 km/h
1205 15-03-2010 00:58:06 5.8 C 4.73 g/m*3 5.8 C 0 km/h
1206 15-03-2010 01:10:06 5.8 C 4.73 g/m*3 5.8 C 0 km/h
1207 15-03-2010 01:22:06 5.8 C 4.73 g/m*3 5.8 C 0 km/h
1208 15-03-2010 01:34:06 5.7 C 4.63 g/m*3 5.7 C 0 km/h
1209 15-03-2010 01:46:06 5.7 C 4.7 g/m*3 5.7 C 0 km/h
1210 15-03-2010 01:58:07 5.7 C 4.77 g/m*3 5.7 C 0 km/h
1211 15-03-2010 02:10:07 5.4 C 4.81 g/m*3 5.4 C 0 km/h
1212 15-03-2010 02:22:07 5.2 C 4.82 g/m*3 5.2 C 0 km/h
1213 15-03-2010 02:34:07 4.9 C 4.93 g/m*3 4.9 C 0 km/h
1214 15-03-2010 02:46:07 4.8 C 5.03 g/m*3 4.8 C 0 km/h
1215 15-03-2010 02:58:07 4.7 C 5 g/m*3 4.7 C 0 km/h
1216 15-03-2010 03:10:07 5 C 4.76 g/m*3 5 C 0 km/h
1217 15-03-2010 03:22:07 5 C 4.69 g/m*3 5 C 0 km/h
1218 15-03-2010 03:34:07 4.9 C 4.79 g/m*3 4.9 C 0 km/h
1219 15-03-2010 03:46:07 4.8 C 4.69 g/m*3 4.8 C 0 km/h
1220 15-03-2010 03:58:07 4.7 C 4.73 g/m*3 4.7 C 0 km/h
1221 15-03-2010 04:10:07 4.6 C 4.63 g/m*3 4.6 C 0 km/h
1222 15-03-2010 04:22:07 4.6 C 4.63 g/m*3 4.6 C 0 km/h
1223 15-03-2010 04:34:07 4.6 C 4.63 g/m*3 4.6 C 0 km/h
1224 15-03-2010 04:46:07 4.6 C 4.57 g/m*3 4.6 C 0 km/h
1225 15-03-2010 04:58:07 4.7 C 4.6 g/m*3 4.7 C 0 km/h
Sensor: Nr:Datum:Temp:Abs-Feuchte:Windchill:Wind:
Aussen-T/F 1226 15-03-2010 05:10:07 4.6 C 4.5 g/m*3 4.6 C 0 km/h
1227 15-03-2010 05:22:07 4.6 C 4.57 g/m*3 4.6 C 0 km/h
1228 15-03-2010 05:34:07 4.6 C 4.43 g/m*3 4.6 C 0 km/h
1229 15-03-2010 05:46:07 4.7 C 4.33 g/m*3 4.7 C 0 km/h
1230 15-03-2010 05:58:07 4.7 C 4.33 g/m*3 4.7 C 0 km/h
1231 15-03-2010 06:10:08 4.7 C 4.26 g/m*3 4.7 C 0 km/h
1232 15-03-2010 06:22:03 4.7 C 4.2 g/m*3 4.7 C 0 km/h
1233 15-03-2010 06:34:04 4.6 C 4.17 g/m*3 4.6 C 0 km/h
1234 15-03-2010 06:46:02 4.6 C 4.23 g/m*3 4.6 C 0 km/h
1235 15-03-2010 06:58:02 4.7 C 4.2 g/m*3 4.7 C 0 km/h
1236 15-03-2010 07:10:02 4.4 C 4.37 g/m*3 4.4 C 0 km/h
1237 15-03-2010 07:22:02 4 C 4.64 g/m*3 4 C 0 km/h
1238 15-03-2010 07:34:02 3.7 C 4.86 g/m*3 3.7 C 0 km/h
1239 15-03-2010 07:46:02 3.6 C 4.95 g/m*3 3.6 C 0 km/h
1240 15-03-2010 07:58:02 3.7 C 5.11 g/m*3 3.7 C 0 km/h
1241 15-03-2010 08:10:02 3.8 C 5.21 g/m*3 3.8 C 0 km/h
1242 15-03-2010 08:22:02 3.7 C 5.23 g/m*3 3.7 C 0 km/h
1243 15-03-2010 08:34:02 3.8 C 5.33 g/m*3 3.8 C 0 km/h
1244 15-03-2010 08:46:02 4 C 5.4 g/m*3 4 C 0 km/h
1245 15-03-2010 08:58:02 4.2 C 5.54 g/m*3 4.2 C 0 km/h
1246 15-03-2010 09:10:02 4.3 C 5.51 g/m*3 4.3 C 0 km/h
1247 15-03-2010 09:22:02 4.3 C 5.51 g/m*3 4.3 C 0 km/h
1248 15-03-2010 09:34:02 4.4 C 5.55 g/m*3 4.4 C 0 km/h
1249 15-03-2010 09:46:02 4.6 C 5.62 g/m*3 4.6 C 0 km/h
1250 15-03-2010 09:58:02 4.5 C 5.52 g/m*3 4.5 C 0 km/h
Sensor: Nr:Datum:Temp:Abs-Feuchte:Windchill:Wind:
Aussen-T/F 1251 15-03-2010 10:10:02 4.5 C 5.52 g/m*3 4.5 C 0 km/h
1252 15-03-2010 10:22:02 4.6 C 5.56 g/m*3 4.6 C 0 km/h
1253 15-03-2010 10:34:02 5.1 C 5.61 g/m*3 5.1 C 0 km/h
1254 15-03-2010 10:46:02 5.5 C 5.48 g/m*3 5.5 C 0 km/h
1255 15-03-2010 10:58:02 6 C 5.44 g/m*3 6 C 0 km/h
1256 15-03-2010 11:10:02 5.9 C 5.26 g/m*3 5.9 C 0 km/h
1257 15-03-2010 11:22:02 6 C 5.08 g/m*3 6 C 0 km/h
1258 15-03-2010 11:34:01 5.9 C 5.05 g/m*3 5.9 C 0 km/h
1259 15-03-2010 11:46:02 5.9 C 4.98 g/m*3 5.9 C 0 km/h
1260 15-03-2010 11:58:02 6 C 4.94 g/m*3 6 C 0 km/h
1261 15-03-2010 12:10:01 6 C 4.79 g/m*3 6 C 0 km/h
1262 15-03-2010 12:22:02 6.6 C 4.98 g/m*3 6.6 C 0 km/h
1263 15-03-2010 12:34:01 7.4 C 4.85 g/m*3 7.4 C 0 km/h
1264 15-03-2010 12:46:02 7.8 C 4.98 g/m*3 7.8 C 0 km/h
1265 15-03-2010 12:58:02 8.5 C 4.87 g/m*3 8.5 C 0 km/h
1266 15-03-2010 13:10:02 9.3 C 4.67 g/m*3 9.3 C 0 km/h
1267 15-03-2010 13:22:02 9 C 4.58 g/m*3 9 C 0 km/h
1268 15-03-2010 13:34:02 9.4 C 4.61 g/m*3 9.4 C 0 km/h
1269 15-03-2010 13:46:02 9.9 C 4.58 g/m*3 9.9 C 0 km/h
1270 15-03-2010 13:58:03 9.7 C 4.33 g/m*3 9.7 C 0 km/h
1271 15-03-2010 14:10:01 10.1 C 4.35 g/m*3 10.1 C 0 km/h
1272 15-03-2010 14:22:01 10 C 4.04 g/m*3 10 C 0 km/h
1273 15-03-2010 14:34:02 10.4 C 3.95 g/m*3 10.4 C 0 km/h
1274 15-03-2010 14:46:02 10.5 C 4.07 g/m*3 10.5 C 0 km/h
1275 15-03-2010 14:58:02 10.3 C 4.02 g/m*3 10.3 C 0 km/h
Sensor: Nr:Datum:Temp:Abs-Feuchte:Windchill:Wind:
Aussen-T/F 1276 15-03-2010 15:10:01 10.4 C 4.05 g/m*3 10.4 C 0 km/h
1277 15-03-2010 15:22:02 11 C 4.1 g/m*3 11 C 0 km/h
1278 15-03-2010 15:34:02 10.5 C 3.98 g/m*3 10.5 C 0 km/h
1279 15-03-2010 15:46:02 10.4 C 4.05 g/m*3 10.4 C 0 km/h
1280 15-03-2010 15:58:02 10.1 C 4.07 g/m*3 10.1 C 0 km/h
1281 15-03-2010 16:10:03 9.9 C 4.2 g/m*3 9.9 C 0 km/h
1282 15-03-2010 16:22:02 10 C 4.23 g/m*3 10 C 0 km/h
1283 15-03-2010 16:34:02 9.9 C 4.29 g/m*3 9.9 C 0 km/h
1284 15-03-2010 16:46:01 9.8 C 4.27 g/m*3 9.8 C 0 km/h
1285 15-03-2010 16:58:01 9.7 C 4.43 g/m*3 9.7 C 0 km/h
1286 15-03-2010 17:10:02 9.6 C 4.4 g/m*3 9.6 C 0 km/h
1287 15-03-2010 17:22:01 9.2 C 4.55 g/m*3 9.2 C 0 km/h
1288 15-03-2010 17:34:01 8.6 C 4.98 g/m*3 8.6 C 0 km/h
1289 15-03-2010 17:46:01 8.3 C 5.06 g/m*3 8.3 C 0 km/h
1290 15-03-2010 17:58:01 8.2 C 4.94 g/m*3 8.2 C 0 km/h
1291 15-03-2010 18:10:02 8.2 C 5.11 g/m*3 8.2 C 0 km/h
1292 15-03-2010 18:22:01 8.1 C 5.16 g/m*3 8.1 C 0 km/h
1293 15-03-2010 18:34:02 8 C 5.21 g/m*3 8 C 0 km/h
1294 15-03-2010 18:46:01 8.1 C 5.08 g/m*3 8.1 C 0 km/h
1295 15-03-2010 18:58:01 7.7 C 5.27 g/m*3 7.7 C 0 km/h
1296 15-03-2010 19:10:02 7.5 C 5.36 g/m*3 7.5 C 0 km/h
1297 15-03-2010 19:22:01 7.2 C 5.42 g/m*3 7.2 C 0 km/h
1298 15-03-2010 19:34:02 7.1 C 5.46 g/m*3 7.1 C 0 km/h
1299 15-03-2010 19:46:01 7 C 5.5 g/m*3 7 C 0 km/h
1300 15-03-2010 19:58:01 7 C 5.58 g/m*3 7 C 0 km/h
Sensor: Nr:Datum:Temp:Abs-Feuchte:Windchill:Wind:
Aussen-T/F 1301 15-03-2010 20:10:02 6.7 C 5.77 g/m*3 6.7 C 0 km/h
1302 15-03-2010 20:22:01 6.8 C 5.81 g/m*3 6.8 C 0 km/h
1303 15-03-2010 20:34:02 6.9 C 5.62 g/m*3 6.9 C 0 km/h
1304 15-03-2010 20:46:01 6.8 C 5.58 g/m*3 6.8 C 0 km/h
1305 15-03-2010 20:58:01 6.8 C 5.58 g/m*3 6.8 C 0 km/h
1306 15-03-2010 21:10:02 6.9 C 5.47 g/m*3 6.9 C 0 km/h
1307 15-03-2010 21:22:02 6.6 C 5.59 g/m*3 6.6 C 0 km/h
1308 15-03-2010 21:34:02 6.4 C 5.66 g/m*3 6.4 C 0 km/h
1309 15-03-2010 21:46:01 6.3 C 5.85 g/m*3 6.3 C 0 km/h
1310 15-03-2010 21:58:01 6.2 C 5.81 g/m*3 6.2 C 0 km/h
1311 15-03-2010 22:10:01 6.1 C 5.77 g/m*3 6.1 C 0 km/h
1312 15-03-2010 22:23:02 6 C 5.73 g/m*3 6 C 0 km/h
1313 15-03-2010 22:35:02 6 C 5.88 g/m*3 6 C 0 km/h
1314 15-03-2010 22:47:02 5.8 C 5.95 g/m*3 5.8 C 0 km/h
1315 15-03-2010 22:59:02 5.8 C 6.02 g/m*3 5.8 C 0 km/h
1316 15-03-2010 23:11:02 5.7 C 6.05 g/m*3 5.7 C 0 km/h
1317 15-03-2010 23:23:02 5.6 C 6.08 g/m*3 5.6 C 0 km/h
1318 15-03-2010 23:35:03 5.5 C 6.11 g/m*3 5.5 C 0 km/h
1319 15-03-2010 23:47:03 5.5 C 6.11 g/m*3 5.5 C 0 km/h
1320 15-03-2010 23:59:03 5.4 C 6.07 g/m*3 5.4 C 0 km/h
1321 16-03-2010 00:11:03 5.4 C 6.14 g/m*3 5.4 C 0 km/h
1322 16-03-2010 00:23:03 5.4 C 6.14 g/m*3 5.4 C 0 km/h
1323 16-03-2010 00:35:03 5.3 C 6.1 g/m*3 5.3 C 0 km/h
1324 16-03-2010 00:47:03 5.2 C 6.13 g/m*3 5.2 C 0 km/h
1325 16-03-2010 00:59:03 5.1 C 6.09 g/m*3 5.1 C 0 km/h
Sensor: Nr:Datum:Temp:Abs-Feuchte:Windchill:Wind:
Aussen-T/F 1326 16-03-2010 01:11:03 5 C 5.98 g/m*3 5 C 0 km/h
1327 16-03-2010 01:23:03 5 C 6.05 g/m*3 5 C 0 km/h
1328 16-03-2010 01:35:03 5 C 6.05 g/m*3 5 C 0 km/h
1329 16-03-2010 01:47:03 5 C 6.05 g/m*3 5 C 0 km/h
1330 16-03-2010 01:59:03 5 C 6.05 g/m*3 5 C 0 km/h
1331 16-03-2010 02:11:03 5 C 6.12 g/m*3 5 C 0 km/h
1332 16-03-2010 02:23:03 4.9 C 6.08 g/m*3 4.9 C 0 km/h
1333 16-03-2010 02:35:03 4.9 C 6.08 g/m*3 4.9 C 0 km/h
1334 16-03-2010 02:47:03 4.9 C 6.08 g/m*3 4.9 C 0 km/h
1335 16-03-2010 02:59:03 4.8 C 5.97 g/m*3 4.8 C 0 km/h
1336 16-03-2010 03:11:03 4.8 C 5.97 g/m*3 4.8 C 0 km/h
1337 16-03-2010 03:23:03 4.7 C 5.93 g/m*3 4.7 C 0 km/h
1338 16-03-2010 03:35:04 4.8 C 6.04 g/m*3 4.8 C 0 km/h
1339 16-03-2010 03:47:04 4.8 C 6.04 g/m*3 4.8 C 0 km/h
1340 16-03-2010 03:59:04 4.8 C 6.1 g/m*3 4.8 C 0 km/h
1341 16-03-2010 04:11:04 4.8 C 6.1 g/m*3 4.8 C 0 km/h
1342 16-03-2010 04:23:04 4.8 C 6.1 g/m*3 4.8 C 0 km/h
1343 16-03-2010 04:35:04 4.7 C 6.06 g/m*3 4.7 C 0 km/h
1344 16-03-2010 04:47:04 4.8 C 6.1 g/m*3 4.8 C 0 km/h
1345 16-03-2010 04:59:04 4.7 C 6.06 g/m*3 4.7 C 0 km/h
1346 16-03-2010 05:11:04 4.7 C 6.06 g/m*3 4.7 C 0 km/h
1347 16-03-2010 05:23:04 4.7 C 6.13 g/m*3 4.7 C 0 km/h
1348 16-03-2010 05:35:04 4.7 C 6.13 g/m*3 4.7 C 0 km/h
1349 16-03-2010 05:47:04 4.6 C 6.02 g/m*3 4.6 C 0 km/h
1350 16-03-2010 05:59:04 4.6 C 6.02 g/m*3 4.6 C 0 km/h
Sensor: Nr:Datum:Temp:Abs-Feuchte:Windchill:Wind:
Aussen-T/F 1351 16-03-2010 06:11:04 4.6 C 6.02 g/m*3 4.6 C 0 km/h
1352 16-03-2010 06:23:04 4.6 C 5.96 g/m*3 4.6 C 0 km/h
1353 16-03-2010 06:35:04 4.6 C 5.96 g/m*3 4.6 C 0 km/h
1354 16-03-2010 06:47:04 4.7 C 6.06 g/m*3 4.7 C 0 km/h
1355 16-03-2010 06:59:04 4.7 C 6.06 g/m*3 4.7 C 0 km/h
1356 16-03-2010 07:11:02 4.7 C 6.06 g/m*3 4.7 C 0 km/h
1357 16-03-2010 07:23:01 4.8 C 6.1 g/m*3 4.8 C 0 km/h
1358 16-03-2010 07:35:02 4.9 C 6.21 g/m*3 4.9 C 0 km/h
1359 16-03-2010 07:47:02 5 C 6.18 g/m*3 5 C 0 km/h
1360 16-03-2010 07:59:02 5 C 6.18 g/m*3 5 C 0 km/h
1361 16-03-2010 08:11:02 5 C 6.18 g/m*3 5 C 0 km/h
1362 16-03-2010 08:23:02 5.1 C 6.22 g/m*3 5.1 C 0 km/h
1363 16-03-2010 08:35:02 5.3 C 6.31 g/m*3 5.3 C 0 km/h
1364 16-03-2010 08:47:02 5.3 C 6.24 g/m*3 5.3 C 0 km/h
1365 16-03-2010 08:59:02 5.5 C 6.32 g/m*3 5.5 C 0 km/h
1366 16-03-2010 09:11:01 5.7 C 6.4 g/m*3 5.7 C 0 km/h
1367 16-03-2010 09:23:02 6 C 6.46 g/m*3 6 C 0 km/h
1368 16-03-2010 09:35:01 6.4 C 6.48 g/m*3 6.4 C 0 km/h
1369 16-03-2010 09:47:02 6.4 C 6.26 g/m*3 6.4 C 0 km/h
1370 16-03-2010 09:59:02 6.6 C 6.11 g/m*3 6.6 C 0 km/h
1371 16-03-2010 10:11:01 6.7 C 6 g/m*3 6.7 C 0 km/h
1372 16-03-2010 10:23:01 6.8 C 5.97 g/m*3 6.8 C 0 km/h
1373 16-03-2010 10:35:02 6.8 C 5.81 g/m*3 6.8 C 0 km/h
1374 16-03-2010 10:47:02 6.8 C 5.66 g/m*3 6.8 C 0 km/h
1375 16-03-2010 10:59:03 6.9 C 5.7 g/m*3 6.9 C 0 km/h
Sensor: Nr:Datum:Temp:Abs-Feuchte:Windchill:Wind:
Aussen-T/F 1376 16-03-2010 11:11:01 7.1 C 5.62 g/m*3 7.1 C 0 km/h
1377 16-03-2010 11:23:02 7.5 C 5.44 g/m*3 7.5 C 0 km/h
1378 16-03-2010 11:35:02 8.1 C 5.41 g/m*3 8.1 C 0 km/h
1379 16-03-2010 11:47:02 8.5 C 5.29 g/m*3 8.5 C 0 km/h
1380 16-03-2010 11:59:02 8.7 C 5.1 g/m*3 8.7 C 0 km/h
1381 16-03-2010 12:11:03 8.7 C 5.1 g/m*3 8.7 C 0 km/h
1382 16-03-2010 12:23:02 8.9 C 5.26 g/m*3 8.9 C 0 km/h
1383 16-03-2010 12:35:02 8.4 C 5.17 g/m*3 8.4 C 0 km/h
1384 16-03-2010 12:47:02 7.9 C 5.34 g/m*3 7.9 C 0 km/h
1385 16-03-2010 12:59:02 7.8 C 5.39 g/m*3 7.8 C 0 km/h
1386 16-03-2010 13:11:02 8 C 5.29 g/m*3 8 C 0 km/h
1387 16-03-2010 13:23:01 7.8 C 5.14 g/m*3 7.8 C 0 km/h
1388 16-03-2010 13:35:02 8.7 C 5.45 g/m*3 8.7 C 0 km/h
1389 16-03-2010 13:47:02 8.2 C 5.11 g/m*3 8.2 C 0 km/h
1390 16-03-2010 13:59:02 8.1 C 5.08 g/m*3 8.1 C 0 km/h
1391 16-03-2010 14:11:02 8.1 C 5.16 g/m*3 8.1 C 0 km/h
1392 16-03-2010 14:23:01 8.7 C 5.36 g/m*3 8.7 C 0 km/h
1393 16-03-2010 14:35:02 8.7 C 5.1 g/m*3 8.7 C 0 km/h
1394 16-03-2010 14:47:02 8.2 C 4.94 g/m*3 8.2 C 0 km/h
1395 16-03-2010 14:59:02 8.1 C 4.99 g/m*3 8.1 C 0 km/h
1396 16-03-2010 15:11:02 8.1 C 5.08 g/m*3 8.1 C 0 km/h
1397 16-03-2010 15:23:01 8.5 C 5.12 g/m*3 8.5 C 0 km/h
1398 16-03-2010 15:35:02 8.6 C 4.81 g/m*3 8.6 C 0 km/h
1399 16-03-2010 15:47:01 8.8 C 4.79 g/m*3 8.8 C 0 km/h
1400 16-03-2010 15:59:01 9 C 4.85 g/m*3 9 C 0 km/h
Sensor: Nr:Datum:Temp:Abs-Feuchte:Windchill:Wind:
Aussen-T/F 1401 16-03-2010 16:11:02 8.7 C 4.76 g/m*3 8.7 C 0 km/h
1402 16-03-2010 16:23:02 8.5 C 4.78 g/m*3 8.5 C 0 km/h
1403 16-03-2010 16:35:02 8.7 C 4.84 g/m*3 8.7 C 0 km/h
1404 16-03-2010 16:47:02 8.7 C 4.84 g/m*3 8.7 C 0 km/h
1405 16-03-2010 16:59:02 8.7 C 4.84 g/m*3 8.7 C 0 km/h
1406 16-03-2010 17:11:02 8.9 C 4.99 g/m*3 8.9 C 0 km/h
1407 16-03-2010 17:23:02 8.8 C 5.05 g/m*3 8.8 C 0 km/h
1408 16-03-2010 17:35:01 8.6 C 4.98 g/m*3 8.6 C 0 km/h
1409 16-03-2010 17:47:02 8.6 C 4.98 g/m*3 8.6 C 0 km/h
1410 16-03-2010 17:59:02 8.4 C 5.01 g/m*3 8.4 C 0 km/h
1411 16-03-2010 18:11:01 8.2 C 5.28 g/m*3 8.2 C 0 km/h
1412 16-03-2010 18:23:02 8 C 5.37 g/m*3 8 C 0 km/h
1413 16-03-2010 18:35:01 7.8 C 5.55 g/m*3 7.8 C 0 km/h
1414 16-03-2010 18:47:02 7.5 C 5.52 g/m*3 7.5 C 0 km/h
1415 16-03-2010 18:59:02 7.3 C 5.53 g/m*3 7.3 C 0 km/h
1416 16-03-2010 19:11:02 7.1 C 5.46 g/m*3 7.1 C 0 km/h
1417 16-03-2010 19:23:02 7 C 5.58 g/m*3 7 C 0 km/h
1418 16-03-2010 19:35:03 6.9 C 5.62 g/m*3 6.9 C 0 km/h
1419 16-03-2010 19:47:02 6.8 C 5.58 g/m*3 6.8 C 0 km/h
1420 16-03-2010 19:59:02 6.6 C 5.51 g/m*3 6.6 C 0 km/h
1421 16-03-2010 20:11:01 6.2 C 5.37 g/m*3 6.2 C 0 km/h
1422 16-03-2010 20:23:02 5.7 C 5.34 g/m*3 5.7 C 0 km/h
1423 16-03-2010 20:35:02 5.3 C 5.2 g/m*3 5.3 C 0 km/h
1424 16-03-2010 20:47:02 4.9 C 5.2 g/m*3 4.9 C 0 km/h
1425 16-03-2010 20:59:03 4.6 C 5.16 g/m*3 4.6 C 0 km/h
Sensor: Nr:Datum:Temp:Abs-Feuchte:Windchill:Wind:
Aussen-T/F 1426 16-03-2010 21:11:01 4.4 C 5.09 g/m*3 4.4 C 0 km/h
1427 16-03-2010 21:23:01 4.2 C 5.03 g/m*3 4.2 C 0 km/h
1428 16-03-2010 21:36:04 4 C 5.02 g/m*3 4 C 0 km/h
1429 16-03-2010 21:48:04 3.8 C 5.02 g/m*3 3.8 C 0 km/h
1430 16-03-2010 22:00:04 3.7 C 5.05 g/m*3 3.7 C 0 km/h
1431 16-03-2010 22:12:04 3.3 C 4.91 g/m*3 3.3 C 0 km/h
1432 16-03-2010 22:24:04 3.2 C 4.88 g/m*3 3.2 C 0 km/h
1433 16-03-2010 22:36:04 2.9 C 4.84 g/m*3 2.9 C 0 km/h
1434 16-03-2010 22:48:04 2.8 C 4.81 g/m*3 2.8 C 0 km/h
1435 16-03-2010 23:00:04 2.7 C 4.78 g/m*3 2.7 C 0 km/h
1436 16-03-2010 23:12:04 2.5 C 4.71 g/m*3 2.5 C 0 km/h
1437 16-03-2010 23:24:04 2.4 C 4.74 g/m*3 2.4 C 0 km/h
1438 16-03-2010 23:36:04 2.2 C 4.68 g/m*3 2.2 C 0 km/h
1439 16-03-2010 23:48:04 2 C 4.61 g/m*3 2 C 0 km/h
1440 17-03-2010 00:00:04 2.3 C 4.76 g/m*3 2.3 C 0 km/h
1441 17-03-2010 00:12:04 2 C 4.67 g/m*3 2 C 0 km/h
1442 17-03-2010 00:24:05 2.2 C 4.73 g/m*3 2.2 C 0 km/h
1443 17-03-2010 00:36:05 2.3 C 4.82 g/m*3 2.3 C 0 km/h
1444 17-03-2010 00:48:05 2.3 C 4.76 g/m*3 2.3 C 0 km/h
1445 17-03-2010 01:00:05 2.3 C 4.76 g/m*3 2.3 C 0 km/h
1446 17-03-2010 01:12:05 2.3 C 4.76 g/m*3 2.3 C 0 km/h
1447 17-03-2010 01:24:05 1.8 C 4.6 g/m*3 1.8 C 0 km/h
1448 17-03-2010 01:36:05 1.6 C 4.54 g/m*3 1.6 C 0 km/h
1449 17-03-2010 01:48:05 1.7 C 4.63 g/m*3 1.7 C 0 km/h
1450 17-03-2010 02:00:05 2 C 4.67 g/m*3 2 C 0 km/h
Sensor: Nr:Datum:Temp:Abs-Feuchte:Windchill:Wind:
Aussen-T/F 1451 17-03-2010 02:12:05 2 C 4.67 g/m*3 2 C 0 km/h
1452 17-03-2010 02:24:05 2.1 C 4.64 g/m*3 2.1 C 0 km/h
1453 17-03-2010 02:36:05 2.1 C 4.64 g/m*3 2.1 C 0 km/h
1454 17-03-2010 02:48:05 2.1 C 4.59 g/m*3 2.1 C 0 km/h
1455 17-03-2010 03:00:05 2.2 C 4.62 g/m*3 2.2 C 0 km/h
1456 17-03-2010 03:12:05 2 C 4.56 g/m*3 2 C 0 km/h
1457 17-03-2010 03:24:05 2.1 C 4.59 g/m*3 2.1 C 0 km/h
1458 17-03-2010 03:36:05 2 C 4.56 g/m*3 2 C 0 km/h
1459 17-03-2010 03:48:05 2.1 C 4.59 g/m*3 2.1 C 0 km/h
1460 17-03-2010 04:00:05 2 C 4.56 g/m*3 2 C 0 km/h
1461 17-03-2010 04:12:05 1.9 C 4.58 g/m*3 1.9 C 0 km/h
1462 17-03-2010 04:24:05 1.7 C 4.46 g/m*3 1.7 C 0 km/h
1463 17-03-2010 04:36:06 1.4 C 4.37 g/m*3 1.4 C 0 km/h
1464 17-03-2010 04:48:06 1.1 C 4.34 g/m*3 1.1 C 0 km/h
1465 17-03-2010 05:00:06 1 C 4.31 g/m*3 1 C 0 km/h
1466 17-03-2010 05:12:06 0.8 C 4.3 g/m*3 0.8 C 0 km/h
1467 17-03-2010 05:24:06 0.8 C 4.35 g/m*3 0.8 C 0 km/h
1468 17-03-2010 05:36:06 0.7 C 4.32 g/m*3 0.7 C 0 km/h
1469 17-03-2010 05:48:06 0.7 C 4.37 g/m*3 0.7 C 0 km/h
1470 17-03-2010 06:00:06 0.6 C 4.34 g/m*3 0.6 C 0 km/h
1471 17-03-2010 06:12:06 0.5 C 4.31 g/m*3 0.5 C 0 km/h
1472 17-03-2010 06:24:06 0.6 C 4.39 g/m*3 0.6 C 0 km/h
1473 17-03-2010 06:36:06 0.4 C 4.33 g/m*3 0.4 C 0 km/h
1474 17-03-2010 06:48:02 0.6 C 4.39 g/m*3 0.6 C 0 km/h
1475 17-03-2010 07:00:02 0.5 C 4.36 g/m*3 0.5 C 0 km/h
Sensor: Nr:Datum:Temp:Abs-Feuchte:Windchill:Wind:
Aussen-T/F 1476 17-03-2010 07:12:02 0.6 C 4.44 g/m*3 0.6 C 0 km/h
1477 17-03-2010 07:24:03 0.8 C 4.51 g/m*3 0.8 C 0 km/h
1478 17-03-2010 07:36:02 1.2 C 4.63 g/m*3 1.2 C 0 km/h
1479 17-03-2010 07:48:02 1.5 C 4.73 g/m*3 1.5 C 0 km/h
1480 17-03-2010 08:00:02 1.6 C 4.7 g/m*3 1.6 C 0 km/h
1481 17-03-2010 08:12:02 1.8 C 4.77 g/m*3 1.8 C 0 km/h
1482 17-03-2010 08:24:02 2 C 4.72 g/m*3 2 C 0 km/h
1483 17-03-2010 08:36:02 2.3 C 4.76 g/m*3 2.3 C 0 km/h
1484 17-03-2010 08:48:02 2.6 C 4.8 g/m*3 2.6 C 0 km/h
1485 17-03-2010 09:00:02 2.9 C 4.67 g/m*3 2.9 C 0 km/h
1486 17-03-2010 09:12:02 3.5 C 4.67 g/m*3 3.5 C 0 km/h
1487 17-03-2010 09:24:03 4.2 C 4.77 g/m*3 4.2 C 0 km/h
1488 17-03-2010 09:36:02 4.6 C 4.5 g/m*3 4.6 C 0 km/h
1489 17-03-2010 09:48:02 4.8 C 4.36 g/m*3 4.8 C 0 km/h
1490 17-03-2010 10:00:02 5.2 C 4.41 g/m*3 5.2 C 0 km/h
1491 17-03-2010 10:12:02 5.5 C 4.35 g/m*3 5.5 C 0 km/h
1492 17-03-2010 10:24:02 6.2 C 4.27 g/m*3 6.2 C 0 km/h
1493 17-03-2010 10:36:02 6.8 C 4.36 g/m*3 6.8 C 0 km/h
1494 17-03-2010 10:48:02 7.1 C 4.21 g/m*3 7.1 C 0 km/h
1495 17-03-2010 11:00:02 7.6 C 4.11 g/m*3 7.6 C 0 km/h
1496 17-03-2010 11:12:02 8.2 C 3.94 g/m*3 8.2 C 0 km/h
1497 17-03-2010 11:24:02 8.8 C 3.92 g/m*3 8.8 C 0 km/h
1498 17-03-2010 11:36:01 9 C 3.79 g/m*3 9 C 0 km/h
1499 17-03-2010 11:48:02 9.1 C 3.73 g/m*3 9.1 C 0 km/h
1500 17-03-2010 12:00:02 9.6 C 3.94 g/m*3 9.6 C 0 km/h
Sensor: Nr:Datum:Temp:Abs-Feuchte:Windchill:Wind:
Aussen-T/F 1501 17-03-2010 12:12:01 10.1 C 3.78 g/m*3 10.1 C 0 km/h
1502 17-03-2010 12:24:02 10.4 C 3.66 g/m*3 10.4 C 0 km/h
1503 17-03-2010 12:36:02 11.1 C 3.73 g/m*3 11.1 C 0 km/h
1504 17-03-2010 12:48:02 11.5 C 3.72 g/m*3 11.5 C 0 km/h
1505 17-03-2010 13:00:03 11.8 C 3.58 g/m*3 11.8 C 0 km/h
1506 17-03-2010 13:12:02 12.2 C 3.45 g/m*3 12.2 C 0 km/h
1507 17-03-2010 13:24:02 12.8 C 3.47 g/m*3 12.8 C 0 km/h
1508 17-03-2010 13:36:02 13.1 C 3.42 g/m*3 13.1 C 0 km/h
1509 17-03-2010 13:48:02 13.2 C 3.44 g/m*3 13.2 C 0 km/h
1510 17-03-2010 14:00:02 13.4 C 3.02 g/m*3 13.4 C 0 km/h
1511 17-03-2010 14:12:02 13.5 C 2.92 g/m*3 13.5 C 0 km/h
1512 17-03-2010 14:24:01 13.4 C 2.91 g/m*3 13.4 C 0 km/h
1513 17-03-2010 14:36:02 13.8 C 3.1 g/m*3 13.8 C 0 km/h
1514 17-03-2010 14:48:02 14.1 C 2.79 g/m*3 14.1 C 0 km/h
1515 17-03-2010 15:00:02 14.5 C 3.11 g/m*3 14.5 C 0 km/h
1516 17-03-2010 15:12:02 14.7 C 3.15 g/m*3 14.7 C 0 km/h
1517 17-03-2010 15:24:02 14.6 C 3.13 g/m*3 14.6 C 0 km/h
1518 17-03-2010 15:36:02 14.6 C 3.13 g/m*3 14.6 C 0 km/h
1519 17-03-2010 15:48:02 14.1 C 3.16 g/m*3 14.1 C 0 km/h
1520 17-03-2010 16:00:02 14.1 C 3.03 g/m*3 14.1 C 0 km/h
1521 17-03-2010 16:12:03 13.9 C 3 g/m*3 13.9 C 0 km/h
1522 17-03-2010 16:24:02 14 C 3.14 g/m*3 14 C 0 km/h
1523 17-03-2010 16:36:02 13.9 C 3.12 g/m*3 13.9 C 0 km/h
1524 17-03-2010 16:48:01 13.8 C 2.98 g/m*3 13.8 C 0 km/h
1525 17-03-2010 17:00:01 13.7 C 3.08 g/m*3 13.7 C 0 km/h
Sensor: Nr:Datum:Temp:Abs-Feuchte:Windchill:Wind:
Aussen-T/F 1526 17-03-2010 17:12:02 13.7 C 3.08 g/m*3 13.7 C 0 km/h
1527 17-03-2010 17:24:01 13.4 C 3.25 g/m*3 13.4 C 0 km/h
1528 17-03-2010 17:36:01 13.1 C 3.42 g/m*3 13.1 C 0 km/h
1529 17-03-2010 17:48:01 12.5 C 3.63 g/m*3 12.5 C 0 km/h
1530 17-03-2010 18:00:01 12 C 3.62 g/m*3 12 C 0 km/h
1531 17-03-2010 18:12:02 11.7 C 3.77 g/m*3 11.7 C 0 km/h
1532 17-03-2010 18:24:02 11.2 C 3.75 g/m*3 11.2 C 0 km/h
1533 17-03-2010 18:36:01 10.8 C 3.76 g/m*3 10.8 C 0 km/h
1534 17-03-2010 18:48:01 10.4 C 3.86 g/m*3 10.4 C 0 km/h
1535 17-03-2010 19:00:01 10 C 3.95 g/m*3 10 C 0 km/h
1536 17-03-2010 19:12:01 9.6 C 3.94 g/m*3 9.6 C 0 km/h
1537 17-03-2010 19:24:02 9.5 C 3.91 g/m*3 9.5 C 0 km/h
1538 17-03-2010 19:36:01 9.2 C 4.02 g/m*3 9.2 C 0 km/h
1539 17-03-2010 19:48:03 9 C 4.14 g/m*3 9 C 0 km/h
1540 17-03-2010 20:00:03 8.6 C 4.12 g/m*3 8.6 C 0 km/h
1541 17-03-2010 20:12:02 8.5 C 4.18 g/m*3 8.5 C 0 km/h
1542 17-03-2010 20:24:02 8.2 C 4.19 g/m*3 8.2 C 0 km/h
1543 17-03-2010 20:36:02 7.9 C 4.19 g/m*3 7.9 C 0 km/h
1544 17-03-2010 20:48:02 7.8 C 4.24 g/m*3 7.8 C 0 km/h
1545 17-03-2010 21:00:02 7.5 C 4.32 g/m*3 7.5 C 0 km/h
1546 17-03-2010 21:13:03 7.3 C 4.35 g/m*3 7.3 C 0 km/h
1547 17-03-2010 21:25:03 7.3 C 4.35 g/m*3 7.3 C 0 km/h
1548 17-03-2010 21:37:03 7 C 4.26 g/m*3 7 C 0 km/h
1549 17-03-2010 21:49:03 6.9 C 4.39 g/m*3 6.9 C 0 km/h
1550 17-03-2010 22:01:03 6.9 C 4.39 g/m*3 6.9 C 0 km/h
Sensor: Nr:Datum:Temp:Abs-Feuchte:Windchill:Wind:
Aussen-T/F 1551 17-03-2010 22:13:03 6.9 C 4.39 g/m*3 6.9 C 0 km/h
1552 17-03-2010 22:25:03 6.9 C 4.31 g/m*3 6.9 C 0 km/h
1553 17-03-2010 22:37:03 6.9 C 4.23 g/m*3 6.9 C 0 km/h
1554 17-03-2010 22:49:03 6.8 C 4.28 g/m*3 6.8 C 0 km/h
1555 17-03-2010 23:01:03 6.6 C 4.38 g/m*3 6.6 C 0 km/h
1556 17-03-2010 23:13:03 6.4 C 4.4 g/m*3 6.4 C 0 km/h
1557 17-03-2010 23:25:03 6.1 C 4.38 g/m*3 6.1 C 0 km/h
1558 17-03-2010 23:37:03 5.9 C 4.47 g/m*3 5.9 C 0 km/h
1559 17-03-2010 23:49:03 6.2 C 4.49 g/m*3 6.2 C 0 km/h
1560 18-03-2010 00:01:03 6.1 C 4.38 g/m*3 6.1 C 0 km/h
1561 18-03-2010 00:13:03 6.1 C 4.38 g/m*3 6.1 C 0 km/h
1562 18-03-2010 00:25:03 5.8 C 4.44 g/m*3 5.8 C 0 km/h
1563 18-03-2010 00:37:03 5.7 C 4.41 g/m*3 5.7 C 0 km/h
1564 18-03-2010 00:49:03 5.7 C 4.41 g/m*3 5.7 C 0 km/h
1565 18-03-2010 01:01:03 5.6 C 4.38 g/m*3 5.6 C 0 km/h
1566 18-03-2010 01:13:04 5.5 C 4.35 g/m*3 5.5 C 0 km/h
1567 18-03-2010 01:25:04 5.6 C 4.38 g/m*3 5.6 C 0 km/h
1568 18-03-2010 01:37:04 5.4 C 4.4 g/m*3 5.4 C 0 km/h
1569 18-03-2010 01:49:04 5.4 C 4.47 g/m*3 5.4 C 0 km/h
1570 18-03-2010 02:01:04 5.4 C 4.4 g/m*3 5.4 C 0 km/h
1571 18-03-2010 02:13:04 5.4 C 4.4 g/m*3 5.4 C 0 km/h
1572 18-03-2010 02:25:04 5.3 C 4.37 g/m*3 5.3 C 0 km/h
1573 18-03-2010 02:37:04 4.9 C 4.39 g/m*3 4.9 C 0 km/h
1574 18-03-2010 02:49:04 4.5 C 4.34 g/m*3 4.5 C 0 km/h
1575 18-03-2010 03:01:04 4.3 C 4.35 g/m*3 4.3 C 0 km/h
Sensor: Nr:Datum:Temp:Abs-Feuchte:Windchill:Wind:
Aussen-T/F 1576 18-03-2010 03:13:04 4 C 4.32 g/m*3 4 C 0 km/h
1577 18-03-2010 03:25:04 3.8 C 4.39 g/m*3 3.8 C 0 km/h
1578 18-03-2010 03:37:04 3.8 C 4.39 g/m*3 3.8 C 0 km/h
1579 18-03-2010 03:49:04 3.8 C 4.39 g/m*3 3.8 C 0 km/h
1580 18-03-2010 04:01:04 3.8 C 4.39 g/m*3 3.8 C 0 km/h
1581 18-03-2010 04:13:04 3.7 C 4.42 g/m*3 3.7 C 0 km/h
1582 18-03-2010 04:25:04 3.4 C 4.4 g/m*3 3.4 C 0 km/h
1583 18-03-2010 04:37:04 3.2 C 4.34 g/m*3 3.2 C 0 km/h
1584 18-03-2010 04:49:04 3 C 4.28 g/m*3 3 C 0 km/h
1585 18-03-2010 05:01:04 2.8 C 4.34 g/m*3 2.8 C 0 km/h
1586 18-03-2010 05:13:04 2.7 C 4.31 g/m*3 2.7 C 0 km/h
1587 18-03-2010 05:25:04 2.5 C 4.25 g/m*3 2.5 C 0 km/h
1588 18-03-2010 05:37:04 2.5 C 4.25 g/m*3 2.5 C 0 km/h
1589 18-03-2010 05:49:05 2.2 C 4.17 g/m*3 2.2 C 0 km/h
1590 18-03-2010 06:01:05 2.1 C 4.2 g/m*3 2.1 C 0 km/h
1591 18-03-2010 06:13:05 2.1 C 4.25 g/m*3 2.1 C 0 km/h
1592 18-03-2010 06:25:05 1.9 C 4.19 g/m*3 1.9 C 0 km/h
1593 18-03-2010 06:37:05 1.8 C 4.22 g/m*3 1.8 C 0 km/h
1594 18-03-2010 06:49:05 1.7 C 4.19 g/m*3 1.7 C 0 km/h
1595 18-03-2010 07:01:02 1.7 C 4.19 g/m*3 1.7 C 0 km/h
1596 18-03-2010 07:13:02 1.9 C 4.3 g/m*3 1.9 C 0 km/h
1597 18-03-2010 07:25:03 1.8 C 4.28 g/m*3 1.8 C 0 km/h
1598 18-03-2010 07:37:02 2 C 4.33 g/m*3 2 C 0 km/h
1599 18-03-2010 07:49:02 2.2 C 4.39 g/m*3 2.2 C 0 km/h
1600 18-03-2010 08:01:01 2.5 C 4.43 g/m*3 2.5 C 0 km/h
Sensor: Nr:Datum:Temp:Abs-Feuchte:Windchill:Wind:
Aussen-T/F 1601 18-03-2010 08:13:01 2.8 C 4.52 g/m*3 2.8 C 0 km/h
1602 18-03-2010 08:25:02 3.1 C 4.55 g/m*3 3.1 C 0 km/h
1603 18-03-2010 08:37:01 3.5 C 4.61 g/m*3 3.5 C 0 km/h
1604 18-03-2010 08:49:01 4 C 4.64 g/m*3 4 C 0 km/h
1605 18-03-2010 09:01:02 4.6 C 4.7 g/m*3 4.6 C 0 km/h
1606 18-03-2010 09:13:02 5.1 C 4.45 g/m*3 5.1 C 0 km/h
1607 18-03-2010 09:25:01 5.3 C 4.37 g/m*3 5.3 C 0 km/h
1608 18-03-2010 09:37:02 5.9 C 4.25 g/m*3 5.9 C 0 km/h
1609 18-03-2010 09:49:01 6.2 C 4.19 g/m*3 6.2 C 0 km/h
1610 18-03-2010 10:01:02 6.7 C 4.41 g/m*3 6.7 C 0 km/h
1611 18-03-2010 10:13:02 7.4 C 4.53 g/m*3 7.4 C 0 km/h
1612 18-03-2010 10:25:01 7.9 C 4.35 g/m*3 7.9 C 0 km/h
1613 18-03-2010 10:37:02 8.3 C 4.3 g/m*3 8.3 C 0 km/h
1614 18-03-2010 10:49:01 8.8 C 4.35 g/m*3 8.8 C 0 km/h
1615 18-03-2010 11:01:02 9.5 C 4.46 g/m*3 9.5 C 0 km/h
1616 18-03-2010 11:13:02 10.2 C 4.47 g/m*3 10.2 C 0 km/h
1617 18-03-2010 11:25:02 10.7 C 4.52 g/m*3 10.7 C 0 km/h
1618 18-03-2010 11:37:01 11.4 C 4.21 g/m*3 11.4 C 0 km/h
1619 18-03-2010 11:49:01 12 C 4.05 g/m*3 12 C 0 km/h
1620 18-03-2010 12:01:01 12.8 C 4.26 g/m*3 12.8 C 0 km/h
1621 18-03-2010 12:13:01 13.4 C 4.18 g/m*3 13.4 C 0 km/h
1622 18-03-2010 12:25:02 14.2 C 4.27 g/m*3 14.2 C 0 km/h
1623 18-03-2010 12:37:01 15 C 4.1 g/m*3 15 C 0 km/h
1624 18-03-2010 12:49:02 15.9 C 4.2 g/m*3 15.9 C 0 km/h
1625 18-03-2010 13:01:01 16.8 C 3.86 g/m*3 16.8 C 0 km/h
Sensor: Nr:Datum:Temp:Abs-Feuchte:Windchill:Wind:
Aussen-T/F 1626 18-03-2010 13:13:01 17.5 C 3.58 g/m*3 17.5 C 0 km/h
1627 18-03-2010 13:25:02 18.2 C 3.11 g/m*3 18.2 C 0 km/h
1628 18-03-2010 13:37:01 18.7 C 3.2 g/m*3 18.7 C 0 km/h
1629 18-03-2010 13:49:02 19 C 3.26 g/m*3 19 C 0 km/h
1630 18-03-2010 14:01:02 19.2 C 3.3 g/m*3 19.2 C 0 km/h
1631 18-03-2010 14:13:02 19.1 C 3.28 g/m*3 19.1 C 0 km/h
1632 18-03-2010 14:25:02 19 C 3.26 g/m*3 19 C 0 km/h
1633 18-03-2010 14:37:02 19.2 C 3.3 g/m*3 19.2 C 0 km/h
1634 18-03-2010 14:49:02 19.6 C 3.38 g/m*3 19.6 C 0 km/h
1635 18-03-2010 15:01:01 20.2 C 3.5 g/m*3 20.2 C 0 km/h
1636 18-03-2010 15:13:01 20 C 3.46 g/m*3 20 C 0 km/h
1637 18-03-2010 15:25:02 20.4 C 3.54 g/m*3 20.4 C 0 km/h
1638 18-03-2010 15:37:02 20.6 C 3.58 g/m*3 20.6 C 0 km/h
1639 18-03-2010 15:49:01 20.6 C 3.58 g/m*3 20.6 C 0 km/h
1640 18-03-2010 16:01:01 20 C 3.46 g/m*3 20 C 0 km/h
1641 18-03-2010 16:13:01 19.8 C 3.42 g/m*3 19.8 C 0 km/h
1642 18-03-2010 16:25:01 20 C 3.46 g/m*3 20 C 0 km/h
1643 18-03-2010 16:37:02 20 C 3.46 g/m*3 20 C 0 km/h
1644 18-03-2010 16:49:02 19.3 C 3.32 g/m*3 19.3 C 0 km/h
1645 18-03-2010 17:01:02 19.1 C 3.28 g/m*3 19.1 C 0 km/h
1646 18-03-2010 17:13:02 18.5 C 3.16 g/m*3 18.5 C 0 km/h
1647 18-03-2010 17:25:02 18 C 3.38 g/m*3 18 C 0 km/h
1648 18-03-2010 17:37:02 17.5 C 3.88 g/m*3 17.5 C 0 km/h
1649 18-03-2010 17:49:02 16.8 C 4.15 g/m*3 16.8 C 0 km/h
1650 18-03-2010 18:01:03 16.3 C 4.16 g/m*3 16.3 C 0 km/h
Sensor: Nr:Datum:Temp:Abs-Feuchte:Windchill:Wind:
Aussen-T/F 1651 18-03-2010 18:13:03 15.8 C 4.17 g/m*3 15.8 C 0 km/h
1652 18-03-2010 18:25:02 15.4 C 3.94 g/m*3 15.4 C 0 km/h
1653 18-03-2010 18:37:02 15 C 3.98 g/m*3 15 C 0 km/h
1654 18-03-2010 18:49:01 14.5 C 3.98 g/m*3 14.5 C 0 km/h
1655 18-03-2010 19:01:02 14.1 C 4 g/m*3 14.1 C 0 km/h
1656 18-03-2010 19:13:02 13.7 C 4.14 g/m*3 13.7 C 0 km/h
1657 18-03-2010 19:25:01 13.4 C 4.18 g/m*3 13.4 C 0 km/h
1658 18-03-2010 19:37:02 13.3 C 4.04 g/m*3 13.3 C 0 km/h
1659 18-03-2010 19:49:02 13.2 C 4.13 g/m*3 13.2 C 0 km/h
1660 18-03-2010 20:01:02 13.1 C 4.11 g/m*3 13.1 C 0 km/h
1661 18-03-2010 20:13:02 13.1 C 3.99 g/m*3 13.1 C 0 km/h
1662 18-03-2010 20:25:01 13 C 3.86 g/m*3 13 C 0 km/h
1663 18-03-2010 20:37:02 12.8 C 4.03 g/m*3 12.8 C 0 km/h
1664 18-03-2010 20:49:02 12.6 C 3.98 g/m*3 12.6 C 0 km/h
1665 18-03-2010 21:01:02 12.4 C 3.93 g/m*3 12.4 C 0 km/h
1666 18-03-2010 21:13:02 12.4 C 3.82 g/m*3 12.4 C 0 km/h
1667 18-03-2010 21:25:02 12.4 C 3.82 g/m*3 12.4 C 0 km/h
1668 18-03-2010 21:37:02 12.1 C 3.97 g/m*3 12.1 C 0 km/h
1669 18-03-2010 21:49:02 11.8 C 3.89 g/m*3 11.8 C 0 km/h
1670 18-03-2010 22:01:02 11.7 C 3.97 g/m*3 11.7 C 0 km/h
1671 18-03-2010 22:13:02 11.4 C 3.9 g/m*3 11.4 C 0 km/h
1672 18-03-2010 22:25:02 11.2 C 4.05 g/m*3 11.2 C 0 km/h
1673 18-03-2010 22:38:04 11.1 C 4.03 g/m*3 11.1 C 0 km/h
1674 18-03-2010 22:50:04 10.8 C 4.05 g/m*3 10.8 C 0 km/h
1675 18-03-2010 23:02:04 10.5 C 4.07 g/m*3 10.5 C 0 km/h
Sensor: Nr:Datum:Temp:Abs-Feuchte:Windchill:Wind:
Aussen-T/F 1676 18-03-2010 23:14:04 10.7 C 3.93 g/m*3 10.7 C 0 km/h
1677 18-03-2010 23:26:04 10.7 C 3.93 g/m*3 10.7 C 0 km/h
1678 18-03-2010 23:38:04 10.5 C 3.98 g/m*3 10.5 C 0 km/h
1679 18-03-2010 23:50:04 10.4 C 3.86 g/m*3 10.4 C 0 km/h
1680 19-03-2010 00:02:04 10 C 4.04 g/m*3 10 C 0 km/h
1681 19-03-2010 00:14:04 9.8 C 4.08 g/m*3 9.8 C 0 km/h
1682 19-03-2010 00:26:04 9.8 C 4.08 g/m*3 9.8 C 0 km/h
1683 19-03-2010 00:38:04 9.9 C 4.01 g/m*3 9.9 C 0 km/h
1684 19-03-2010 00:50:04 10.1 C 3.88 g/m*3 10.1 C 0 km/h
1685 19-03-2010 01:02:04 10.8 C 3.56 g/m*3 10.8 C 0 km/h
1686 19-03-2010 01:14:04 11.4 C 3.39 g/m*3 11.4 C 0 km/h
1687 19-03-2010 01:26:04 11.5 C 3.31 g/m*3 11.5 C 0 km/h
1688 19-03-2010 01:38:04 11.4 C 3.28 g/m*3 11.4 C 0 km/h
1689 19-03-2010 01:50:05 11.4 C 3.28 g/m*3 11.4 C 0 km/h
1690 19-03-2010 02:02:05 11.4 C 3.28 g/m*3 11.4 C 0 km/h
1691 19-03-2010 02:14:05 11.5 C 3.31 g/m*3 11.5 C 0 km/h
1692 19-03-2010 02:26:05 11.4 C 3.39 g/m*3 11.4 C 0 km/h
1693 19-03-2010 02:38:05 11.6 C 3.33 g/m*3 11.6 C 0 km/h
1694 19-03-2010 02:50:05 11.6 C 3.33 g/m*3 11.6 C 0 km/h
1695 19-03-2010 03:02:05 11.6 C 3.33 g/m*3 11.6 C 0 km/h
1696 19-03-2010 03:14:05 12 C 3.2 g/m*3 12 C 0 km/h
1697 19-03-2010 03:26:05 12 C 3.2 g/m*3 12 C 0 km/h
1698 19-03-2010 03:38:05 12.1 C 3.22 g/m*3 12.1 C 0 km/h
1699 19-03-2010 03:50:05 12.1 C 3.22 g/m*3 12.1 C 0 km/h
1700 19-03-2010 04:02:05 12.2 C 3.24 g/m*3 12.2 C 0 km/h
Sensor: Nr:Datum:Temp:Abs-Feuchte:Windchill:Wind:
Aussen-T/F 1701 19-03-2010 04:14:05 12.1 C 3.22 g/m*3 12.1 C 0 km/h
1702 19-03-2010 04:26:05 11.9 C 3.28 g/m*3 11.9 C 0 km/h
1703 19-03-2010 04:38:05 11.8 C 3.37 g/m*3 11.8 C 0 km/h
1704 19-03-2010 04:50:05 11.6 C 3.43 g/m*3 11.6 C 0 km/h
1705 19-03-2010 05:02:05 11.4 C 3.49 g/m*3 11.4 C 0 km/h
1706 19-03-2010 05:14:05 11.3 C 3.57 g/m*3 11.3 C 0 km/h
1707 19-03-2010 05:26:05 11.3 C 3.57 g/m*3 11.3 C 0 km/h
1708 19-03-2010 05:38:05 11.3 C 3.57 g/m*3 11.3 C 0 km/h
1709 19-03-2010 05:50:06 11.6 C 3.64 g/m*3 11.6 C 0 km/h
1710 19-03-2010 06:02:06 11.5 C 3.62 g/m*3 11.5 C 0 km/h
1711 19-03-2010 06:14:06 11.5 C 3.62 g/m*3 11.5 C 0 km/h
1712 19-03-2010 06:26:06 11.5 C 3.62 g/m*3 11.5 C 0 km/h
1713 19-03-2010 06:38:06 11.5 C 3.72 g/m*3 11.5 C 0 km/h
1714 19-03-2010 06:50:02 11.4 C 3.7 g/m*3 11.4 C 0 km/h
1715 19-03-2010 07:02:02 11.4 C 3.9 g/m*3 11.4 C 0 km/h
1716 19-03-2010 07:14:02 11.8 C 4 g/m*3 11.8 C 0 km/h
1717 19-03-2010 07:26:02 12.3 C 4.02 g/m*3 12.3 C 0 km/h
1718 19-03-2010 07:38:01 12.4 C 4.04 g/m*3 12.4 C 0 km/h
1719 19-03-2010 07:50:02 12.4 C 4.04 g/m*3 12.4 C 0 km/h
1720 19-03-2010 08:02:02 12.3 C 4.13 g/m*3 12.3 C 0 km/h
1721 19-03-2010 08:14:02 12.6 C 4.43 g/m*3 12.6 C 0 km/h
1722 19-03-2010 08:26:02 12.9 C 4.62 g/m*3 12.9 C 0 km/h
1723 19-03-2010 08:38:02 13.1 C 4.56 g/m*3 13.1 C 0 km/h
1724 19-03-2010 08:50:02 13.3 C 4.74 g/m*3 13.3 C 0 km/h
1725 19-03-2010 09:02:01 13.4 C 4.77 g/m*3 13.4 C 0 km/h
Sensor: Nr:Datum:Temp:Abs-Feuchte:Windchill:Wind:
Aussen-T/F 1726 19-03-2010 09:14:01 13.5 C 4.8 g/m*3 13.5 C 0 km/h
1727 19-03-2010 09:26:01 13.5 C 4.91 g/m*3 13.5 C 0 km/h
1728 19-03-2010 09:38:02 13.6 C 4.94 g/m*3 13.6 C 0 km/h
1729 19-03-2010 09:50:02 13.8 C 5 g/m*3 13.8 C 0 km/h
1730 19-03-2010 10:02:01 14.1 C 5.1 g/m*3 14.1 C 0 km/h
1731 19-03-2010 10:14:01 14.4 C 5.07 g/m*3 14.4 C 0 km/h
1732 19-03-2010 10:26:02 14.9 C 5.23 g/m*3 14.9 C 0 km/h
1733 19-03-2010 10:38:02 15.2 C 5.19 g/m*3 15.2 C 0 km/h
1734 19-03-2010 10:50:02 15.5 C 5.16 g/m*3 15.5 C 0 km/h
1735 19-03-2010 11:02:01 15.8 C 5.25 g/m*3 15.8 C 0 km/h
1736 19-03-2010 11:14:01 16.2 C 5.24 g/m*3 16.2 C 0 km/h
1737 19-03-2010 11:26:02 16.3 C 5.27 g/m*3 16.3 C 0 km/h
1738 19-03-2010 11:38:01 16 C 5.31 g/m*3 16 C 0 km/h
1739 19-03-2010 11:50:02 16.5 C 5.48 g/m*3 16.5 C 0 km/h
1740 19-03-2010 12:02:01 17 C 5.35 g/m*3 17 C 0 km/h
1741 19-03-2010 12:14:01 18.1 C 5.41 g/m*3 18.1 C 0 km/h
1742 19-03-2010 12:26:02 18.6 C 5.57 g/m*3 18.6 C 0 km/h
1743 19-03-2010 12:38:01 19 C 5.38 g/m*3 19 C 0 km/h
1744 19-03-2010 12:50:02 18.9 C 5.35 g/m*3 18.9 C 0 km/h
1745 19-03-2010 13:02:02 18.3 C 5.47 g/m*3 18.3 C 0 km/h
1746 19-03-2010 13:14:02 18.7 C 5.44 g/m*3 18.7 C 0 km/h
1747 19-03-2010 13:26:02 18.7 C 5.28 g/m*3 18.7 C 0 km/h
1748 19-03-2010 13:38:02 19.3 C 5.14 g/m*3 19.3 C 0 km/h
1749 19-03-2010 13:50:02 19.4 C 5.17 g/m*3 19.4 C 0 km/h
1750 19-03-2010 14:02:01 20 C 5.18 g/m*3 20 C 0 km/h
Sensor: Nr:Datum:Temp:Abs-Feuchte:Windchill:Wind:
Aussen-T/F 1751 19-03-2010 14:14:01 19.8 C 5.12 g/m*3 19.8 C 0 km/h
1752 19-03-2010 14:26:02 20.3 C 5.1 g/m*3 20.3 C 0 km/h
1753 19-03-2010 14:38:01 20.6 C 4.83 g/m*3 20.6 C 0 km/h
1754 19-03-2010 14:50:02 20.7 C 4.86 g/m*3 20.7 C 0 km/h
1755 19-03-2010 15:02:01 20.6 C 4.65 g/m*3 20.6 C 0 km/h
1756 19-03-2010 15:14:01 21 C 4.58 g/m*3 21 C 0 km/h
1757 19-03-2010 15:26:01 21.2 C 4.63 g/m*3 21.2 C 0 km/h
1758 19-03-2010 15:38:02 20.6 C 4.65 g/m*3 20.6 C 0 km/h
1759 19-03-2010 15:50:02 20.8 C 4.71 g/m*3 20.8 C 0 km/h
1760 19-03-2010 16:02:01 20.7 C 4.68 g/m*3 20.7 C 0 km/h
1761 19-03-2010 16:14:01 20.8 C 4.89 g/m*3 20.8 C 0 km/h
1762 19-03-2010 16:26:02 20 C 4.84 g/m*3 20 C 0 km/h
1763 19-03-2010 16:38:02 20 C 4.84 g/m*3 20 C 0 km/h
1764 19-03-2010 16:50:01 19.7 C 5.09 g/m*3 19.7 C 0 km/h
1765 19-03-2010 17:02:02 19.4 C 5.17 g/m*3 19.4 C 0 km/h
1766 19-03-2010 17:14:02 19.1 C 5.08 g/m*3 19.1 C 0 km/h
1767 19-03-2010 17:26:01 18.8 C 5.15 g/m*3 18.8 C 0 km/h
1768 19-03-2010 17:38:01 18.6 C 5.09 g/m*3 18.6 C 0 km/h
1769 19-03-2010 17:50:01 18.3 C 5.32 g/m*3 18.3 C 0 km/h
1770 19-03-2010 18:02:02 18.1 C 5.41 g/m*3 18.1 C 0 km/h
1771 19-03-2010 18:14:02 17.9 C 5.5 g/m*3 17.9 C 0 km/h
1772 19-03-2010 18:26:01 17.7 C 5.43 g/m*3 17.7 C 0 km/h
1773 19-03-2010 18:38:02 17.3 C 5.45 g/m*3 17.3 C 0 km/h
1774 19-03-2010 18:50:02 16.8 C 5.58 g/m*3 16.8 C 0 km/h
1775 19-03-2010 19:02:02 16.4 C 5.58 g/m*3 16.4 C 0 km/h
Sensor: Nr:Datum:Temp:Abs-Feuchte:Windchill:Wind:
Aussen-T/F 1776 19-03-2010 19:14:02 16.4 C 5.58 g/m*3 16.4 C 0 km/h
1777 19-03-2010 19:26:01 15.9 C 5.69 g/m*3 15.9 C 0 km/h
1778 19-03-2010 19:38:02 15.7 C 5.62 g/m*3 15.7 C 0 km/h
1779 19-03-2010 19:50:02 15.7 C 5.62 g/m*3 15.7 C 0 km/h
1780 19-03-2010 20:02:02 15.7 C 5.49 g/m*3 15.7 C 0 km/h
1781 19-03-2010 20:14:02 15.6 C 5.59 g/m*3 15.6 C 0 km/h
1782 19-03-2010 20:26:01 15.5 C 5.42 g/m*3 15.5 C 0 km/h
1783 19-03-2010 20:38:02 15.6 C 5.45 g/m*3 15.6 C 0 km/h
1784 19-03-2010 20:50:02 15.5 C 5.42 g/m*3 15.5 C 0 km/h
1785 19-03-2010 21:02:02 15.4 C 5.39 g/m*3 15.4 C 0 km/h
1786 19-03-2010 21:14:02 15.5 C 5.55 g/m*3 15.5 C 0 km/h
1787 19-03-2010 21:26:02 15.4 C 5.52 g/m*3 15.4 C 0 km/h
1788 19-03-2010 21:38:02 15.4 C 5.52 g/m*3 15.4 C 0 km/h
1789 19-03-2010 21:50:02 15.3 C 5.48 g/m*3 15.3 C 0 km/h
1790 19-03-2010 22:02:02 15.2 C 5.58 g/m*3 15.2 C 0 km/h
1791 19-03-2010 22:14:02 15.2 C 5.58 g/m*3 15.2 C 0 km/h
1792 19-03-2010 22:26:02 15.1 C 5.68 g/m*3 15.1 C 0 km/h
1793 19-03-2010 22:38:02 15 C 5.77 g/m*3 15 C 0 km/h
1794 19-03-2010 22:50:02 14.9 C 5.74 g/m*3 14.9 C 0 km/h
1795 19-03-2010 23:02:01 14.7 C 5.79 g/m*3 14.7 C 0 km/h
1796 19-03-2010 23:14:01 14.7 C 5.79 g/m*3 14.7 C 0 km/h
1797 19-03-2010 23:26:02 14.6 C 5.76 g/m*3 14.6 C 0 km/h
1798 19-03-2010 23:38:02 14.5 C 5.85 g/m*3 14.5 C 0 km/h
1799 19-03-2010 23:51:04 14.5 C 5.72 g/m*3 14.5 C 0 km/h
1800 20-03-2010 00:03:04 14.4 C 5.93 g/m*3 14.4 C 0 km/h
Sensor: Nr:Datum:Temp:Abs-Feuchte:Windchill:Wind:
Aussen-T/F 1801 20-03-2010 00:15:04 14.2 C 5.86 g/m*3 14.2 C 0 km/h
1802 20-03-2010 00:27:04 14.1 C 5.95 g/m*3 14.1 C 0 km/h
1803 20-03-2010 00:39:04 14.1 C 5.83 g/m*3 14.1 C 0 km/h
1804 20-03-2010 00:51:04 14.1 C 5.83 g/m*3 14.1 C 0 km/h
1805 20-03-2010 01:03:04 14.1 C 5.83 g/m*3 14.1 C 0 km/h
1806 20-03-2010 01:15:04 14.1 C 5.95 g/m*3 14.1 C 0 km/h
1807 20-03-2010 01:27:04 13.9 C 5.99 g/m*3 13.9 C 0 km/h
1808 20-03-2010 01:39:04 13.9 C 5.87 g/m*3 13.9 C 0 km/h
1809 20-03-2010 01:51:04 14.1 C 5.58 g/m*3 14.1 C 0 km/h
1810 20-03-2010 02:03:04 14.7 C 5.41 g/m*3 14.7 C 0 km/h
1811 20-03-2010 02:15:04 14.7 C 5.67 g/m*3 14.7 C 0 km/h
1812 20-03-2010 02:27:04 14.4 C 6.43 g/m*3 14.4 C 0 km/h
1813 20-03-2010 02:39:04 13.8 C 7.03 g/m*3 13.8 C 0 km/h
1814 20-03-2010 02:51:04 13.5 C 7.49 g/m*3 13.5 C 0 km/h
1815 20-03-2010 03:03:05 13 C 7.83 g/m*3 13 C 0 km/h
1816 20-03-2010 03:15:05 12.5 C 8.14 g/m*3 12.5 C 0 km/h
1817 20-03-2010 03:27:05 12.1 C 8.26 g/m*3 12.1 C 0 km/h
1818 20-03-2010 03:39:05 12.2 C 8.52 g/m*3 12.2 C 0 km/h
1819 20-03-2010 03:51:05 12.1 C 8.47 g/m*3 12.1 C 0 km/h
1820 20-03-2010 04:03:05 12 C 8.63 g/m*3 12 C 0 km/h
1821 20-03-2010 04:15:05 12.2 C 8.85 g/m*3 12.2 C 0 km/h
1822 20-03-2010 04:27:05 12 C 8.85 g/m*3 12 C 0 km/h
1823 20-03-2010 04:39:05 12.1 C 9.01 g/m*3 12.1 C 0 km/h
1824 20-03-2010 04:51:05 12.1 C 9.12 g/m*3 12.1 C 0 km/h
1825 20-03-2010 05:03:05 12.1 C 9.12 g/m*3 12.1 C 0 km/h
Sensor: Nr:Datum:Temp:Abs-Feuchte:Windchill:Wind:
Aussen-T/F 1826 20-03-2010 05:15:05 12.4 C 9.4 g/m*3 12.4 C 0 km/h
1827 20-03-2010 05:27:05 12.7 C 9.46 g/m*3 12.7 C 0 km/h
1828 20-03-2010 05:39:05 12.6 C 9.29 g/m*3 12.6 C 0 km/h
1829 20-03-2010 05:51:05 12.7 C 9.35 g/m*3 12.7 C 0 km/h
1830 20-03-2010 06:03:06 12.7 C 9.24 g/m*3 12.7 C 0 km/h
1831 20-03-2010 06:15:06 13.1 C 9.24 g/m*3 13.1 C 0 km/h
1832 20-03-2010 06:27:06 13.2 C 9.19 g/m*3 13.2 C 0 km/h
1833 20-03-2010 06:39:06 13.2 C 9.07 g/m*3 13.2 C 0 km/h
1834 20-03-2010 06:51:06 13.2 C 9.19 g/m*3 13.2 C 0 km/h
1835 20-03-2010 07:03:06 13.3 C 9.13 g/m*3 13.3 C 0 km/h
1836 20-03-2010 07:15:06 13.4 C 9.18 g/m*3 13.4 C 0 km/h
1837 20-03-2010 07:27:06 13.4 C 9.18 g/m*3 13.4 C 0 km/h
1838 20-03-2010 07:39:06 13.6 C 9.18 g/m*3 13.6 C 0 km/h
1839 20-03-2010 07:51:06 13.9 C 9.23 g/m*3 13.9 C 0 km/h
1840 20-03-2010 08:03:06 14 C 9.05 g/m*3 14 C 0 km/h
1841 20-03-2010 08:15:06 14.2 C 9.04 g/m*3 14.2 C 0 km/h
1842 20-03-2010 08:27:06 14.2 C 9.16 g/m*3 14.2 C 0 km/h
1843 20-03-2010 08:39:03 14.3 C 9.09 g/m*3 14.3 C 0 km/h
1844 20-03-2010 08:51:02 14.4 C 9.15 g/m*3 14.4 C 0 km/h
1845 20-03-2010 09:03:03 14.6 C 9.13 g/m*3 14.6 C 0 km/h
1846 20-03-2010 09:15:02 14.8 C 9.12 g/m*3 14.8 C 0 km/h
1847 20-03-2010 09:27:02 14.6 C 9.39 g/m*3 14.6 C 0 km/h
1848 20-03-2010 09:39:02 14.2 C 9.52 g/m*3 14.2 C 0 km/h
1849 20-03-2010 09:51:01 15 C 9.36 g/m*3 15 C 0 km/h
1850 20-03-2010 10:03:02 15.4 C 9.2 g/m*3 15.4 C 0 km/h
Sensor: Nr:Datum:Temp:Abs-Feuchte:Windchill:Wind:
Aussen-T/F 1851 20-03-2010 10:15:01 15.8 C 9.29 g/m*3 15.8 C 0 km/h
1852 20-03-2010 10:27:01 16.1 C 9.05 g/m*3 16.1 C 0 km/h
1853 20-03-2010 10:39:02 16.1 C 8.91 g/m*3 16.1 C 0 km/h
1854 20-03-2010 10:51:01 15.8 C 9.02 g/m*3 15.8 C 0 km/h
1855 20-03-2010 11:03:02 15.1 C 9.29 g/m*3 15.1 C 0 km/h
1856 20-03-2010 11:15:01 15.2 C 9.35 g/m*3 15.2 C 0 km/h
1857 20-03-2010 11:27:01 15.6 C 9.31 g/m*3 15.6 C 0 km/h
1858 20-03-2010 11:39:02 15.5 C 9.25 g/m*3 15.5 C 0 km/h
1859 20-03-2010 11:51:02 15.1 C 9.16 g/m*3 15.1 C 0 km/h
1860 20-03-2010 12:03:02 15.1 C 9.29 g/m*3 15.1 C 0 km/h
1861 20-03-2010 12:15:01 15.4 C 9.33 g/m*3 15.4 C 0 km/h
1862 20-03-2010 12:27:01 15.7 C 9.1 g/m*3 15.7 C 0 km/h
1863 20-03-2010 12:39:02 15.4 C 8.93 g/m*3 15.4 C 0 km/h
1864 20-03-2010 12:51:01 15.4 C 8.93 g/m*3 15.4 C 0 km/h
1865 20-03-2010 13:03:02 16.2 C 8.83 g/m*3 16.2 C 0 km/h
1866 20-03-2010 13:15:02 15.9 C 8.67 g/m*3 15.9 C 0 km/h
1867 20-03-2010 13:27:02 15.9 C 8.94 g/m*3 15.9 C 0 km/h
1868 20-03-2010 13:39:02 16 C 8.86 g/m*3 16 C 0 km/h
1869 20-03-2010 13:51:01 15.6 C 9.04 g/m*3 15.6 C 0 km/h
1870 20-03-2010 14:03:02 15.1 C 9.03 g/m*3 15.1 C 0 km/h
1871 20-03-2010 14:15:02 15 C 8.98 g/m*3 15 C 0 km/h
1872 20-03-2010 14:27:02 15.5 C 8.99 g/m*3 15.5 C 0 km/h
1873 20-03-2010 14:39:02 15.6 C 8.78 g/m*3 15.6 C 0 km/h
1874 20-03-2010 14:51:01 15.8 C 8.48 g/m*3 15.8 C 0 km/h
1875 20-03-2010 15:03:02 16.7 C 8.38 g/m*3 16.7 C 0 km/h
Sensor: Nr:Datum:Temp:Abs-Feuchte:Windchill:Wind:
Aussen-T/F 1876 20-03-2010 15:15:02 17 C 8.1 g/m*3 17 C 0 km/h
1877 20-03-2010 15:27:02 16.8 C 8.15 g/m*3 16.8 C 0 km/h
1878 20-03-2010 15:39:01 17 C 8.25 g/m*3 17 C 0 km/h
1879 20-03-2010 15:51:02 16.8 C 8.15 g/m*3 16.8 C 0 km/h
1880 20-03-2010 16:03:01 16.5 C 8 g/m*3 16.5 C 0 km/h
1881 20-03-2010 16:15:02 16.4 C 8.1 g/m*3 16.4 C 0 km/h
1882 20-03-2010 16:27:02 16.1 C 8.09 g/m*3 16.1 C 0 km/h
1883 20-03-2010 16:39:01 16 C 8.17 g/m*3 16 C 0 km/h
1884 20-03-2010 16:51:03 15.9 C 8.26 g/m*3 15.9 C 0 km/h
1885 20-03-2010 17:03:02 15.7 C 8.16 g/m*3 15.7 C 0 km/h
1886 20-03-2010 17:15:02 15.1 C 8.39 g/m*3 15.1 C 0 km/h
1887 20-03-2010 17:27:02 14.4 C 8.78 g/m*3 14.4 C 0 km/h
1888 20-03-2010 17:39:02 14.6 C 8.63 g/m*3 14.6 C 0 km/h
1889 20-03-2010 17:51:02 14.7 C 8.56 g/m*3 14.7 C 0 km/h
1890 20-03-2010 18:03:01 14.6 C 8.38 g/m*3 14.6 C 0 km/h
1891 20-03-2010 18:15:02 14.6 C 8.38 g/m*3 14.6 C 0 km/h
1892 20-03-2010 18:27:02 14.5 C 8.33 g/m*3 14.5 C 0 km/h
1893 20-03-2010 18:39:02 14.5 C 8.33 g/m*3 14.5 C 0 km/h
1894 20-03-2010 18:51:02 14.4 C 8.41 g/m*3 14.4 C 0 km/h
1895 20-03-2010 19:03:01 14.3 C 8.48 g/m*3 14.3 C 0 km/h
1896 20-03-2010 19:15:01 14.2 C 8.43 g/m*3 14.2 C 0 km/h
1897 20-03-2010 19:27:01 14.3 C 8.48 g/m*3 14.3 C 0 km/h
1898 20-03-2010 19:39:02 14.4 C 8.53 g/m*3 14.4 C 0 km/h
1899 20-03-2010 19:51:02 14.5 C 8.46 g/m*3 14.5 C 0 km/h
1900 20-03-2010 20:03:02 14.6 C 8.38 g/m*3 14.6 C 0 km/h
Sensor: Nr:Datum:Temp:Abs-Feuchte:Windchill:Wind:
Aussen-T/F 1901 20-03-2010 20:15:02 14.5 C 8.46 g/m*3 14.5 C 0 km/h
1902 20-03-2010 20:27:02 14.6 C 8.38 g/m*3 14.6 C 0 km/h
1903 20-03-2010 20:39:02 14.6 C 8.38 g/m*3 14.6 C 0 km/h
1904 20-03-2010 20:51:02 14.5 C 8.21 g/m*3 14.5 C 0 km/h
1905 20-03-2010 21:03:02 14.6 C 8.26 g/m*3 14.6 C 0 km/h
1906 20-03-2010 21:15:02 14.5 C 8.21 g/m*3 14.5 C 0 km/h
1907 20-03-2010 21:27:02 14.4 C 8.16 g/m*3 14.4 C 0 km/h
1908 20-03-2010 21:39:02 14.2 C 8.18 g/m*3 14.2 C 0 km/h
1909 20-03-2010 21:51:01 14.2 C 8.18 g/m*3 14.2 C 0 km/h
1910 20-03-2010 22:03:02 14.2 C 8.18 g/m*3 14.2 C 0 km/h
1911 20-03-2010 22:16:01 14.3 C 8.11 g/m*3 14.3 C 0 km/h
1912 20-03-2010 22:28:01 13.9 C 8.39 g/m*3 13.9 C 0 km/h
1913 20-03-2010 22:40:01 14.1 C 8.25 g/m*3 14.1 C 0 km/h
1914 20-03-2010 22:52:01 13.7 C 8.53 g/m*3 13.7 C 0 km/h
1915 20-03-2010 23:04:02 13 C 8.85 g/m*3 13 C 0 km/h
1916 20-03-2010 23:16:02 12.6 C 9.07 g/m*3 12.6 C 0 km/h
1917 20-03-2010 23:28:02 12.5 C 9.24 g/m*3 12.5 C 0 km/h
1918 20-03-2010 23:40:02 12.4 C 9.29 g/m*3 12.4 C 0 km/h
1919 20-03-2010 23:52:02 12.3 C 9.34 g/m*3 12.3 C 0 km/h
1920 21-03-2010 00:04:02 12.1 C 9.44 g/m*3 12.1 C 0 km/h
1921 21-03-2010 00:16:02 12 C 9.38 g/m*3 12 C 0 km/h
1922 21-03-2010 00:28:02 12.1 C 9.54 g/m*3 12.1 C 0 km/h
1923 21-03-2010 00:40:02 12.1 C 9.54 g/m*3 12.1 C 0 km/h
1924 21-03-2010 00:52:02 12.1 C 9.54 g/m*3 12.1 C 0 km/h
1925 21-03-2010 01:04:02 12 C 9.59 g/m*3 12 C 0 km/h
Sensor: Nr:Datum:Temp:Abs-Feuchte:Windchill:Wind:
Aussen-T/F 1926 21-03-2010 01:16:02 12 C 9.59 g/m*3 12 C 0 km/h
1927 21-03-2010 01:28:02 11.9 C 9.64 g/m*3 11.9 C 0 km/h
1928 21-03-2010 01:40:02 11.9 C 9.64 g/m*3 11.9 C 0 km/h
1929 21-03-2010 01:52:02 11.8 C 9.68 g/m*3 11.8 C 0 km/h
1930 21-03-2010 02:04:02 11.8 C 9.68 g/m*3 11.8 C 0 km/h
1931 21-03-2010 02:16:02 11.8 C 9.79 g/m*3 11.8 C 0 km/h
1932 21-03-2010 02:28:02 11.7 C 9.73 g/m*3 11.7 C 0 km/h
1933 21-03-2010 02:40:02 11.7 C 9.73 g/m*3 11.7 C 0 km/h
1934 21-03-2010 02:52:02 11.5 C 9.61 g/m*3 11.5 C 0 km/h
1935 21-03-2010 03:04:02 11.5 C 9.61 g/m*3 11.5 C 0 km/h
1936 21-03-2010 03:16:02 11.4 C 9.55 g/m*3 11.4 C 0 km/h
1937 21-03-2010 03:28:02 11.4 C 9.55 g/m*3 11.4 C 0 km/h
1938 21-03-2010 03:40:03 11.5 C 9.71 g/m*3 11.5 C 0 km/h
1939 21-03-2010 03:52:03 11.6 C 9.77 g/m*3 11.6 C 0 km/h
1940 21-03-2010 04:04:03 11.6 C 9.77 g/m*3 11.6 C 0 km/h
1941 21-03-2010 04:16:03 11.5 C 9.71 g/m*3 11.5 C 0 km/h
1942 21-03-2010 04:28:03 11.6 C 9.77 g/m*3 11.6 C 0 km/h
1943 21-03-2010 04:40:03 11.6 C 9.87 g/m*3 11.6 C 0 km/h
1944 21-03-2010 04:52:03 11.6 C 9.87 g/m*3 11.6 C 0 km/h
1945 21-03-2010 05:04:03 11.5 C 9.81 g/m*3 11.5 C 0 km/h
1946 21-03-2010 05:16:03 11.4 C 9.75 g/m*3 11.4 C 0 km/h
1947 21-03-2010 05:28:03 11.3 C 9.69 g/m*3 11.3 C 0 km/h
1948 21-03-2010 05:40:03 11.3 C 9.69 g/m*3 11.3 C 0 km/h
1949 21-03-2010 05:52:03 11.4 C 9.75 g/m*3 11.4 C 0 km/h
1950 21-03-2010 06:04:03 11.4 C 9.65 g/m*3 11.4 C 0 km/h
Sensor: Nr:Datum:Temp:Abs-Feuchte:Windchill:Wind:
Aussen-T/F 1951 21-03-2010 06:16:03 11.4 C 9.65 g/m*3 11.4 C 0 km/h
1952 21-03-2010 06:28:03 11.4 C 9.55 g/m*3 11.4 C 0 km/h
1953 21-03-2010 06:40:03 11.3 C 9.38 g/m*3 11.3 C 0 km/h
1954 21-03-2010 06:52:03 11.3 C 9.38 g/m*3 11.3 C 0 km/h
1955 21-03-2010 07:04:03 11.3 C 9.38 g/m*3 11.3 C 0 km/h
1956 21-03-2010 07:16:03 11.3 C 9.38 g/m*3 11.3 C 0 km/h
1957 21-03-2010 07:28:03 11.2 C 9.33 g/m*3 11.2 C 0 km/h
1958 21-03-2010 07:40:03 11.3 C 9.49 g/m*3 11.3 C 0 km/h
1959 21-03-2010 07:52:03 11.2 C 9.43 g/m*3 11.2 C 0 km/h
1960 21-03-2010 08:04:04 11.5 C 9.61 g/m*3 11.5 C 0 km/h
1961 21-03-2010 08:16:04 11.9 C 9.96 g/m*3 11.9 C 0 km/h
1962 21-03-2010 08:28:04 12.2 C 9.93 g/m*3 12.2 C 0 km/h
1963 21-03-2010 08:40:01 12.5 C 9.78 g/m*3 12.5 C 0 km/h
1964 21-03-2010 08:52:02 12.4 C 9.4 g/m*3 12.4 C 0 km/h
1965 21-03-2010 09:04:02 12.9 C 9.35 g/m*3 12.9 C 0 km/h
1966 21-03-2010 09:16:02 13.5 C 8.89 g/m*3 13.5 C 0 km/h
1967 21-03-2010 09:28:02 13.5 C 8.66 g/m*3 13.5 C 0 km/h
1968 21-03-2010 09:40:01 12.7 C 8.68 g/m*3 12.7 C 0 km/h
1969 21-03-2010 09:52:02 12.1 C 8.58 g/m*3 12.1 C 0 km/h
1970 21-03-2010 10:04:01 12.4 C 8.85 g/m*3 12.4 C 0 km/h
1971 21-03-2010 10:16:02 13 C 8.85 g/m*3 13 C 0 km/h
1972 21-03-2010 10:28:03 13.2 C 8.15 g/m*3 13.2 C 0 km/h
1973 21-03-2010 10:40:01 12.8 C 7.84 g/m*3 12.8 C 0 km/h
1974 21-03-2010 10:52:02 13.2 C 7.81 g/m*3 13.2 C 0 km/h
1975 21-03-2010 11:04:02 13.5 C 7.95 g/m*3 13.5 C 0 km/h
Sensor: Nr:Datum:Temp:Abs-Feuchte:Windchill:Wind:
Aussen-T/F 1976 21-03-2010 11:16:02 13.5 C 7.84 g/m*3 13.5 C 0 km/h
1977 21-03-2010 11:28:02 13.6 C 7.89 g/m*3 13.6 C 0 km/h
1978 21-03-2010 11:40:03 12.5 C 8.14 g/m*3 12.5 C 0 km/h
1979 21-03-2010 11:52:02 12.1 C 8.69 g/m*3 12.1 C 0 km/h
1980 21-03-2010 12:04:02 11.9 C 8.9 g/m*3 11.9 C 0 km/h
1981 21-03-2010 12:16:02 11.9 C 8.9 g/m*3 11.9 C 0 km/h
1982 21-03-2010 12:28:02 12.4 C 9.18 g/m*3 12.4 C 0 km/h
1983 21-03-2010 12:40:03 13.6 C 8.94 g/m*3 13.6 C 0 km/h
1984 21-03-2010 12:52:02 13.7 C 8.29 g/m*3 13.7 C 0 km/h
1985 21-03-2010 13:04:02 13.2 C 8.04 g/m*3 13.2 C 0 km/h
1986 21-03-2010 13:16:02 13 C 8.05 g/m*3 13 C 0 km/h
1987 21-03-2010 13:28:02 12.6 C 7.97 g/m*3 12.6 C 0 km/h
1988 21-03-2010 13:40:02 12.6 C 7.97 g/m*3 12.6 C 0 km/h
1989 21-03-2010 13:52:01 12.4 C 7.87 g/m*3 12.4 C 0 km/h
1990 21-03-2010 14:04:02 12.4 C 7.98 g/m*3 12.4 C 0 km/h
1991 21-03-2010 14:16:01 12.2 C 7.99 g/m*3 12.2 C 0 km/h
1992 21-03-2010 14:28:01 11.8 C 8.42 g/m*3 11.8 C 0 km/h
1993 21-03-2010 14:40:02 11.4 C 8.42 g/m*3 11.4 C 0 km/h
1994 21-03-2010 14:52:02 11.5 C 8.57 g/m*3 11.5 C 0 km/h
1995 21-03-2010 15:04:02 11.5 C 8.57 g/m*3 11.5 C 0 km/h
1996 21-03-2010 15:16:01 11.5 C 8.57 g/m*3 11.5 C 0 km/h
1997 21-03-2010 15:28:01 11.5 C 8.57 g/m*3 11.5 C 0 km/h
1998 21-03-2010 15:40:02 11.3 C 8.57 g/m*3 11.3 C 0 km/h
1999 21-03-2010 15:52:03 11.1 C 8.46 g/m*3 11.1 C 0 km/h
2000 21-03-2010 16:04:03 11.1 C 8.56 g/m*3 11.1 C 0 km/h
Sensor: Nr:Datum:Temp:Abs-Feuchte:Windchill:Wind:
Aussen-T/F 2001 21-03-2010 16:16:02 10.8 C 8.6 g/m*3 10.8 C 0 km/h
2002 21-03-2010 16:28:02 10.7 C 8.74 g/m*3 10.7 C 0 km/h
2003 21-03-2010 16:40:02 10.5 C 8.63 g/m*3 10.5 C 0 km/h
2004 21-03-2010 16:52:02 10.5 C 8.53 g/m*3 10.5 C 0 km/h
2005 21-03-2010 17:04:01 10.5 C 8.53 g/m*3 10.5 C 0 km/h
2006 21-03-2010 17:16:02 10.7 C 8.45 g/m*3 10.7 C 0 km/h
2007 21-03-2010 17:28:02 10.7 C 8.45 g/m*3 10.7 C 0 km/h
2008 21-03-2010 17:40:02 10.7 C 8.35 g/m*3 10.7 C 0 km/h
2009 21-03-2010 17:52:02 10.7 C 7.96 g/m*3 10.7 C 0 km/h
2010 21-03-2010 18:04:02 10.1 C 7.66 g/m*3 10.1 C 0 km/h
2011 21-03-2010 18:16:02 9.8 C 7.79 g/m*3 9.8 C 0 km/h
2012 21-03-2010 18:28:02 9.5 C 7.74 g/m*3 9.5 C 0 km/h
2013 21-03-2010 18:40:03 9.4 C 7.69 g/m*3 9.4 C 0 km/h
2014 21-03-2010 18:52:02 9.5 C 7.74 g/m*3 9.5 C 0 km/h
2015 21-03-2010 19:04:02 9.6 C 7.79 g/m*3 9.6 C 0 km/h
2016 21-03-2010 19:16:01 9.6 C 7.79 g/m*3 9.6 C 0 km/h
2017 21-03-2010 19:28:01 9.5 C 7.74 g/m*3 9.5 C 0 km/h
2018 21-03-2010 19:40:02 9.3 C 7.64 g/m*3 9.3 C 0 km/h
2019 21-03-2010 19:52:02 9.3 C 7.73 g/m*3 9.3 C 0 km/h
2020 21-03-2010 20:04:02 9.3 C 7.73 g/m*3 9.3 C 0 km/h
2021 21-03-2010 20:16:02 9.4 C 7.78 g/m*3 9.4 C 0 km/h
2022 21-03-2010 20:28:02 9.5 C 7.92 g/m*3 9.5 C 0 km/h
2023 21-03-2010 20:40:02 9.5 C 7.92 g/m*3 9.5 C 0 km/h
2024 21-03-2010 20:52:02 9.5 C 7.83 g/m*3 9.5 C 0 km/h
2025 21-03-2010 21:04:02 9.5 C 7.83 g/m*3 9.5 C 0 km/h
Sensor: Nr:Datum:Temp:Abs-Feuchte:Windchill:Wind:
Aussen-T/F 2026 21-03-2010 21:16:02 9.4 C 7.78 g/m*3 9.4 C 0 km/h
2027 21-03-2010 21:28:02 9.3 C 7.46 g/m*3 9.3 C 0 km/h
2028 21-03-2010 21:40:02 9.4 C 7.15 g/m*3 9.4 C 0 km/h
2029 21-03-2010 21:52:01 9.4 C 7.05 g/m*3 9.4 C 0 km/h
2030 21-03-2010 22:05:03 9.4 C 7.05 g/m*3 9.4 C 0 km/h
2031 21-03-2010 22:17:03 9.3 C 7.1 g/m*3 9.3 C 0 km/h
2032 21-03-2010 22:29:03 9.2 C 7.14 g/m*3 9.2 C 0 km/h
2033 21-03-2010 22:41:03 9.1 C 7.19 g/m*3 9.1 C 0 km/h
2034 21-03-2010 22:53:03 9.1 C 7.19 g/m*3 9.1 C 0 km/h
2035 21-03-2010 23:05:03 8.9 C 7.27 g/m*3 8.9 C 0 km/h
2036 21-03-2010 23:17:03 8.8 C 7.49 g/m*3 8.8 C 0 km/h
2037 21-03-2010 23:29:03 8.6 C 7.48 g/m*3 8.6 C 0 km/h
2038 21-03-2010 23:41:03 8.5 C 7.51 g/m*3 8.5 C 0 km/h
2039 21-03-2010 23:53:04 8.5 C 7.6 g/m*3 8.5 C 0 km/h
2040 22-03-2010 00:05:04 8.5 C 7.68 g/m*3 8.5 C 0 km/h
2041 22-03-2010 00:17:04 8.5 C 7.68 g/m*3 8.5 C 0 km/h
2042 22-03-2010 00:29:04 8.4 C 7.63 g/m*3 8.4 C 0 km/h
2043 22-03-2010 00:41:04 8.3 C 7.67 g/m*3 8.3 C 0 km/h
2044 22-03-2010 00:53:04 8.3 C 7.67 g/m*3 8.3 C 0 km/h
2045 22-03-2010 01:05:04 8.3 C 7.67 g/m*3 8.3 C 0 km/h
2046 22-03-2010 01:17:04 8.2 C 7.62 g/m*3 8.2 C 0 km/h
2047 22-03-2010 01:29:04 8.2 C 7.62 g/m*3 8.2 C 0 km/h
2048 22-03-2010 01:41:04 8.3 C 7.75 g/m*3 8.3 C 0 km/h
2049 22-03-2010 01:53:04 8.3 C 7.75 g/m*3 8.3 C 0 km/h
2050 22-03-2010 02:05:04 8.4 C 7.8 g/m*3 8.4 C 0 km/h
Sensor: Nr:Datum:Temp:Abs-Feuchte:Windchill:Wind:
Aussen-T/F 2051 22-03-2010 02:17:04 8.2 C 7.7 g/m*3 8.2 C 0 km/h
2052 22-03-2010 02:29:04 8.2 C 7.7 g/m*3 8.2 C 0 km/h
2053 22-03-2010 02:41:04 8.3 C 7.75 g/m*3 8.3 C 0 km/h
2054 22-03-2010 02:53:04 8.4 C 7.8 g/m*3 8.4 C 0 km/h
2055 22-03-2010 03:05:04 8.4 C 7.8 g/m*3 8.4 C 0 km/h
2056 22-03-2010 03:17:04 8.4 C 7.8 g/m*3 8.4 C 0 km/h
2057 22-03-2010 03:29:04 8.4 C 7.8 g/m*3 8.4 C 0 km/h
2058 22-03-2010 03:41:04 8.4 C 7.8 g/m*3 8.4 C 0 km/h
2059 22-03-2010 03:53:04 8.4 C 7.8 g/m*3 8.4 C 0 km/h
2060 22-03-2010 04:05:05 8.4 C 7.8 g/m*3 8.4 C 0 km/h
2061 22-03-2010 04:17:05 8.4 C 7.8 g/m*3 8.4 C 0 km/h
2062 22-03-2010 04:29:05 8.3 C 7.75 g/m*3 8.3 C 0 km/h
2063 22-03-2010 04:41:05 8.2 C 7.7 g/m*3 8.2 C 0 km/h
2064 22-03-2010 04:53:05 8.1 C 7.66 g/m*3 8.1 C 0 km/h
2065 22-03-2010 05:05:05 8.1 C 7.66 g/m*3 8.1 C 0 km/h
2066 22-03-2010 05:17:05 8.2 C 7.7 g/m*3 8.2 C 0 km/h
2067 22-03-2010 05:29:05 8.2 C 7.7 g/m*3 8.2 C 0 km/h
2068 22-03-2010 05:41:05 8.1 C 7.66 g/m*3 8.1 C 0 km/h
2069 22-03-2010 05:53:01 8.1 C 7.66 g/m*3 8.1 C 0 km/h
2070 22-03-2010 06:05:01 8.2 C 7.7 g/m*3 8.2 C 0 km/h
2071 22-03-2010 06:17:02 8.2 C 7.7 g/m*3 8.2 C 0 km/h
2072 22-03-2010 06:29:02 8.2 C 7.7 g/m*3 8.2 C 0 km/h
2073 22-03-2010 06:41:01 8.1 C 7.66 g/m*3 8.1 C 0 km/h
2074 22-03-2010 06:53:02 8.1 C 7.66 g/m*3 8.1 C 0 km/h
2075 22-03-2010 07:05:01 8.2 C 7.7 g/m*3 8.2 C 0 km/h
Sensor: Nr:Datum:Temp:Abs-Feuchte:Windchill:Wind:
Aussen-T/F 2076 22-03-2010 07:17:02 8.2 C 7.7 g/m*3 8.2 C 0 km/h
2077 22-03-2010 07:29:02 8.3 C 7.84 g/m*3 8.3 C 0 km/h
2078 22-03-2010 07:41:01 8.4 C 7.89 g/m*3 8.4 C 0 km/h
2079 22-03-2010 07:53:01 8.5 C 7.94 g/m*3 8.5 C 0 km/h
2080 22-03-2010 08:05:01 8.6 C 7.99 g/m*3 8.6 C 0 km/h
2081 22-03-2010 08:17:02 8.8 C 8.09 g/m*3 8.8 C 0 km/h
2082 22-03-2010 08:29:02 8.8 C 8.01 g/m*3 8.8 C 0 km/h
2083 22-03-2010 08:41:01 8.9 C 8.06 g/m*3 8.9 C 0 km/h
2084 22-03-2010 08:53:02 8.9 C 8.06 g/m*3 8.9 C 0 km/h
2085 22-03-2010 09:05:01 8.9 C 7.97 g/m*3 8.9 C 0 km/h
2086 22-03-2010 09:17:02 9 C 7.93 g/m*3 9 C 0 km/h
2087 22-03-2010 09:29:02 9 C 7.93 g/m*3 9 C 0 km/h
2088 22-03-2010 09:41:02 9.2 C 7.95 g/m*3 9.2 C 0 km/h
2089 22-03-2010 09:53:02 9.3 C 8 g/m*3 9.3 C 0 km/h
2090 22-03-2010 10:05:03 9.6 C 8.06 g/m*3 9.6 C 0 km/h
2091 22-03-2010 10:17:02 10 C 8.08 g/m*3 10 C 0 km/h
2092 22-03-2010 10:29:02 9.9 C 8.03 g/m*3 9.9 C 0 km/h
2093 22-03-2010 10:41:02 9.5 C 7.65 g/m*3 9.5 C 0 km/h
2094 22-03-2010 10:53:02 9.4 C 7.69 g/m*3 9.4 C 0 km/h
2095 22-03-2010 11:05:02 9.5 C 7.92 g/m*3 9.5 C 0 km/h
2096 22-03-2010 11:17:01 9.5 C 7.92 g/m*3 9.5 C 0 km/h
2097 22-03-2010 11:29:01 9.5 C 7.83 g/m*3 9.5 C 0 km/h
2098 22-03-2010 11:41:02 9.7 C 7.74 g/m*3 9.7 C 0 km/h
2099 22-03-2010 11:53:02 10.2 C 7.8 g/m*3 10.2 C 0 km/h
2100 22-03-2010 12:05:02 10.6 C 7.81 g/m*3 10.6 C 0 km/h
Sensor: Nr:Datum:Temp:Abs-Feuchte:Windchill:Wind:
Aussen-T/F 2101 22-03-2010 12:17:01 10.7 C 7.76 g/m*3 10.7 C 0 km/h
2102 22-03-2010 12:29:01 11 C 7.61 g/m*3 11 C 0 km/h
2103 22-03-2010 12:41:02 11.1 C 7.45 g/m*3 11.1 C 0 km/h
2104 22-03-2010 12:53:02 11.4 C 7.39 g/m*3 11.4 C 0 km/h
2105 22-03-2010 13:05:02 11.5 C 7.23 g/m*3 11.5 C 0 km/h
2106 22-03-2010 13:17:01 12.1 C 7.18 g/m*3 12.1 C 0 km/h
2107 22-03-2010 13:29:01 12.4 C 6.66 g/m*3 12.4 C 0 km/h
2108 22-03-2010 13:41:02 12.6 C 6.42 g/m*3 12.6 C 0 km/h
2109 22-03-2010 13:53:01 12.6 C 6.31 g/m*3 12.6 C 0 km/h
2110 22-03-2010 14:05:02 13.3 C 6.47 g/m*3 13.3 C 0 km/h
2111 22-03-2010 14:17:02 14.2 C 6.11 g/m*3 14.2 C 0 km/h
2112 22-03-2010 14:29:02 14.2 C 5.86 g/m*3 14.2 C 0 km/h
2113 22-03-2010 14:41:02 14.5 C 5.72 g/m*3 14.5 C 0 km/h
2114 22-03-2010 14:53:01 14.6 C 5.51 g/m*3 14.6 C 0 km/h
2115 22-03-2010 15:05:02 14.2 C 5.49 g/m*3 14.2 C 0 km/h
2116 22-03-2010 15:17:02 14 C 5.43 g/m*3 14 C 0 km/h
2117 22-03-2010 15:29:02 14 C 5.31 g/m*3 14 C 0 km/h
2118 22-03-2010 15:41:01 14.6 C 5.51 g/m*3 14.6 C 0 km/h
2119 22-03-2010 15:53:02 14.9 C 5.23 g/m*3 14.9 C 0 km/h
2120 22-03-2010 16:05:01 14.4 C 5.07 g/m*3 14.4 C 0 km/h
2121 22-03-2010 16:17:02 14.3 C 5.28 g/m*3 14.3 C 0 km/h
2122 22-03-2010 16:29:02 14.5 C 5.1 g/m*3 14.5 C 0 km/h
2123 22-03-2010 16:41:01 15.2 C 5.32 g/m*3 15.2 C 0 km/h
2124 22-03-2010 16:53:03 15.2 C 5.45 g/m*3 15.2 C 0 km/h
2125 22-03-2010 17:05:02 14.9 C 5.35 g/m*3 14.9 C 0 km/h
Sensor: Nr:Datum:Temp:Abs-Feuchte:Windchill:Wind:
Aussen-T/F 2126 22-03-2010 17:17:02 14.2 C 5.01 g/m*3 14.2 C 0 km/h
2127 22-03-2010 17:29:02 13.9 C 4.8 g/m*3 13.9 C 0 km/h
2128 22-03-2010 17:41:02 13.4 C 4.77 g/m*3 13.4 C 0 km/h
2129 22-03-2010 17:53:02 13.2 C 4.82 g/m*3 13.2 C 0 km/h
2130 22-03-2010 18:05:01 13 C 4.88 g/m*3 13 C 0 km/h
2131 22-03-2010 18:17:02 12.9 C 5.3 g/m*3 12.9 C 0 km/h
2132 22-03-2010 18:29:02 12.4 C 5.35 g/m*3 12.4 C 0 km/h
2133 22-03-2010 18:41:02 11.8 C 5.58 g/m*3 11.8 C 0 km/h
2134 22-03-2010 18:53:02 11.3 C 5.61 g/m*3 11.3 C 0 km/h
2135 22-03-2010 19:05:01 10.5 C 5.72 g/m*3 10.5 C 0 km/h
2136 22-03-2010 19:17:01 10 C 5.64 g/m*3 10 C 0 km/h
2137 22-03-2010 19:29:01 9.7 C 5.72 g/m*3 9.7 C 0 km/h
2138 22-03-2010 19:41:02 9.5 C 5.83 g/m*3 9.5 C 0 km/h
2139 22-03-2010 19:53:02 9.2 C 5.8 g/m*3 9.2 C 0 km/h
2140 22-03-2010 20:05:02 9 C 5.99 g/m*3 9 C 0 km/h
2141 22-03-2010 20:17:02 8.7 C 6.14 g/m*3 8.7 C 0 km/h
2142 22-03-2010 20:29:02 8.7 C 6.23 g/m*3 8.7 C 0 km/h
2143 22-03-2010 20:41:02 8.5 C 6.15 g/m*3 8.5 C 0 km/h
2144 22-03-2010 20:53:02 8.3 C 6.07 g/m*3 8.3 C 0 km/h
2145 22-03-2010 21:05:02 8.1 C 6.07 g/m*3 8.1 C 0 km/h
2146 22-03-2010 21:17:02 7.8 C 6.12 g/m*3 7.8 C 0 km/h
2147 22-03-2010 21:29:02 7.4 C 6.04 g/m*3 7.4 C 0 km/h
2148 22-03-2010 21:41:02 7.3 C 6.08 g/m*3 7.3 C 0 km/h
2149 22-03-2010 21:53:02 7.1 C 6.08 g/m*3 7.1 C 0 km/h
2150 22-03-2010 22:05:02 6.9 C 6.08 g/m*3 6.9 C 0 km/h
Sensor: Nr:Datum:Temp:Abs-Feuchte:Windchill:Wind:
Aussen-T/F 2151 22-03-2010 22:17:02 6.6 C 5.96 g/m*3 6.6 C 0 km/h
2152 22-03-2010 22:29:02 6.5 C 6 g/m*3 6.5 C 0 km/h
2153 22-03-2010 22:41:02 6.2 C 5.88 g/m*3 6.2 C 0 km/h
2154 22-03-2010 22:54:02 6 C 5.88 g/m*3 6 C 0 km/h
2155 22-03-2010 23:06:02 6 C 5.95 g/m*3 6 C 0 km/h
2156 22-03-2010 23:18:03 5.7 C 5.91 g/m*3 5.7 C 0 km/h
2157 22-03-2010 23:30:03 5.6 C 5.87 g/m*3 5.6 C 0 km/h
2158 22-03-2010 23:42:03 5.6 C 5.94 g/m*3 5.6 C 0 km/h
2159 22-03-2010 23:54:03 5.4 C 5.86 g/m*3 5.4 C 0 km/h
2160 23-03-2010 00:06:03 5.2 C 5.78 g/m*3 5.2 C 0 km/h
2161 23-03-2010 00:18:03 5 C 5.78 g/m*3 5 C 0 km/h
2162 23-03-2010 00:30:03 5 C 5.78 g/m*3 5 C 0 km/h
2163 23-03-2010 00:42:03 4.8 C 5.83 g/m*3 4.8 C 0 km/h
2164 23-03-2010 00:54:03 4.6 C 5.76 g/m*3 4.6 C 0 km/h
2165 23-03-2010 01:06:03 4.4 C 5.68 g/m*3 4.4 C 0 km/h
2166 23-03-2010 01:18:03 4.3 C 5.64 g/m*3 4.3 C 0 km/h
2167 23-03-2010 01:30:03 4.3 C 5.71 g/m*3 4.3 C 0 km/h
2168 23-03-2010 01:42:03 4.2 C 5.67 g/m*3 4.2 C 0 km/h
2169 23-03-2010 01:54:03 4.1 C 5.63 g/m*3 4.1 C 0 km/h
2170 23-03-2010 02:06:03 4 C 5.59 g/m*3 4 C 0 km/h
2171 23-03-2010 02:18:03 3.9 C 5.62 g/m*3 3.9 C 0 km/h
2172 23-03-2010 02:30:03 3.7 C 5.55 g/m*3 3.7 C 0 km/h
2173 23-03-2010 02:42:03 3.6 C 5.57 g/m*3 3.6 C 0 km/h
2174 23-03-2010 02:54:03 3.5 C 5.53 g/m*3 3.5 C 0 km/h
2175 23-03-2010 03:06:03 3.4 C 5.56 g/m*3 3.4 C 0 km/h
Sensor: Nr:Datum:Temp:Abs-Feuchte:Windchill:Wind:
Aussen-T/F 2176 23-03-2010 03:18:04 3.3 C 5.52 g/m*3 3.3 C 0 km/h
2177 23-03-2010 03:30:04 3.2 C 5.48 g/m*3 3.2 C 0 km/h
2178 23-03-2010 03:42:04 3.1 C 5.45 g/m*3 3.1 C 0 km/h
2179 23-03-2010 03:54:04 2.9 C 5.43 g/m*3 2.9 C 0 km/h
2180 23-03-2010 04:06:04 2.9 C 5.43 g/m*3 2.9 C 0 km/h
2181 23-03-2010 04:18:04 2.7 C 5.3 g/m*3 2.7 C 0 km/h
2182 23-03-2010 04:30:04 2.6 C 5.27 g/m*3 2.6 C 0 km/h
2183 23-03-2010 04:42:04 2.5 C 5.29 g/m*3 2.5 C 0 km/h
2184 23-03-2010 04:54:04 2.4 C 5.25 g/m*3 2.4 C 0 km/h
2185 23-03-2010 05:06:04 2.4 C 5.25 g/m*3 2.4 C 0 km/h
2186 23-03-2010 05:18:04 2.4 C 5.25 g/m*3 2.4 C 0 km/h
2187 23-03-2010 05:30:04 2.3 C 5.22 g/m*3 2.3 C 0 km/h
2188 23-03-2010 05:42:04 2.2 C 5.24 g/m*3 2.2 C 0 km/h
2189 23-03-2010 05:54:04 2.1 C 5.2 g/m*3 2.1 C 0 km/h
2190 23-03-2010 06:06:04 2.1 C 5.2 g/m*3 2.1 C 0 km/h
2191 23-03-2010 06:18:04 2.1 C 5.2 g/m*3 2.1 C 0 km/h
2192 23-03-2010 06:30:04 2.2 C 5.24 g/m*3 2.2 C 0 km/h
2193 23-03-2010 06:42:04 2.4 C 5.31 g/m*3 2.4 C 0 km/h
2194 23-03-2010 06:54:04 2.7 C 5.48 g/m*3 2.7 C 0 km/h
2195 23-03-2010 07:06:02 2.7 C 5.48 g/m*3 2.7 C 0 km/h
2196 23-03-2010 07:18:02 2.6 C 5.44 g/m*3 2.6 C 0 km/h
2197 23-03-2010 07:30:02 2.7 C 5.48 g/m*3 2.7 C 0 km/h
2198 23-03-2010 07:42:02 2.9 C 5.55 g/m*3 2.9 C 0 km/h
2199 23-03-2010 07:54:02 3.4 C 5.74 g/m*3 3.4 C 0 km/h
2200 23-03-2010 08:06:02 3.6 C 5.82 g/m*3 3.6 C 0 km/h
Sensor: Nr:Datum:Temp:Abs-Feuchte:Windchill:Wind:
Aussen-T/F 2201 23-03-2010 08:18:01 3.8 C 5.83 g/m*3 3.8 C 0 km/h
2202 23-03-2010 08:30:01 3.9 C 5.87 g/m*3 3.9 C 0 km/h
2203 23-03-2010 08:42:02 4.1 C 5.95 g/m*3 4.1 C 0 km/h
2204 23-03-2010 08:54:02 4.4 C 6.07 g/m*3 4.4 C 0 km/h
2205 23-03-2010 09:06:01 4.8 C 6.24 g/m*3 4.8 C 0 km/h
2206 23-03-2010 09:18:02 5.3 C 6.45 g/m*3 5.3 C 0 km/h
2207 23-03-2010 09:30:02 5.9 C 6.71 g/m*3 5.9 C 0 km/h
2208 23-03-2010 09:42:01 6.7 C 6.99 g/m*3 6.7 C 0 km/h
2209 23-03-2010 09:54:03 7.3 C 6.95 g/m*3 7.3 C 0 km/h
2210 23-03-2010 10:06:02 7.9 C 7.06 g/m*3 7.9 C 0 km/h
2211 23-03-2010 10:18:02 8.4 C 6.96 g/m*3 8.4 C 0 km/h
2212 23-03-2010 10:30:03 8.9 C 6.75 g/m*3 8.9 C 0 km/h
2213 23-03-2010 10:42:02 9.3 C 6.56 g/m*3 9.3 C 0 km/h
2214 23-03-2010 10:54:02 9.8 C 6.59 g/m*3 9.8 C 0 km/h
2215 23-03-2010 11:06:01 10.3 C 6.61 g/m*3 10.3 C 0 km/h
2216 23-03-2010 11:18:02 11.2 C 6.49 g/m*3 11.2 C 0 km/h
2217 23-03-2010 11:30:02 11.8 C 6.42 g/m*3 11.8 C 0 km/h
2218 23-03-2010 11:42:02 12.3 C 6.08 g/m*3 12.3 C 0 km/h
2219 23-03-2010 11:54:02 12.8 C 5.94 g/m*3 12.8 C 0 km/h
2220 23-03-2010 12:06:01 13.3 C 5.89 g/m*3 13.3 C 0 km/h
2221 23-03-2010 12:18:01 13.7 C 5.92 g/m*3 13.7 C 0 km/h
2222 23-03-2010 12:30:01 14 C 5.67 g/m*3 14 C 0 km/h
2223 23-03-2010 12:42:02 13.9 C 5.87 g/m*3 13.9 C 0 km/h
2224 23-03-2010 12:54:02 14.4 C 5.56 g/m*3 14.4 C 0 km/h
2225 23-03-2010 13:06:02 14.9 C 5.23 g/m*3 14.9 C 0 km/h
Sensor: Nr:Datum:Temp:Abs-Feuchte:Windchill:Wind:
Aussen-T/F 2226 23-03-2010 13:18:02 15 C 5.13 g/m*3 15 C 0 km/h
2227 23-03-2010 13:30:02 15.6 C 5.59 g/m*3 15.6 C 0 km/h
2228 23-03-2010 13:42:02 16.1 C 5.35 g/m*3 16.1 C 0 km/h
2229 23-03-2010 13:54:01 16 C 5.31 g/m*3 16 C 0 km/h
2230 23-03-2010 14:06:02 16.4 C 5.44 g/m*3 16.4 C 0 km/h
2231 23-03-2010 14:18:01 16.8 C 5.43 g/m*3 16.8 C 0 km/h
2232 23-03-2010 14:30:01 16.9 C 5.32 g/m*3 16.9 C 0 km/h
2233 23-03-2010 14:42:01 17.2 C 5.27 g/m*3 17.2 C 0 km/h
2234 23-03-2010 14:54:02 16.6 C 5.09 g/m*3 16.6 C 0 km/h
2235 23-03-2010 15:06:02 17.1 C 5.24 g/m*3 17.1 C 0 km/h
2236 23-03-2010 15:18:01 17.3 C 5.01 g/m*3 17.3 C 0 km/h
2237 23-03-2010 15:30:01 17.2 C 5.13 g/m*3 17.2 C 0 km/h
2238 23-03-2010 15:42:02 17.1 C 4.8 g/m*3 17.1 C 0 km/h
2239 23-03-2010 15:54:02 17.4 C 5.19 g/m*3 17.4 C 0 km/h
2240 23-03-2010 16:06:02 17.3 C 5.16 g/m*3 17.3 C 0 km/h
2241 23-03-2010 16:18:01 16.7 C 5.12 g/m*3 16.7 C 0 km/h
2242 23-03-2010 16:30:01 16.3 C 5.13 g/m*3 16.3 C 0 km/h
2243 23-03-2010 16:42:02 16.3 C 5.13 g/m*3 16.3 C 0 km/h
2244 23-03-2010 16:54:02 16.1 C 5.35 g/m*3 16.1 C 0 km/h
2245 23-03-2010 17:06:02 16.2 C 5.38 g/m*3 16.2 C 0 km/h
2246 23-03-2010 17:18:01 16.5 C 5.34 g/m*3 16.5 C 0 km/h
2247 23-03-2010 17:30:01 15.8 C 5.38 g/m*3 15.8 C 0 km/h
2248 23-03-2010 17:42:02 15.2 C 5.32 g/m*3 15.2 C 0 km/h
2249 23-03-2010 17:54:02 14.8 C 5.45 g/m*3 14.8 C 0 km/h
2250 23-03-2010 18:06:02 14.6 C 5.63 g/m*3 14.6 C 0 km/h
Sensor: Nr:Datum:Temp:Abs-Feuchte:Windchill:Wind:
Aussen-T/F 2251 23-03-2010 18:18:02 14.2 C 5.62 g/m*3 14.2 C 0 km/h
2252 23-03-2010 18:30:02 13.9 C 5.87 g/m*3 13.9 C 0 km/h
2253 23-03-2010 18:42:02 13.5 C 6.08 g/m*3 13.5 C 0 km/h
2254 23-03-2010 18:54:01 12.8 C 6.27 g/m*3 12.8 C 0 km/h
2255 23-03-2010 19:06:02 12.1 C 6.22 g/m*3 12.1 C 0 km/h
2256 23-03-2010 19:18:02 11.7 C 6.28 g/m*3 11.7 C 0 km/h
2257 23-03-2010 19:30:02 11.4 C 6.26 g/m*3 11.4 C 0 km/h
2258 23-03-2010 19:42:02 11.2 C 6.18 g/m*3 11.2 C 0 km/h
2259 23-03-2010 19:54:02 10.8 C 6.23 g/m*3 10.8 C 0 km/h
2260 23-03-2010 20:06:01 10.6 C 6.15 g/m*3 10.6 C 0 km/h
2261 23-03-2010 20:18:02 10.4 C 6.17 g/m*3 10.4 C 0 km/h
2262 23-03-2010 20:30:02 10.4 C 6.07 g/m*3 10.4 C 0 km/h
2263 23-03-2010 20:42:01 10.3 C 6.03 g/m*3 10.3 C 0 km/h
2264 23-03-2010 20:54:02 10.2 C 6.09 g/m*3 10.2 C 0 km/h
2265 23-03-2010 21:06:01 10 C 6.11 g/m*3 10 C 0 km/h
2266 23-03-2010 21:18:01 9.8 C 6.12 g/m*3 9.8 C 0 km/h
2267 23-03-2010 21:30:01 9.6 C 6.23 g/m*3 9.6 C 0 km/h
2268 23-03-2010 21:42:01 9.5 C 6.28 g/m*3 9.5 C 0 km/h
2269 23-03-2010 21:54:02 9.4 C 6.24 g/m*3 9.4 C 0 km/h
2270 23-03-2010 22:06:02 9.2 C 6.25 g/m*3 9.2 C 0 km/h
2271 23-03-2010 22:18:02 9 C 6.26 g/m*3 9 C 0 km/h
2272 23-03-2010 22:30:02 8.7 C 6.23 g/m*3 8.7 C 0 km/h
2273 23-03-2010 22:42:02 8.6 C 6.27 g/m*3 8.6 C 0 km/h
2274 23-03-2010 22:54:02 8.5 C 6.32 g/m*3 8.5 C 0 km/h
2275 23-03-2010 23:06:02 8.4 C 6.28 g/m*3 8.4 C 0 km/h
Sensor: Nr:Datum:Temp:Abs-Feuchte:Windchill:Wind:
Aussen-T/F 2276 23-03-2010 23:18:02 8.3 C 6.24 g/m*3 8.3 C 0 km/h
2277 23-03-2010 23:30:02 8.2 C 6.2 g/m*3 8.2 C 0 km/h
2278 23-03-2010 23:42:02 8.1 C 6.24 g/m*3 8.1 C 0 km/h
2279 23-03-2010 23:54:01 8 C 6.2 g/m*3 8 C 0 km/h
2280 24-03-2010 00:06:01 7.9 C 6.24 g/m*3 7.9 C 0 km/h
2281 24-03-2010 00:18:01 7.8 C 6.28 g/m*3 7.8 C 0 km/h
2282 24-03-2010 00:30:01 7.7 C 6.24 g/m*3 7.7 C 0 km/h
2283 24-03-2010 00:42:02 7.6 C 6.2 g/m*3 7.6 C 0 km/h
2284 24-03-2010 00:54:01 7.5 C 6.16 g/m*3 7.5 C 0 km/h
2285 24-03-2010 01:06:02 7.5 C 6.24 g/m*3 7.5 C 0 km/h
2286 24-03-2010 01:18:01 7.5 C 6.24 g/m*3 7.5 C 0 km/h
2287 24-03-2010 01:30:01 7.3 C 6.16 g/m*3 7.3 C 0 km/h
2288 24-03-2010 01:42:02 7.1 C 6.08 g/m*3 7.1 C 0 km/h
2289 24-03-2010 01:54:02 6.9 C 6.08 g/m*3 6.9 C 0 km/h
2290 24-03-2010 02:06:02 6.8 C 6.12 g/m*3 6.8 C 0 km/h
2291 24-03-2010 02:18:01 6.7 C 6.15 g/m*3 6.7 C 0 km/h
2292 24-03-2010 02:30:01 6.6 C 6.11 g/m*3 6.6 C 0 km/h
2293 24-03-2010 02:42:02 6.4 C 6.04 g/m*3 6.4 C 0 km/h
2294 24-03-2010 02:55:04 6.2 C 5.96 g/m*3 6.2 C 0 km/h
2295 24-03-2010 03:07:04 6.2 C 6.03 g/m*3 6.2 C 0 km/h
2296 24-03-2010 03:19:04 6.1 C 5.99 g/m*3 6.1 C 0 km/h
2297 24-03-2010 03:31:02 5.8 C 5.95 g/m*3 5.8 C 0 km/h
2298 24-03-2010 03:43:02 5.6 C 5.87 g/m*3 5.6 C 0 km/h
2299 24-03-2010 03:55:02 5.7 C 5.98 g/m*3 5.7 C 0 km/h
2300 24-03-2010 04:07:03 5.6 C 5.94 g/m*3 5.6 C 0 km/h
Sensor: Nr:Datum:Temp:Abs-Feuchte:Windchill:Wind:
Aussen-T/F 2301 24-03-2010 04:19:02 5.3 C 5.82 g/m*3 5.3 C 0 km/h
2302 24-03-2010 04:31:02 5.3 C 5.82 g/m*3 5.3 C 0 km/h
2303 24-03-2010 04:43:02 5.2 C 5.85 g/m*3 5.2 C 0 km/h
2304 24-03-2010 04:55:01 5.1 C 5.81 g/m*3 5.1 C 0 km/h
2305 24-03-2010 05:07:02 4.9 C 5.81 g/m*3 4.9 C 0 km/h
2306 24-03-2010 05:19:01 5 C 5.84 g/m*3 5 C 0 km/h
2307 24-03-2010 05:31:01 5 C 5.84 g/m*3 5 C 0 km/h
2308 24-03-2010 05:43:01 4.7 C 5.8 g/m*3 4.7 C 0 km/h
2309 24-03-2010 05:55:01 4.5 C 5.72 g/m*3 4.5 C 0 km/h
2310 24-03-2010 06:07:02 4.4 C 5.68 g/m*3 4.4 C 0 km/h
2311 24-03-2010 06:19:01 4.4 C 5.68 g/m*3 4.4 C 0 km/h
2312 24-03-2010 06:31:01 4.4 C 5.75 g/m*3 4.4 C 0 km/h
2313 24-03-2010 06:43:01 4.3 C 5.71 g/m*3 4.3 C 0 km/h
2314 24-03-2010 06:55:01 4.3 C 5.71 g/m*3 4.3 C 0 km/h
2315 24-03-2010 07:07:01 4.4 C 5.81 g/m*3 4.4 C 0 km/h
2316 24-03-2010 07:19:02 4.4 C 5.81 g/m*3 4.4 C 0 km/h
2317 24-03-2010 07:31:01 4.6 C 5.89 g/m*3 4.6 C 0 km/h
2318 24-03-2010 07:43:01 4.9 C 6.01 g/m*3 4.9 C 0 km/h
2319 24-03-2010 07:55:03 5.2 C 6.06 g/m*3 5.2 C 0 km/h
2320 24-03-2010 08:07:02 5.3 C 6.1 g/m*3 5.3 C 0 km/h
2321 24-03-2010 08:19:02 5.4 C 6.07 g/m*3 5.4 C 0 km/h
2322 24-03-2010 08:31:02 5.7 C 6.19 g/m*3 5.7 C 0 km/h
2323 24-03-2010 08:43:02 5.7 C 6.12 g/m*3 5.7 C 0 km/h
2324 24-03-2010 08:55:02 5.8 C 6.16 g/m*3 5.8 C 0 km/h
2325 24-03-2010 09:07:01 6.1 C 6.21 g/m*3 6.1 C 0 km/h
Sensor: Nr:Datum:Temp:Abs-Feuchte:Windchill:Wind:
Aussen-T/F 2326 24-03-2010 09:19:02 6.7 C 6.46 g/m*3 6.7 C 0 km/h
2327 24-03-2010 09:31:01 7.2 C 6.44 g/m*3 7.2 C 0 km/h
2328 24-03-2010 09:43:01 7.8 C 6.69 g/m*3 7.8 C 0 km/h
2329 24-03-2010 09:55:02 8.4 C 6.53 g/m*3 8.4 C 0 km/h
2330 24-03-2010 10:07:01 9.2 C 6.79 g/m*3 9.2 C 0 km/h
2331 24-03-2010 10:19:01 10.2 C 6.95 g/m*3 10.2 C 0 km/h
2332 24-03-2010 10:31:02 10.9 C 6.76 g/m*3 10.9 C 0 km/h
2333 24-03-2010 10:43:02 11.7 C 6.48 g/m*3 11.7 C 0 km/h
2334 24-03-2010 10:55:02 12.7 C 6.46 g/m*3 12.7 C 0 km/h
2335 24-03-2010 11:07:01 13.1 C 5.71 g/m*3 13.1 C 0 km/h
2336 24-03-2010 11:19:02 13.8 C 5.6 g/m*3 13.8 C 0 km/h
2337 24-03-2010 11:31:02 14.4 C 5.44 g/m*3 14.4 C 0 km/h
2338 24-03-2010 11:43:02 14.9 C 5.23 g/m*3 14.9 C 0 km/h
2339 24-03-2010 11:55:02 15.5 C 5.29 g/m*3 15.5 C 0 km/h
2340 24-03-2010 12:07:02 16.1 C 5.21 g/m*3 16.1 C 0 km/h
2341 24-03-2010 12:19:02 16.7 C 5.26 g/m*3 16.7 C 0 km/h
2342 24-03-2010 12:31:02 17.2 C 5.27 g/m*3 17.2 C 0 km/h
2343 24-03-2010 12:43:02 17.6 C 5.1 g/m*3 17.6 C 0 km/h
2344 24-03-2010 12:55:02 18.4 C 4.88 g/m*3 18.4 C 0 km/h
2345 24-03-2010 13:07:03 18.7 C 4.8 g/m*3 18.7 C 0 km/h
2346 24-03-2010 13:19:02 19 C 5.05 g/m*3 19 C 0 km/h
2347 24-03-2010 13:31:02 19.5 C 5.2 g/m*3 19.5 C 0 km/h
2348 24-03-2010 13:43:02 19.9 C 4.98 g/m*3 19.9 C 0 km/h
2349 24-03-2010 13:55:01 20.3 C 4.75 g/m*3 20.3 C 0 km/h
2350 24-03-2010 14:07:02 20.8 C 4.71 g/m*3 20.8 C 0 km/h
Sensor: Nr:Datum:Temp:Abs-Feuchte:Windchill:Wind:
Aussen-T/F 2351 24-03-2010 14:19:01 21.6 C 4.74 g/m*3 21.6 C 0 km/h
2352 24-03-2010 14:31:01 21.6 C 4.36 g/m*3 21.6 C 0 km/h
2353 24-03-2010 14:43:01 21.5 C 4.34 g/m*3 21.5 C 0 km/h
2354 24-03-2010 14:55:01 21.8 C 4.41 g/m*3 21.8 C 0 km/h
2355 24-03-2010 15:07:02 22 C 4.27 g/m*3 22 C 0 km/h
2356 24-03-2010 15:19:01 22 C 4.27 g/m*3 22 C 0 km/h
2357 24-03-2010 15:31:01 22.3 C 4.34 g/m*3 22.3 C 0 km/h
2358 24-03-2010 15:43:01 23 C 4.52 g/m*3 23 C 0 km/h
2359 24-03-2010 15:55:01 21.9 C 4.44 g/m*3 21.9 C 0 km/h
2360 24-03-2010 16:07:02 21.4 C 4.5 g/m*3 21.4 C 0 km/h
2361 24-03-2010 16:19:02 21 C 4.58 g/m*3 21 C 0 km/h
2362 24-03-2010 16:31:01 21.1 C 4.79 g/m*3 21.1 C 0 km/h
2363 24-03-2010 16:43:01 20.3 C 4.92 g/m*3 20.3 C 0 km/h
2364 24-03-2010 16:55:01 20.4 C 5.13 g/m*3 20.4 C 0 km/h
2365 24-03-2010 17:07:01 20.4 C 5.31 g/m*3 20.4 C 0 km/h
2366 24-03-2010 17:19:02 20 C 5.18 g/m*3 20 C 0 km/h
2367 24-03-2010 17:31:01 19.8 C 5.47 g/m*3 19.8 C 0 km/h
2368 24-03-2010 17:43:01 19.5 C 5.37 g/m*3 19.5 C 0 km/h
2369 24-03-2010 17:55:02 19.1 C 5.08 g/m*3 19.1 C 0 km/h
2370 24-03-2010 18:07:01 18.5 C 5.22 g/m*3 18.5 C 0 km/h
2371 24-03-2010 18:19:02 17.9 C 5.65 g/m*3 17.9 C 0 km/h
2372 24-03-2010 18:31:01 17.4 C 5.48 g/m*3 17.4 C 0 km/h
2373 24-03-2010 18:43:01 16.5 C 5.62 g/m*3 16.5 C 0 km/h
2374 24-03-2010 18:55:02 15.8 C 5.38 g/m*3 15.8 C 0 km/h
2375 24-03-2010 19:07:02 15.4 C 5.52 g/m*3 15.4 C 0 km/h
Sensor: Nr:Datum:Temp:Abs-Feuchte:Windchill:Wind:
Aussen-T/F 2376 24-03-2010 19:19:02 15 C 5.51 g/m*3 15 C 0 km/h
2377 24-03-2010 19:31:03 14.5 C 5.6 g/m*3 14.5 C 0 km/h
2378 24-03-2010 19:43:03 14.4 C 5.56 g/m*3 14.4 C 0 km/h
2379 24-03-2010 19:55:02 14.2 C 5.49 g/m*3 14.2 C 0 km/h
2380 24-03-2010 20:07:01 14 C 5.67 g/m*3 14 C 0 km/h
2381 24-03-2010 20:19:02 14 C 5.55 g/m*3 14 C 0 km/h
2382 24-03-2010 20:31:02 13.8 C 5.48 g/m*3 13.8 C 0 km/h
2383 24-03-2010 20:43:02 13.8 C 5.6 g/m*3 13.8 C 0 km/h
2384 24-03-2010 20:55:02 13.4 C 5.58 g/m*3 13.4 C 0 km/h
2385 24-03-2010 21:07:01 13.4 C 5.58 g/m*3 13.4 C 0 km/h
2386 24-03-2010 21:19:01 13.2 C 5.51 g/m*3 13.2 C 0 km/h
2387 24-03-2010 21:31:02 13.1 C 5.59 g/m*3 13.1 C 0 km/h
2388 24-03-2010 21:43:02 12.9 C 5.75 g/m*3 12.9 C 0 km/h
2389 24-03-2010 21:55:02 12.8 C 5.71 g/m*3 12.8 C 0 km/h
2390 24-03-2010 22:07:02 12.4 C 5.68 g/m*3 12.4 C 0 km/h
2391 24-03-2010 22:19:02 12.7 C 5.68 g/m*3 12.7 C 0 km/h
2392 24-03-2010 22:31:02 12.6 C 5.64 g/m*3 12.6 C 0 km/h
2393 24-03-2010 22:43:02 12.4 C 5.68 g/m*3 12.4 C 0 km/h
2394 24-03-2010 22:55:02 12 C 5.86 g/m*3 12 C 0 km/h
2395 24-03-2010 23:07:02 11.7 C 6.07 g/m*3 11.7 C 0 km/h
2396 24-03-2010 23:19:02 11.4 C 5.95 g/m*3 11.4 C 0 km/h
2397 24-03-2010 23:31:02 10.9 C 6.07 g/m*3 10.9 C 0 km/h
2398 24-03-2010 23:43:02 10.8 C 6.13 g/m*3 10.8 C 0 km/h
2399 24-03-2010 23:55:02 10.6 C 6.15 g/m*3 10.6 C 0 km/h
2400 25-03-2010 00:07:02 10.6 C 6.25 g/m*3 10.6 C 0 km/h
Sensor: Nr:Datum:Temp:Abs-Feuchte:Windchill:Wind:
Aussen-T/F 2401 25-03-2010 00:19:02 10.5 C 6.21 g/m*3 10.5 C 0 km/h
2402 25-03-2010 00:31:02 10.4 C 6.07 g/m*3 10.4 C 0 km/h
2403 25-03-2010 00:43:02 10.1 C 6.05 g/m*3 10.1 C 0 km/h
2404 25-03-2010 00:55:01 9.7 C 6.08 g/m*3 9.7 C 0 km/h
2405 25-03-2010 01:07:02 9.4 C 6.06 g/m*3 9.4 C 0 km/h
2406 25-03-2010 01:19:01 9.3 C 6.11 g/m*3 9.3 C 0 km/h
2407 25-03-2010 01:31:01 9.2 C 6.16 g/m*3 9.2 C 0 km/h
2408 25-03-2010 01:43:01 9 C 6.08 g/m*3 9 C 0 km/h
2409 25-03-2010 01:55:01 8.9 C 6.13 g/m*3 8.9 C 0 km/h
2410 25-03-2010 02:07:02 8.9 C 6.22 g/m*3 8.9 C 0 km/h
2411 25-03-2010 02:19:02 8.8 C 6.18 g/m*3 8.8 C 0 km/h
2412 25-03-2010 02:31:01 8.6 C 6.19 g/m*3 8.6 C 0 km/h
2413 25-03-2010 02:43:01 8.7 C 6.23 g/m*3 8.7 C 0 km/h
2414 25-03-2010 02:55:01 8.6 C 6.27 g/m*3 8.6 C 0 km/h
2415 25-03-2010 03:07:01 8.7 C 6.31 g/m*3 8.7 C 0 km/h
2416 25-03-2010 03:19:01 8.6 C 6.27 g/m*3 8.6 C 0 km/h
2417 25-03-2010 03:31:01 8.4 C 6.28 g/m*3 8.4 C 0 km/h
2418 25-03-2010 03:43:01 8.1 C 6.16 g/m*3 8.1 C 0 km/h
2419 25-03-2010 03:55:01 7.9 C 6.24 g/m*3 7.9 C 0 km/h
2420 25-03-2010 04:07:02 7.7 C 6.24 g/m*3 7.7 C 0 km/h
2421 25-03-2010 04:19:01 7.6 C 6.28 g/m*3 7.6 C 0 km/h
2422 25-03-2010 04:31:01 7.7 C 6.32 g/m*3 7.7 C 0 km/h
2423 25-03-2010 04:43:01 7.9 C 6.49 g/m*3 7.9 C 0 km/h
2424 25-03-2010 04:55:01 7.8 C 6.45 g/m*3 7.8 C 0 km/h
2425 25-03-2010 05:07:01 7.6 C 6.44 g/m*3 7.6 C 0 km/h
Sensor: Nr:Datum:Temp:Abs-Feuchte:Windchill:Wind:
Aussen-T/F 2426 25-03-2010 05:19:01 7.5 C 6.4 g/m*3 7.5 C 0 km/h
2427 25-03-2010 05:31:01 7.3 C 6.4 g/m*3 7.3 C 0 km/h
2428 25-03-2010 05:43:01 7.2 C 6.36 g/m*3 7.2 C 0 km/h
2429 25-03-2010 05:55:01 7.2 C 6.36 g/m*3 7.2 C 0 km/h
2430 25-03-2010 06:07:01 7.3 C 6.48 g/m*3 7.3 C 0 km/h
2431 25-03-2010 06:19:02 7.4 C 6.44 g/m*3 7.4 C 0 km/h
2432 25-03-2010 06:31:01 7.4 C 6.44 g/m*3 7.4 C 0 km/h
2433 25-03-2010 06:43:01 7.5 C 6.48 g/m*3 7.5 C 0 km/h
2434 25-03-2010 06:55:01 7.6 C 6.53 g/m*3 7.6 C 0 km/h
2435 25-03-2010 07:07:01 7.8 C 6.53 g/m*3 7.8 C 0 km/h
2436 25-03-2010 07:19:02 7.9 C 6.57 g/m*3 7.9 C 0 km/h
2437 25-03-2010 07:31:01 7.6 C 6.61 g/m*3 7.6 C 0 km/h
2438 25-03-2010 07:43:01 7.9 C 6.9 g/m*3 7.9 C 0 km/h
2439 25-03-2010 07:55:02 8.2 C 6.95 g/m*3 8.2 C 0 km/h
2440 25-03-2010 08:07:01 8.2 C 6.87 g/m*3 8.2 C 0 km/h
2441 25-03-2010 08:19:02 8.1 C 6.82 g/m*3 8.1 C 0 km/h
2442 25-03-2010 08:31:01 8.2 C 6.95 g/m*3 8.2 C 0 km/h
2443 25-03-2010 08:43:01 8.4 C 7.04 g/m*3 8.4 C 0 km/h
2444 25-03-2010 08:55:02 8.8 C 7.22 g/m*3 8.8 C 0 km/h
2445 25-03-2010 09:07:01 9.5 C 7.46 g/m*3 9.5 C 0 km/h
2446 25-03-2010 09:19:01 10.4 C 7.61 g/m*3 10.4 C 0 km/h
2447 25-03-2010 09:31:02 11 C 7.31 g/m*3 11 C 0 km/h
2448 25-03-2010 09:43:02 11.5 C 7.33 g/m*3 11.5 C 0 km/h
2449 25-03-2010 09:55:02 11.9 C 7.31 g/m*3 11.9 C 0 km/h
2450 25-03-2010 10:07:01 12.4 C 7.21 g/m*3 12.4 C 0 km/h
Sensor: Nr:Datum:Temp:Abs-Feuchte:Windchill:Wind:
Aussen-T/F 2451 25-03-2010 10:19:01 12.6 C 7.08 g/m*3 12.6 C 0 km/h
2452 25-03-2010 10:31:02 13.1 C 7.3 g/m*3 13.1 C 0 km/h
2453 25-03-2010 10:43:02 14.1 C 7.4 g/m*3 14.1 C 0 km/h
2454 25-03-2010 10:55:01 14.7 C 7.05 g/m*3 14.7 C 0 km/h
2455 25-03-2010 11:07:02 15.7 C 6.69 g/m*3 15.7 C 0 km/h
2456 25-03-2010 11:19:01 16.8 C 6.43 g/m*3 16.8 C 0 km/h
2457 25-03-2010 11:31:02 17.9 C 5.95 g/m*3 17.9 C 0 km/h
2458 25-03-2010 11:43:02 18.5 C 5.85 g/m*3 18.5 C 0 km/h
2459 25-03-2010 11:55:01 18.8 C 5.64 g/m*3 18.8 C 0 km/h
2460 25-03-2010 12:07:02 19.5 C 5.2 g/m*3 19.5 C 0 km/h
2461 25-03-2010 12:19:01 19.3 C 4.64 g/m*3 19.3 C 0 km/h
2462 25-03-2010 12:31:01 20.2 C 4.55 g/m*3 20.2 C 0 km/h
2463 25-03-2010 12:43:01 21 C 4.4 g/m*3 21 C 0 km/h
2464 25-03-2010 12:55:01 21.6 C 4.55 g/m*3 21.6 C 0 km/h
2465 25-03-2010 13:07:02 22 C 4.27 g/m*3 22 C 0 km/h
2466 25-03-2010 13:19:01 22.2 C 3.93 g/m*3 22.2 C 0 km/h
2467 25-03-2010 13:31:01 22.8 C 4.06 g/m*3 22.8 C 0 km/h
2468 25-03-2010 13:43:01 22.7 C 4.04 g/m*3 22.7 C 0 km/h
2469 25-03-2010 13:55:01 23.2 C 4.16 g/m*3 23.2 C 0 km/h
2470 25-03-2010 14:07:01 22.8 C 4.06 g/m*3 22.8 C 0 km/h
2471 25-03-2010 14:19:02 22.9 C 4.09 g/m*3 22.9 C 0 km/h
2472 25-03-2010 14:31:01 23.3 C 4.18 g/m*3 23.3 C 0 km/h
2473 25-03-2010 14:43:01 23.8 C 4.3 g/m*3 23.8 C 0 km/h
2474 25-03-2010 14:55:01 23.7 C 4.28 g/m*3 23.7 C 0 km/h
2475 25-03-2010 15:07:01 23.2 C 4.16 g/m*3 23.2 C 0 km/h
Sensor: Nr:Datum:Temp:Abs-Feuchte:Windchill:Wind:
Aussen-T/F 2476 25-03-2010 15:19:02 22.8 C 4.06 g/m*3 22.8 C 0 km/h
2477 25-03-2010 15:31:01 23.4 C 4.21 g/m*3 23.4 C 0 km/h
2478 25-03-2010 15:43:01 23.6 C 4.25 g/m*3 23.6 C 0 km/h
2479 25-03-2010 15:55:02 23.7 C 4.28 g/m*3 23.7 C 0 km/h
2480 25-03-2010 16:07:01 23.6 C 4.25 g/m*3 23.6 C 0 km/h
2481 25-03-2010 16:19:02 24.1 C 4.38 g/m*3 24.1 C 0 km/h
2482 25-03-2010 16:31:01 23.6 C 4.25 g/m*3 23.6 C 0 km/h
2483 25-03-2010 16:43:01 22.8 C 4.06 g/m*3 22.8 C 0 km/h
2484 25-03-2010 16:55:02 21.9 C 4.44 g/m*3 21.9 C 0 km/h
2485 25-03-2010 17:07:01 21.5 C 4.71 g/m*3 21.5 C 0 km/h
2486 25-03-2010 17:19:01 20.9 C 4.55 g/m*3 20.9 C 0 km/h
2487 25-03-2010 17:31:01 20.7 C 4.68 g/m*3 20.7 C 0 km/h
2488 25-03-2010 17:43:01 20 C 5.01 g/m*3 20 C 0 km/h
2489 25-03-2010 17:55:01 19.5 C 5.37 g/m*3 19.5 C 0 km/h
2490 25-03-2010 18:07:02 19.6 C 5.23 g/m*3 19.6 C 0 km/h
2491 25-03-2010 18:19:02 19.5 C 5.87 g/m*3 19.5 C 0 km/h
2492 25-03-2010 18:31:01 19.3 C 5.31 g/m*3 19.3 C 0 km/h
2493 25-03-2010 18:43:01 18.7 C 5.6 g/m*3 18.7 C 0 km/h
2494 25-03-2010 18:55:02 18.5 C 5.85 g/m*3 18.5 C 0 km/h
2495 25-03-2010 19:07:01 18.3 C 5.79 g/m*3 18.3 C 0 km/h
2496 25-03-2010 19:19:02 17.8 C 5.62 g/m*3 17.8 C 0 km/h
2497 25-03-2010 19:31:01 17.2 C 5.86 g/m*3 17.2 C 0 km/h
2498 25-03-2010 19:43:01 16.8 C 5.86 g/m*3 16.8 C 0 km/h
2499 25-03-2010 19:55:02 16.4 C 5.72 g/m*3 16.4 C 0 km/h
2500 25-03-2010 20:07:01 16.1 C 5.76 g/m*3 16.1 C 0 km/h
Sensor: Nr:Datum:Temp:Abs-Feuchte:Windchill:Wind:
Aussen-T/F 2501 25-03-2010 20:19:01 15.8 C 5.79 g/m*3 15.8 C 0 km/h
2502 25-03-2010 20:31:02 15.4 C 5.91 g/m*3 15.4 C 0 km/h
2503 25-03-2010 20:43:02 15.2 C 5.97 g/m*3 15.2 C 0 km/h
2504 25-03-2010 20:55:02 15 C 5.9 g/m*3 15 C 0 km/h
2505 25-03-2010 21:07:01 14.9 C 5.99 g/m*3 14.9 C 0 km/h
2506 25-03-2010 21:19:01 14.7 C 6.04 g/m*3 14.7 C 0 km/h
2507 25-03-2010 21:31:02 14.5 C 6.09 g/m*3 14.5 C 0 km/h
2508 25-03-2010 21:43:02 14.1 C 6.07 g/m*3 14.1 C 0 km/h
2509 25-03-2010 21:55:01 13.8 C 6.2 g/m*3 13.8 C 0 km/h
2510 25-03-2010 22:07:02 13.6 C 6.24 g/m*3 13.6 C 0 km/h
2511 25-03-2010 22:19:01 13.4 C 6.28 g/m*3 13.4 C 0 km/h
2512 25-03-2010 22:31:01 13.1 C 6.39 g/m*3 13.1 C 0 km/h
2513 25-03-2010 22:43:01 13 C 6.35 g/m*3 13 C 0 km/h
2514 25-03-2010 22:55:01 13 C 6.24 g/m*3 13 C 0 km/h
2515 25-03-2010 23:07:02 13 C 6.46 g/m*3 13 C 0 km/h
2516 25-03-2010 23:19:01 12.6 C 6.31 g/m*3 12.6 C 0 km/h
2517 25-03-2010 23:31:02 12.7 C 6.57 g/m*3 12.7 C 0 km/h
2518 25-03-2010 23:43:02 12.6 C 6.53 g/m*3 12.6 C 0 km/h
2519 25-03-2010 23:55:01 12.5 C 6.6 g/m*3 12.5 C 0 km/h
2520 26-03-2010 00:07:02 12.5 C 6.71 g/m*3 12.5 C 0 km/h
2521 26-03-2010 00:19:02 12.4 C 6.66 g/m*3 12.4 C 0 km/h
2522 26-03-2010 00:31:01 12.4 C 6.66 g/m*3 12.4 C 0 km/h
2523 26-03-2010 00:43:01 12.2 C 6.58 g/m*3 12.2 C 0 km/h
2524 26-03-2010 00:55:02 12.1 C 6.65 g/m*3 12.1 C 0 km/h
2525 26-03-2010 01:07:01 12.3 C 6.62 g/m*3 12.3 C 0 km/h
Sensor: Nr:Datum:Temp:Abs-Feuchte:Windchill:Wind:
Aussen-T/F 2526 26-03-2010 01:19:02 12.2 C 6.58 g/m*3 12.2 C 0 km/h
2527 26-03-2010 01:31:01 12.5 C 6.6 g/m*3 12.5 C 0 km/h
2528 26-03-2010 01:43:01 13 C 6.58 g/m*3 13 C 0 km/h
2529 26-03-2010 01:55:02 13.8 C 6.55 g/m*3 13.8 C 0 km/h
2530 26-03-2010 02:07:01 13.4 C 6.28 g/m*3 13.4 C 0 km/h
2531 26-03-2010 02:19:01 12.7 C 6.46 g/m*3 12.7 C 0 km/h
2532 26-03-2010 02:31:02 12.4 C 6.66 g/m*3 12.4 C 0 km/h
2533 26-03-2010 02:43:02 12.1 C 6.76 g/m*3 12.1 C 0 km/h
2534 26-03-2010 02:56:05 12 C 6.82 g/m*3 12 C 0 km/h
2535 26-03-2010 03:08:06 11.6 C 6.76 g/m*3 11.6 C 0 km/h
2536 26-03-2010 03:20:05 11.6 C 6.86 g/m*3 11.6 C 0 km/h
2537 26-03-2010 03:32:03 11.8 C 6.95 g/m*3 11.8 C 0 km/h
2538 26-03-2010 03:44:03 12 C 6.82 g/m*3 12 C 0 km/h
2539 26-03-2010 03:56:03 12.1 C 6.86 g/m*3 12.1 C 0 km/h
2540 26-03-2010 04:08:02 11.7 C 6.9 g/m*3 11.7 C 0 km/h
2541 26-03-2010 04:20:02 11.2 C 6.79 g/m*3 11.2 C 0 km/h
2542 26-03-2010 04:32:02 11.2 C 6.99 g/m*3 11.2 C 0 km/h
2543 26-03-2010 04:44:02 11.1 C 6.95 g/m*3 11.1 C 0 km/h
2544 26-03-2010 04:56:02 11.2 C 6.89 g/m*3 11.2 C 0 km/h
2545 26-03-2010 05:08:02 11 C 6.81 g/m*3 11 C 0 km/h
2546 26-03-2010 05:20:02 10.9 C 6.86 g/m*3 10.9 C 0 km/h
2547 26-03-2010 05:32:01 10.7 C 6.88 g/m*3 10.7 C 0 km/h
2548 26-03-2010 05:44:01 10.9 C 6.96 g/m*3 10.9 C 0 km/h
2549 26-03-2010 05:56:02 11 C 7.01 g/m*3 11 C 0 km/h
2550 26-03-2010 06:08:01 10.8 C 6.92 g/m*3 10.8 C 0 km/h
Sensor: Nr:Datum:Temp:Abs-Feuchte:Windchill:Wind:
Aussen-T/F 2551 26-03-2010 06:20:02 10.5 C 6.98 g/m*3 10.5 C 0 km/h
2552 26-03-2010 06:32:02 10.2 C 6.85 g/m*3 10.2 C 0 km/h
2553 26-03-2010 06:44:02 10.2 C 6.95 g/m*3 10.2 C 0 km/h
2554 26-03-2010 06:56:02 10.2 C 6.95 g/m*3 10.2 C 0 km/h
2555 26-03-2010 07:08:02 10.3 C 6.99 g/m*3 10.3 C 0 km/h
2556 26-03-2010 07:20:02 10.6 C 7.22 g/m*3 10.6 C 0 km/h
2557 26-03-2010 07:32:02 10.7 C 7.17 g/m*3 10.7 C 0 km/h
2558 26-03-2010 07:44:02 10.8 C 7.22 g/m*3 10.8 C 0 km/h
2559 26-03-2010 07:56:02 11 C 7.11 g/m*3 11 C 0 km/h
2560 26-03-2010 08:08:02 11.5 C 7.23 g/m*3 11.5 C 0 km/h
2561 26-03-2010 08:20:01 11.5 C 7.13 g/m*3 11.5 C 0 km/h
2562 26-03-2010 08:32:02 11.7 C 7.22 g/m*3 11.7 C 0 km/h
2563 26-03-2010 08:44:02 12.3 C 7.28 g/m*3 12.3 C 0 km/h
2564 26-03-2010 08:56:02 12.2 C 7.12 g/m*3 12.2 C 0 km/h
2565 26-03-2010 09:08:02 12.4 C 7.21 g/m*3 12.4 C 0 km/h
2566 26-03-2010 09:20:02 12.8 C 7.28 g/m*3 12.8 C 0 km/h
2567 26-03-2010 09:32:02 13.2 C 7.23 g/m*3 13.2 C 0 km/h
2568 26-03-2010 09:44:02 13.7 C 7.22 g/m*3 13.7 C 0 km/h
2569 26-03-2010 09:56:02 13.8 C 7.03 g/m*3 13.8 C 0 km/h
2570 26-03-2010 10:08:02 13.8 C 7.15 g/m*3 13.8 C 0 km/h
2571 26-03-2010 10:20:02 13.8 C 7.03 g/m*3 13.8 C 0 km/h
2572 26-03-2010 10:32:02 13.8 C 7.15 g/m*3 13.8 C 0 km/h
2573 26-03-2010 10:44:02 13.6 C 6.83 g/m*3 13.6 C 0 km/h
2574 26-03-2010 10:56:02 13.3 C 6.82 g/m*3 13.3 C 0 km/h
2575 26-03-2010 11:08:02 12.5 C 6.6 g/m*3 12.5 C 0 km/h
Sensor: Nr:Datum:Temp:Abs-Feuchte:Windchill:Wind:
Aussen-T/F 2576 26-03-2010 11:20:02 12.2 C 6.58 g/m*3 12.2 C 0 km/h
2577 26-03-2010 11:32:02 11 C 7.01 g/m*3 11 C 0 km/h
2578 26-03-2010 11:44:02 9.9 C 7.28 g/m*3 9.9 C 0 km/h
2579 26-03-2010 11:56:01 9 C 6.96 g/m*3 9 C 0 km/h
2580 26-03-2010 12:08:01 8.5 C 7.17 g/m*3 8.5 C 0 km/h
2581 26-03-2010 12:20:01 8.2 C 7.2 g/m*3 8.2 C 0 km/h
2582 26-03-2010 12:32:01 7.9 C 7.23 g/m*3 7.9 C 0 km/h
2583 26-03-2010 12:44:01 7.5 C 6.96 g/m*3 7.5 C 0 km/h
2584 26-03-2010 12:56:01 7.4 C 7 g/m*3 7.4 C 0 km/h
2585 26-03-2010 13:08:01 7.5 C 7.12 g/m*3 7.5 C 0 km/h
2586 26-03-2010 13:20:02 7.4 C 7.08 g/m*3 7.4 C 0 km/h
2587 26-03-2010 13:32:01 7.5 C 7.2 g/m*3 7.5 C 0 km/h
2588 26-03-2010 13:44:01 7.8 C 7.43 g/m*3 7.8 C 0 km/h
2589 26-03-2010 13:56:02 7.7 C 7.38 g/m*3 7.7 C 0 km/h
2590 26-03-2010 14:08:02 7.5 C 7.28 g/m*3 7.5 C 0 km/h
2591 26-03-2010 14:20:02 7.4 C 7.16 g/m*3 7.4 C 0 km/h
2592 26-03-2010 14:32:02 7.5 C 7.2 g/m*3 7.5 C 0 km/h
2593 26-03-2010 14:44:02 8.1 C 7.49 g/m*3 8.1 C 0 km/h
2594 26-03-2010 14:56:02 8.2 C 7.54 g/m*3 8.2 C 0 km/h
2595 26-03-2010 15:08:01 8.1 C 7.41 g/m*3 8.1 C 0 km/h
2596 26-03-2010 15:20:01 8.2 C 7.45 g/m*3 8.2 C 0 km/h
2597 26-03-2010 15:32:01 8.1 C 7.32 g/m*3 8.1 C 0 km/h
2598 26-03-2010 15:44:01 8.3 C 7.42 g/m*3 8.3 C 0 km/h
2599 26-03-2010 15:56:02 8.6 C 7.65 g/m*3 8.6 C 0 km/h
2600 26-03-2010 16:08:02 8.7 C 7.7 g/m*3 8.7 C 0 km/h
Sensor: Nr:Datum:Temp:Abs-Feuchte:Windchill:Wind:
Aussen-T/F 2601 26-03-2010 16:20:01 8.5 C 7.51 g/m*3 8.5 C 0 km/h
2602 26-03-2010 16:32:01 8.6 C 7.56 g/m*3 8.6 C 0 km/h
2603 26-03-2010 16:44:01 8.5 C 7.51 g/m*3 8.5 C 0 km/h
2604 26-03-2010 16:56:01 8.4 C 7.38 g/m*3 8.4 C 0 km/h
2605 26-03-2010 17:08:02 8.6 C 7.3 g/m*3 8.6 C 0 km/h
2606 26-03-2010 17:20:02 8.6 C 7.22 g/m*3 8.6 C 0 km/h
2607 26-03-2010 17:32:02 8.6 C 7.22 g/m*3 8.6 C 0 km/h
2608 26-03-2010 17:44:02 8.6 C 7.22 g/m*3 8.6 C 0 km/h
2609 26-03-2010 17:56:01 8.6 C 7.22 g/m*3 8.6 C 0 km/h
2610 26-03-2010 18:08:02 8.5 C 7.17 g/m*3 8.5 C 0 km/h
2611 26-03-2010 18:20:02 8.8 C 7.22 g/m*3 8.8 C 0 km/h
2612 26-03-2010 18:32:01 8.7 C 7.01 g/m*3 8.7 C 0 km/h
2613 26-03-2010 18:44:01 8.6 C 6.87 g/m*3 8.6 C 0 km/h
2614 26-03-2010 18:56:02 8.6 C 6.96 g/m*3 8.6 C 0 km/h
2615 26-03-2010 19:08:01 8.4 C 6.96 g/m*3 8.4 C 0 km/h
2616 26-03-2010 19:20:02 8.4 C 7.04 g/m*3 8.4 C 0 km/h
2617 26-03-2010 19:32:01 8.5 C 7.09 g/m*3 8.5 C 0 km/h
2618 26-03-2010 19:44:01 8.4 C 7.04 g/m*3 8.4 C 0 km/h
2619 26-03-2010 19:56:01 8.4 C 7.13 g/m*3 8.4 C 0 km/h
2620 26-03-2010 20:08:01 8.5 C 7.09 g/m*3 8.5 C 0 km/h
2621 26-03-2010 20:20:01 8.7 C 7.09 g/m*3 8.7 C 0 km/h
2622 26-03-2010 20:32:02 8.7 C 6.92 g/m*3 8.7 C 0 km/h
2623 26-03-2010 20:44:02 8.6 C 6.7 g/m*3 8.6 C 0 km/h
2624 26-03-2010 20:56:02 8.4 C 6.53 g/m*3 8.4 C 0 km/h
2625 26-03-2010 21:08:02 8.3 C 6.41 g/m*3 8.3 C 0 km/h
Sensor: Nr:Datum:Temp:Abs-Feuchte:Windchill:Wind:
Aussen-T/F 2626 26-03-2010 21:20:01 8.5 C 6.15 g/m*3 8.5 C 0 km/h
2627 26-03-2010 21:33:02 8.5 C 6.15 g/m*3 8.5 C 0 km/h
2628 26-03-2010 21:45:03 8.3 C 6.15 g/m*3 8.3 C 0 km/h
2629 26-03-2010 21:57:03 8.4 C 6.19 g/m*3 8.4 C 0 km/h
2630 26-03-2010 22:09:03 8.3 C 6.32 g/m*3 8.3 C 0 km/h
2631 26-03-2010 22:21:03 8.3 C 6.32 g/m*3 8.3 C 0 km/h
2632 26-03-2010 22:33:03 8.2 C 6.36 g/m*3 8.2 C 0 km/h
2633 26-03-2010 22:45:03 8.1 C 6.41 g/m*3 8.1 C 0 km/h
2634 26-03-2010 22:57:03 7.8 C 6.37 g/m*3 7.8 C 0 km/h
2635 26-03-2010 23:09:03 7.7 C 6.49 g/m*3 7.7 C 0 km/h
2636 26-03-2010 23:21:03 7.8 C 6.53 g/m*3 7.8 C 0 km/h
2637 26-03-2010 23:33:03 7.8 C 6.45 g/m*3 7.8 C 0 km/h
2638 26-03-2010 23:45:03 7.6 C 6.44 g/m*3 7.6 C 0 km/h
2639 26-03-2010 23:57:03 7.7 C 6.49 g/m*3 7.7 C 0 km/h
2640 27-03-2010 00:09:03 7.7 C 6.41 g/m*3 7.7 C 0 km/h
2641 27-03-2010 00:21:03 7.9 C 6.49 g/m*3 7.9 C 0 km/h
2642 27-03-2010 00:33:03 7.9 C 6.49 g/m*3 7.9 C 0 km/h
2643 27-03-2010 00:45:03 8 C 6.45 g/m*3 8 C 0 km/h
2644 27-03-2010 00:57:03 8.2 C 6.45 g/m*3 8.2 C 0 km/h
2645 27-03-2010 01:09:03 8.4 C 6.45 g/m*3 8.4 C 0 km/h
2646 27-03-2010 01:21:03 8.4 C 6.36 g/m*3 8.4 C 0 km/h
2647 27-03-2010 01:33:03 8.5 C 6.4 g/m*3 8.5 C 0 km/h
2648 27-03-2010 01:45:03 8.5 C 6.23 g/m*3 8.5 C 0 km/h
2649 27-03-2010 01:57:03 8.5 C 6.23 g/m*3 8.5 C 0 km/h
2650 27-03-2010 02:09:03 8.5 C 6.06 g/m*3 8.5 C 0 km/h
Sensor: Nr:Datum:Temp:Abs-Feuchte:Windchill:Wind:
Aussen-T/F 2651 27-03-2010 02:21:04 8.2 C 6.11 g/m*3 8.2 C 0 km/h
2652 27-03-2010 02:33:04 8.1 C 5.99 g/m*3 8.1 C 0 km/h
2653 27-03-2010 02:45:04 8 C 6.04 g/m*3 8 C 0 km/h
2654 27-03-2010 02:57:04 8.3 C 6.15 g/m*3 8.3 C 0 km/h
2655 27-03-2010 03:09:04 8.4 C 6.19 g/m*3 8.4 C 0 km/h
2656 27-03-2010 03:21:04 8.1 C 6.07 g/m*3 8.1 C 0 km/h
2657 27-03-2010 03:33:04 7.9 C 6.16 g/m*3 7.9 C 0 km/h
2658 27-03-2010 03:45:04 8 C 6.2 g/m*3 8 C 0 km/h
2659 27-03-2010 03:57:04 8.1 C 6.07 g/m*3 8.1 C 0 km/h
2660 27-03-2010 04:09:04 8.1 C 6.07 g/m*3 8.1 C 0 km/h
2661 27-03-2010 04:21:04 8.2 C 6.03 g/m*3 8.2 C 0 km/h
2662 27-03-2010 04:33:04 8.2 C 6.03 g/m*3 8.2 C 0 km/h
2663 27-03-2010 04:45:04 8.2 C 5.95 g/m*3 8.2 C 0 km/h
2664 27-03-2010 04:57:04 8.2 C 5.95 g/m*3 8.2 C 0 km/h
2665 27-03-2010 05:09:05 8.1 C 5.91 g/m*3 8.1 C 0 km/h
2666 27-03-2010 05:21:05 8.1 C 5.99 g/m*3 8.1 C 0 km/h
2667 27-03-2010 05:33:05 8.1 C 5.99 g/m*3 8.1 C 0 km/h
2668 27-03-2010 05:45:05 8 C 5.95 g/m*3 8 C 0 km/h
2669 27-03-2010 05:57:05 8 C 5.87 g/m*3 8 C 0 km/h
2670 27-03-2010 06:09:05 8 C 5.79 g/m*3 8 C 0 km/h
2671 27-03-2010 06:21:05 8 C 5.7 g/m*3 8 C 0 km/h
2672 27-03-2010 06:33:02 8.1 C 5.74 g/m*3 8.1 C 0 km/h
2673 27-03-2010 06:45:02 8.1 C 5.74 g/m*3 8.1 C 0 km/h
2674 27-03-2010 06:57:02 8.2 C 5.69 g/m*3 8.2 C 0 km/h
2675 27-03-2010 07:09:01 8.3 C 5.65 g/m*3 8.3 C 0 km/h
Sensor: Nr:Datum:Temp:Abs-Feuchte:Windchill:Wind:
Aussen-T/F 2676 27-03-2010 07:21:02 8.4 C 5.68 g/m*3 8.4 C 0 km/h
2677 27-03-2010 07:33:02 8.5 C 5.72 g/m*3 8.5 C 0 km/h
2678 27-03-2010 07:45:02 8.5 C 5.64 g/m*3 8.5 C 0 km/h
2679 27-03-2010 07:57:02 8.5 C 5.72 g/m*3 8.5 C 0 km/h
2680 27-03-2010 08:09:02 8.5 C 5.72 g/m*3 8.5 C 0 km/h
2681 27-03-2010 08:21:02 8.7 C 5.79 g/m*3 8.7 C 0 km/h
2682 27-03-2010 08:33:02 8.9 C 5.69 g/m*3 8.9 C 0 km/h
2683 27-03-2010 08:45:01 9.3 C 5.75 g/m*3 9.3 C 0 km/h
2684 27-03-2010 08:57:01 9.6 C 5.68 g/m*3 9.6 C 0 km/h
2685 27-03-2010 09:09:02 10 C 5.54 g/m*3 10 C 0 km/h
2686 27-03-2010 09:21:01 9.8 C 5.57 g/m*3 9.8 C 0 km/h
2687 27-03-2010 09:33:02 9.5 C 5.55 g/m*3 9.5 C 0 km/h
2688 27-03-2010 09:45:02 9.7 C 5.62 g/m*3 9.7 C 0 km/h
2689 27-03-2010 09:57:02 9.7 C 5.72 g/m*3 9.7 C 0 km/h
2690 27-03-2010 10:09:02 9.7 C 5.62 g/m*3 9.7 C 0 km/h
2691 27-03-2010 10:21:02 9.8 C 5.66 g/m*3 9.8 C 0 km/h
2692 27-03-2010 10:33:02 10.1 C 5.2 g/m*3 10.1 C 0 km/h
2693 27-03-2010 10:45:01 10.6 C 5.17 g/m*3 10.6 C 0 km/h
2694 27-03-2010 10:57:01 11.1 C 5.14 g/m*3 11.1 C 0 km/h
2695 27-03-2010 11:09:02 11.5 C 4.96 g/m*3 11.5 C 0 km/h
2696 27-03-2010 11:21:01 11.3 C 4.79 g/m*3 11.3 C 0 km/h
2697 27-03-2010 11:33:02 11.3 C 5 g/m*3 11.3 C 0 km/h
2698 27-03-2010 11:45:02 11.7 C 4.92 g/m*3 11.7 C 0 km/h
2699 27-03-2010 11:57:02 11.8 C 4.95 g/m*3 11.8 C 0 km/h
2700 27-03-2010 12:09:02 11.9 C 4.87 g/m*3 11.9 C 0 km/h
Sensor: Nr:Datum:Temp:Abs-Feuchte:Windchill:Wind:
Aussen-T/F 2701 27-03-2010 12:21:01 11.8 C 4.74 g/m*3 11.8 C 0 km/h
2702 27-03-2010 12:33:02 11.9 C 4.98 g/m*3 11.9 C 0 km/h
2703 27-03-2010 12:45:03 11.6 C 5.3 g/m*3 11.6 C 0 km/h
2704 27-03-2010 12:57:03 10.8 C 5.73 g/m*3 10.8 C 0 km/h
2705 27-03-2010 13:09:02 10.7 C 5.89 g/m*3 10.7 C 0 km/h
2706 27-03-2010 13:21:02 11.4 C 5.85 g/m*3 11.4 C 0 km/h
2707 27-03-2010 13:33:02 11.3 C 5.61 g/m*3 11.3 C 0 km/h
2708 27-03-2010 13:45:02 11.4 C 5.34 g/m*3 11.4 C 0 km/h
2709 27-03-2010 13:57:02 12 C 5.12 g/m*3 12 C 0 km/h
2710 27-03-2010 14:09:02 11.8 C 5.16 g/m*3 11.8 C 0 km/h
2711 27-03-2010 14:21:02 11.2 C 4.97 g/m*3 11.2 C 0 km/h
2712 27-03-2010 14:33:01 11.1 C 5.04 g/m*3 11.1 C 0 km/h
2713 27-03-2010 14:45:02 10.9 C 5.07 g/m*3 10.9 C 0 km/h
2714 27-03-2010 14:57:03 11 C 5 g/m*3 11 C 0 km/h
2715 27-03-2010 15:09:01 11.2 C 4.97 g/m*3 11.2 C 0 km/h
2716 27-03-2010 15:21:01 11.2 C 4.87 g/m*3 11.2 C 0 km/h
2717 27-03-2010 15:33:02 11.8 C 4.95 g/m*3 11.8 C 0 km/h
2718 27-03-2010 15:45:02 12.5 C 4.84 g/m*3 12.5 C 0 km/h
2719 27-03-2010 15:57:02 12.1 C 4.72 g/m*3 12.1 C 0 km/h
2720 27-03-2010 16:09:02 11.2 C 4.87 g/m*3 11.2 C 0 km/h
2721 27-03-2010 16:21:02 10.8 C 5.04 g/m*3 10.8 C 0 km/h
2722 27-03-2010 16:33:02 10.8 C 5.04 g/m*3 10.8 C 0 km/h
2723 27-03-2010 16:45:02 10.7 C 5.11 g/m*3 10.7 C 0 km/h
2724 27-03-2010 16:57:02 10.7 C 5.11 g/m*3 10.7 C 0 km/h
2725 27-03-2010 17:09:03 11 C 5.1 g/m*3 11 C 0 km/h
Sensor: Nr:Datum:Temp:Abs-Feuchte:Windchill:Wind:
Aussen-T/F 2726 27-03-2010 17:21:02 11.6 C 5.09 g/m*3 11.6 C 0 km/h
2727 27-03-2010 17:33:02 11.2 C 5.17 g/m*3 11.2 C 0 km/h
2728 27-03-2010 17:45:01 11.3 C 5.2 g/m*3 11.3 C 0 km/h
2729 27-03-2010 17:57:01 11.8 C 5.05 g/m*3 11.8 C 0 km/h
2730 27-03-2010 18:09:02 11.4 C 5.13 g/m*3 11.4 C 0 km/h
2731 27-03-2010 18:21:01 11.4 C 5.13 g/m*3 11.4 C 0 km/h
2732 27-03-2010 18:33:01 11.3 C 5 g/m*3 11.3 C 0 km/h
2733 27-03-2010 18:45:01 10.5 C 5.14 g/m*3 10.5 C 0 km/h
2734 27-03-2010 18:57:01 10 C 5.17 g/m*3 10 C 0 km/h
2735 27-03-2010 19:09:01 9.5 C 5.19 g/m*3 9.5 C 0 km/h
2736 27-03-2010 19:21:02 9.2 C 5.27 g/m*3 9.2 C 0 km/h
2737 27-03-2010 19:33:01 8.9 C 5.34 g/m*3 8.9 C 0 km/h
2738 27-03-2010 19:45:02 8.7 C 5.45 g/m*3 8.7 C 0 km/h
2739 27-03-2010 19:57:02 8.5 C 5.55 g/m*3 8.5 C 0 km/h
2740 27-03-2010 20:09:02 8.3 C 5.56 g/m*3 8.3 C 0 km/h
2741 27-03-2010 20:21:02 8.2 C 5.61 g/m*3 8.2 C 0 km/h
2742 27-03-2010 20:33:01 7.9 C 5.67 g/m*3 7.9 C 0 km/h
2743 27-03-2010 20:45:02 7.7 C 5.76 g/m*3 7.7 C 0 km/h
2744 27-03-2010 20:57:02 7.5 C 5.76 g/m*3 7.5 C 0 km/h
2745 27-03-2010 21:09:01 7.4 C 5.81 g/m*3 7.4 C 0 km/h
2746 27-03-2010 21:21:01 7.4 C 5.96 g/m*3 7.4 C 0 km/h
2747 27-03-2010 21:33:02 7.2 C 5.97 g/m*3 7.2 C 0 km/h
2748 27-03-2010 21:45:02 7.2 C 6.04 g/m*3 7.2 C 0 km/h
2749 27-03-2010 21:57:02 7.1 C 6.08 g/m*3 7.1 C 0 km/h
2750 27-03-2010 22:09:02 7.2 C 6.12 g/m*3 7.2 C 0 km/h
Sensor: Nr:Datum:Temp:Abs-Feuchte:Windchill:Wind:
Aussen-T/F 2751 27-03-2010 22:21:02 7.1 C 6.16 g/m*3 7.1 C 0 km/h
2752 27-03-2010 22:33:02 7.2 C 6.2 g/m*3 7.2 C 0 km/h
2753 27-03-2010 22:45:02 7.4 C 6.28 g/m*3 7.4 C 0 km/h
2754 27-03-2010 22:57:02 7.4 C 6.2 g/m*3 7.4 C 0 km/h
2755 27-03-2010 23:09:03 7.7 C 6.16 g/m*3 7.7 C 0 km/h
2756 27-03-2010 23:21:02 7.8 C 6.04 g/m*3 7.8 C 0 km/h
2757 27-03-2010 23:33:03 8 C 5.87 g/m*3 8 C 0 km/h
2758 27-03-2010 23:45:02 7.7 C 6 g/m*3 7.7 C 0 km/h
2759 27-03-2010 23:57:02 7.7 C 6 g/m*3 7.7 C 0 km/h
2760 28-03-2010 00:09:02 7.7 C 6 g/m*3 7.7 C 0 km/h
2761 28-03-2010 00:21:02 7.4 C 5.96 g/m*3 7.4 C 0 km/h
2762 28-03-2010 00:33:02 7.5 C 6.08 g/m*3 7.5 C 0 km/h
2763 28-03-2010 00:45:02 7.7 C 6.08 g/m*3 7.7 C 0 km/h
2764 28-03-2010 00:57:02 7.7 C 6.08 g/m*3 7.7 C 0 km/h
2765 28-03-2010 01:09:02 7.9 C 6.08 g/m*3 7.9 C 0 km/h
2766 28-03-2010 01:21:02 8.2 C 5.95 g/m*3 8.2 C 0 km/h
2767 28-03-2010 01:33:01 8.4 C 5.85 g/m*3 8.4 C 0 km/h
2768 28-03-2010 01:45:02 8.4 C 5.85 g/m*3 8.4 C 0 km/h
2769 28-03-2010 01:57:02 8.1 C 5.82 g/m*3 8.1 C 0 km/h
2770 28-03-2010 02:09:01 7.9 C 5.91 g/m*3 7.9 C 0 km/h
2771 28-03-2010 02:21:02 8.1 C 5.99 g/m*3 8.1 C 0 km/h
2772 28-03-2010 02:33:01 8.4 C 6.02 g/m*3 8.4 C 0 km/h
2773 28-03-2010 02:45:01 8.3 C 5.9 g/m*3 8.3 C 0 km/h
2774 28-03-2010 02:57:01 8.2 C 5.95 g/m*3 8.2 C 0 km/h
2775 28-03-2010 04:09:02 8.2 C 6.03 g/m*3 8.2 C 0 km/h
Sensor: Nr:Datum:Temp:Abs-Feuchte:Windchill:Wind:
Aussen-T/F 2776 28-03-2010 04:21:01 8.1 C 5.99 g/m*3 8.1 C 0 km/h
2777 28-03-2010 04:33:01 8.2 C 6.11 g/m*3 8.2 C 0 km/h
2778 28-03-2010 04:45:01 8.2 C 6.11 g/m*3 8.2 C 0 km/h
2779 28-03-2010 04:57:01 8.2 C 6.11 g/m*3 8.2 C 0 km/h
2780 28-03-2010 05:09:01 8.2 C 6.03 g/m*3 8.2 C 0 km/h
2781 28-03-2010 05:21:02 8.2 C 6.11 g/m*3 8.2 C 0 km/h
2782 28-03-2010 05:33:01 8.1 C 6.24 g/m*3 8.1 C 0 km/h
2783 28-03-2010 05:45:01 8.1 C 6.32 g/m*3 8.1 C 0 km/h
2784 28-03-2010 05:57:01 8.1 C 6.32 g/m*3 8.1 C 0 km/h
2785 28-03-2010 06:09:01 8.2 C 6.28 g/m*3 8.2 C 0 km/h
2786 28-03-2010 06:21:02 8.4 C 6.36 g/m*3 8.4 C 0 km/h
2787 28-03-2010 06:33:01 8.4 C 6.28 g/m*3 8.4 C 0 km/h
2788 28-03-2010 06:45:02 8.4 C 6.36 g/m*3 8.4 C 0 km/h
2789 28-03-2010 06:57:02 8.3 C 6.32 g/m*3 8.3 C 0 km/h
2790 28-03-2010 07:09:01 8.2 C 6.28 g/m*3 8.2 C 0 km/h
2791 28-03-2010 07:21:01 8.2 C 6.28 g/m*3 8.2 C 0 km/h
2792 28-03-2010 07:33:01 8.2 C 6.11 g/m*3 8.2 C 0 km/h
2793 28-03-2010 07:45:01 8.2 C 6.11 g/m*3 8.2 C 0 km/h
2794 28-03-2010 07:57:02 8.3 C 6.15 g/m*3 8.3 C 0 km/h
2795 28-03-2010 08:09:01 8.6 C 6.27 g/m*3 8.6 C 0 km/h
2796 28-03-2010 08:21:01 8.7 C 6.23 g/m*3 8.7 C 0 km/h
2797 28-03-2010 08:33:02 8.9 C 6.22 g/m*3 8.9 C 0 km/h
2798 28-03-2010 08:45:01 9 C 6.08 g/m*3 9 C 0 km/h
2799 28-03-2010 08:57:01 9.1 C 6.03 g/m*3 9.1 C 0 km/h
2800 28-03-2010 09:09:02 9.1 C 5.94 g/m*3 9.1 C 0 km/h
Sensor: Nr:Datum:Temp:Abs-Feuchte:Windchill:Wind:
Aussen-T/F 2801 28-03-2010 09:21:01 9.2 C 5.98 g/m*3 9.2 C 0 km/h
2802 28-03-2010 09:33:02 9.8 C 5.94 g/m*3 9.8 C 0 km/h
2803 28-03-2010 09:45:01 10.2 C 5.9 g/m*3 10.2 C 0 km/h
2804 28-03-2010 09:57:01 10.4 C 5.88 g/m*3 10.4 C 0 km/h
2805 28-03-2010 10:09:02 10.2 C 5.71 g/m*3 10.2 C 0 km/h
2806 28-03-2010 10:21:01 10.1 C 5.77 g/m*3 10.1 C 0 km/h
2807 28-03-2010 10:33:01 10.5 C 5.82 g/m*3 10.5 C 0 km/h
2808 28-03-2010 10:45:01 10.7 C 5.8 g/m*3 10.7 C 0 km/h
2809 28-03-2010 10:57:01 10.7 C 5.8 g/m*3 10.7 C 0 km/h
2810 28-03-2010 11:09:01 11.2 C 5.47 g/m*3 11.2 C 0 km/h
2811 28-03-2010 11:21:01 10.9 C 5.37 g/m*3 10.9 C 0 km/h
2812 28-03-2010 11:33:01 10.9 C 5.57 g/m*3 10.9 C 0 km/h
2813 28-03-2010 11:45:01 11.7 C 5.54 g/m*3 11.7 C 0 km/h
2814 28-03-2010 11:57:01 11.3 C 5.41 g/m*3 11.3 C 0 km/h
2815 28-03-2010 12:09:01 11 C 5.31 g/m*3 11 C 0 km/h
2816 28-03-2010 12:21:02 10.8 C 5.63 g/m*3 10.8 C 0 km/h
2817 28-03-2010 12:33:01 11.8 C 5.79 g/m*3 11.8 C 0 km/h
2818 28-03-2010 12:45:02 12 C 5.44 g/m*3 12 C 0 km/h
2819 28-03-2010 12:57:02 11.6 C 5.4 g/m*3 11.6 C 0 km/h
2820 28-03-2010 13:09:01 11.6 C 5.51 g/m*3 11.6 C 0 km/h
2821 28-03-2010 13:21:02 12.3 C 5.21 g/m*3 12.3 C 0 km/h
2822 28-03-2010 13:33:01 11.9 C 5.3 g/m*3 11.9 C 0 km/h
2823 28-03-2010 13:45:02 11.7 C 5.23 g/m*3 11.7 C 0 km/h
2824 28-03-2010 13:57:02 11.5 C 5.37 g/m*3 11.5 C 0 km/h
2825 28-03-2010 14:09:01 11.7 C 5.44 g/m*3 11.7 C 0 km/h
Sensor: Nr:Datum:Temp:Abs-Feuchte:Windchill:Wind:
Aussen-T/F 2826 28-03-2010 14:21:01 12 C 5.22 g/m*3 12 C 0 km/h
2827 28-03-2010 14:33:02 11.9 C 5.3 g/m*3 11.9 C 0 km/h
2828 28-03-2010 14:45:01 10.2 C 6.19 g/m*3 10.2 C 0 km/h
2829 28-03-2010 14:57:01 9.3 C 6.47 g/m*3 9.3 C 0 km/h
2830 28-03-2010 15:09:01 10.1 C 6.81 g/m*3 10.1 C 0 km/h
2831 28-03-2010 15:21:01 11.3 C 6.43 g/m*3 11.3 C 0 km/h
2832 28-03-2010 15:33:02 11.7 C 6.48 g/m*3 11.7 C 0 km/h
2833 28-03-2010 15:45:01 13.1 C 6.5 g/m*3 13.1 C 0 km/h
2834 28-03-2010 15:57:01 13.7 C 6.16 g/m*3 13.7 C 0 km/h
2835 28-03-2010 16:09:02 13.7 C 5.68 g/m*3 13.7 C 0 km/h
2836 28-03-2010 16:21:01 13.4 C 4.88 g/m*3 13.4 C 0 km/h
2837 28-03-2010 16:33:01 13.1 C 4.91 g/m*3 13.1 C 0 km/h
2838 28-03-2010 16:45:01 12.6 C 5.09 g/m*3 12.6 C 0 km/h
2839 28-03-2010 16:57:01 11 C 6.51 g/m*3 11 C 0 km/h
2840 28-03-2010 17:09:02 11.1 C 7.15 g/m*3 11.1 C 0 km/h
2841 28-03-2010 17:21:01 11.4 C 6.88 g/m*3 11.4 C 0 km/h
2842 28-03-2010 17:33:01 11.6 C 6.86 g/m*3 11.6 C 0 km/h
2843 28-03-2010 17:45:01 11.7 C 7.01 g/m*3 11.7 C 0 km/h
2844 28-03-2010 17:57:01 11.7 C 6.07 g/m*3 11.7 C 0 km/h
2845 28-03-2010 18:09:01 11.6 C 6.03 g/m*3 11.6 C 0 km/h
2846 28-03-2010 18:21:02 11.5 C 5.78 g/m*3 11.5 C 0 km/h
2847 28-03-2010 18:33:01 11.4 C 5.85 g/m*3 11.4 C 0 km/h
2848 28-03-2010 18:45:01 11.3 C 5.92 g/m*3 11.3 C 0 km/h
2849 28-03-2010 18:57:01 11.3 C 6.12 g/m*3 11.3 C 0 km/h
2850 28-03-2010 19:09:01 11.2 C 6.08 g/m*3 11.2 C 0 km/h
Sensor: Nr:Datum:Temp:Abs-Feuchte:Windchill:Wind:
Aussen-T/F 2851 28-03-2010 19:21:02 11.1 C 6.25 g/m*3 11.1 C 0 km/h
2852 28-03-2010 19:33:01 10.9 C 6.37 g/m*3 10.9 C 0 km/h
2853 28-03-2010 19:45:02 10.3 C 6.61 g/m*3 10.3 C 0 km/h
2854 28-03-2010 19:57:02 10 C 6.77 g/m*3 10 C 0 km/h
2855 28-03-2010 20:09:01 9.9 C 6.91 g/m*3 9.9 C 0 km/h
2856 28-03-2010 20:21:01 9.8 C 6.96 g/m*3 9.8 C 0 km/h
2857 28-03-2010 20:33:01 9.8 C 6.96 g/m*3 9.8 C 0 km/h
2858 28-03-2010 20:45:01 9.9 C 6.91 g/m*3 9.9 C 0 km/h
2859 28-03-2010 20:57:02 9.9 C 6.91 g/m*3 9.9 C 0 km/h
2860 28-03-2010 21:09:01 9.9 C 6.91 g/m*3 9.9 C 0 km/h
2861 28-03-2010 21:21:01 9.9 C 6.82 g/m*3 9.9 C 0 km/h
2862 28-03-2010 21:33:02 9.9 C 6.82 g/m*3 9.9 C 0 km/h
2863 28-03-2010 21:45:01 9.8 C 6.87 g/m*3 9.8 C 0 km/h
2864 28-03-2010 21:57:01 9.8 C 6.87 g/m*3 9.8 C 0 km/h
2865 28-03-2010 22:10:04 9.7 C 6.91 g/m*3 9.7 C 0 km/h
2866 28-03-2010 22:22:04 9.6 C 6.78 g/m*3 9.6 C 0 km/h
2867 28-03-2010 22:34:04 9.5 C 6.74 g/m*3 9.5 C 0 km/h
2868 28-03-2010 22:46:04 9.4 C 6.87 g/m*3 9.4 C 0 km/h
2869 28-03-2010 22:58:04 9.4 C 6.87 g/m*3 9.4 C 0 km/h
2870 28-03-2010 23:10:04 9.5 C 6.92 g/m*3 9.5 C 0 km/h
2871 28-03-2010 23:22:04 9.3 C 6.83 g/m*3 9.3 C 0 km/h
2872 28-03-2010 23:34:04 9.4 C 6.96 g/m*3 9.4 C 0 km/h
2873 28-03-2010 23:46:04 9.7 C 6.91 g/m*3 9.7 C 0 km/h
2874 28-03-2010 23:58:04 9.8 C 6.87 g/m*3 9.8 C 0 km/h
2875 29-03-2010 00:10:04 10 C 6.86 g/m*3 10 C 0 km/h
Sensor: Nr:Datum:Temp:Abs-Feuchte:Windchill:Wind:
Aussen-T/F 2876 29-03-2010 00:22:04 10 C 6.77 g/m*3 10 C 0 km/h
2877 29-03-2010 00:34:04 9.8 C 6.87 g/m*3 9.8 C 0 km/h
2878 29-03-2010 00:46:04 9.8 C 6.87 g/m*3 9.8 C 0 km/h
2879 29-03-2010 00:58:04 9.8 C 6.87 g/m*3 9.8 C 0 km/h
2880 29-03-2010 01:10:04 9.8 C 7.05 g/m*3 9.8 C 0 km/h
2881 29-03-2010 01:22:04 9.7 C 7.1 g/m*3 9.7 C 0 km/h
2882 29-03-2010 01:34:04 9.6 C 7.15 g/m*3 9.6 C 0 km/h
2883 29-03-2010 01:46:05 9.6 C 7.15 g/m*3 9.6 C 0 km/h
2884 29-03-2010 01:58:05 9.6 C 7.24 g/m*3 9.6 C 0 km/h
2885 29-03-2010 02:10:05 9.5 C 7.28 g/m*3 9.5 C 0 km/h
2886 29-03-2010 02:22:05 9.3 C 7.28 g/m*3 9.3 C 0 km/h
2887 29-03-2010 02:34:05 9.3 C 7.46 g/m*3 9.3 C 0 km/h
2888 29-03-2010 02:46:05 9.3 C 7.55 g/m*3 9.3 C 0 km/h
2889 29-03-2010 02:58:05 9.3 C 7.64 g/m*3 9.3 C 0 km/h
2890 29-03-2010 03:10:05 9.3 C 7.73 g/m*3 9.3 C 0 km/h
2891 29-03-2010 03:22:05 9.4 C 7.87 g/m*3 9.4 C 0 km/h
2892 29-03-2010 03:34:05 10 C 7.99 g/m*3 10 C 0 km/h
2893 29-03-2010 03:46:05 10.4 C 8.1 g/m*3 10.4 C 0 km/h
2894 29-03-2010 03:58:05 10.6 C 8 g/m*3 10.6 C 0 km/h
2895 29-03-2010 04:10:05 11 C 8.01 g/m*3 11 C 0 km/h
2896 29-03-2010 04:22:05 11.1 C 7.96 g/m*3 11.1 C 0 km/h
2897 29-03-2010 04:34:05 11.3 C 7.96 g/m*3 11.3 C 0 km/h
2898 29-03-2010 04:46:05 11.5 C 7.95 g/m*3 11.5 C 0 km/h
2899 29-03-2010 04:58:05 11.5 C 7.95 g/m*3 11.5 C 0 km/h
2900 29-03-2010 05:10:05 11.5 C 7.95 g/m*3 11.5 C 0 km/h
Sensor: Nr:Datum:Temp:Abs-Feuchte:Windchill:Wind:
Aussen-T/F 2901 29-03-2010 05:22:05 11.5 C 7.95 g/m*3 11.5 C 0 km/h
2902 29-03-2010 05:34:05 11.5 C 8.06 g/m*3 11.5 C 0 km/h
2903 29-03-2010 05:46:05 11.4 C 8.01 g/m*3 11.4 C 0 km/h
2904 29-03-2010 05:58:05 11.5 C 8.06 g/m*3 11.5 C 0 km/h
2905 29-03-2010 06:10:05 11.5 C 8.06 g/m*3 11.5 C 0 km/h
2906 29-03-2010 06:22:06 11.5 C 8.06 g/m*3 11.5 C 0 km/h
2907 29-03-2010 06:34:06 11.5 C 7.95 g/m*3 11.5 C 0 km/h
2908 29-03-2010 06:46:01 11.4 C 7.9 g/m*3 11.4 C 0 km/h
2909 29-03-2010 06:58:01 11.4 C 8.11 g/m*3 11.4 C 0 km/h
2910 29-03-2010 07:10:02 11.2 C 8.11 g/m*3 11.2 C 0 km/h
2911 29-03-2010 07:22:02 10.9 C 8.26 g/m*3 10.9 C 0 km/h
2912 29-03-2010 07:34:02 10.7 C 8.35 g/m*3 10.7 C 0 km/h
2913 29-03-2010 07:46:02 10.6 C 8.49 g/m*3 10.6 C 0 km/h
2914 29-03-2010 07:58:02 10.6 C 8.59 g/m*3 10.6 C 0 km/h
2915 29-03-2010 08:10:02 10.7 C 8.55 g/m*3 10.7 C 0 km/h
2916 29-03-2010 08:22:01 10.8 C 8.5 g/m*3 10.8 C 0 km/h
2917 29-03-2010 08:34:02 11.2 C 8.41 g/m*3 11.2 C 0 km/h
2918 29-03-2010 08:46:02 11.4 C 8.11 g/m*3 11.4 C 0 km/h
2919 29-03-2010 08:58:02 11.6 C 8 g/m*3 11.6 C 0 km/h
2920 29-03-2010 09:10:02 11.8 C 7.89 g/m*3 11.8 C 0 km/h
2921 29-03-2010 09:22:01 11.9 C 7.84 g/m*3 11.9 C 0 km/h
2922 29-03-2010 09:34:02 12 C 7.78 g/m*3 12 C 0 km/h
2923 29-03-2010 09:46:01 12.1 C 7.72 g/m*3 12.1 C 0 km/h
2924 29-03-2010 09:58:01 12.2 C 7.77 g/m*3 12.2 C 0 km/h
2925 29-03-2010 10:10:02 12.4 C 7.87 g/m*3 12.4 C 0 km/h
Sensor: Nr:Datum:Temp:Abs-Feuchte:Windchill:Wind:
Aussen-T/F 2926 29-03-2010 10:22:02 12.6 C 7.85 g/m*3 12.6 C 0 km/h
2927 29-03-2010 10:34:02 12.7 C 7.9 g/m*3 12.7 C 0 km/h
2928 29-03-2010 10:46:02 12.5 C 7.7 g/m*3 12.5 C 0 km/h
2929 29-03-2010 10:58:02 13 C 7.83 g/m*3 13 C 0 km/h
2930 29-03-2010 11:10:02 13.1 C 7.87 g/m*3 13.1 C 0 km/h
2931 29-03-2010 11:22:02 13.3 C 7.86 g/m*3 13.3 C 0 km/h
2932 29-03-2010 11:34:01 13.5 C 7.84 g/m*3 13.5 C 0 km/h
2933 29-03-2010 11:46:02 13.9 C 7.91 g/m*3 13.9 C 0 km/h
2934 29-03-2010 11:58:02 14 C 7.72 g/m*3 14 C 0 km/h
2935 29-03-2010 12:10:01 14.4 C 7.66 g/m*3 14.4 C 0 km/h
2936 29-03-2010 12:22:02 15 C 7.57 g/m*3 15 C 0 km/h
2937 29-03-2010 12:34:01 15.3 C 7.44 g/m*3 15.3 C 0 km/h
2938 29-03-2010 12:46:02 14.9 C 7.52 g/m*3 14.9 C 0 km/h
2939 29-03-2010 12:58:02 14.9 C 7.39 g/m*3 14.9 C 0 km/h
2940 29-03-2010 13:10:02 15.3 C 7.18 g/m*3 15.3 C 0 km/h
2941 29-03-2010 13:22:02 14.8 C 7.09 g/m*3 14.8 C 0 km/h
2942 29-03-2010 13:34:03 14.6 C 7.38 g/m*3 14.6 C 0 km/h
2943 29-03-2010 13:46:02 14.4 C 7.54 g/m*3 14.4 C 0 km/h
2944 29-03-2010 13:58:02 13.8 C 8.1 g/m*3 13.8 C 0 km/h
2945 29-03-2010 14:10:01 14.2 C 8.91 g/m*3 14.2 C 0 km/h
2946 29-03-2010 14:22:02 14.7 C 8.69 g/m*3 14.7 C 0 km/h
2947 29-03-2010 14:34:02 14.2 C 7.82 g/m*3 14.2 C 0 km/h
2948 29-03-2010 14:46:02 13.1 C 8.33 g/m*3 13.1 C 0 km/h
2949 29-03-2010 14:58:02 12.7 C 8.13 g/m*3 12.7 C 0 km/h
2950 29-03-2010 15:10:02 13.2 C 8.38 g/m*3 13.2 C 0 km/h
Sensor: Nr:Datum:Temp:Abs-Feuchte:Windchill:Wind:
Aussen-T/F 2951 29-03-2010 15:22:02 12.8 C 8.4 g/m*3 12.8 C 0 km/h
2952 29-03-2010 15:34:02 12.8 C 8.62 g/m*3 12.8 C 0 km/h
2953 29-03-2010 15:46:02 12.7 C 8.68 g/m*3 12.7 C 0 km/h
2954 29-03-2010 15:58:02 13.4 C 8.6 g/m*3 13.4 C 0 km/h
2955 29-03-2010 16:10:02 14 C 8.2 g/m*3 14 C 0 km/h
2956 29-03-2010 16:22:02 14.2 C 7.69 g/m*3 14.2 C 0 km/h
2957 29-03-2010 16:34:02 14.3 C 7.62 g/m*3 14.3 C 0 km/h
2958 29-03-2010 16:46:02 14 C 7.96 g/m*3 14 C 0 km/h
2959 29-03-2010 16:58:02 13.8 C 8.22 g/m*3 13.8 C 0 km/h
2960 29-03-2010 17:10:02 12.2 C 8.31 g/m*3 12.2 C 0 km/h
2961 29-03-2010 17:22:03 12.2 C 8.96 g/m*3 12.2 C 0 km/h
2962 29-03-2010 17:34:02 12.6 C 9.4 g/m*3 12.6 C 0 km/h
2963 29-03-2010 17:46:02 14.2 C 10.14 g/m*3 14.2 C 0 km/h
2964 29-03-2010 17:58:02 14.5 C 9.45 g/m*3 14.5 C 0 km/h
2965 29-03-2010 18:10:02 14.7 C 9.44 g/m*3 14.7 C 0 km/h
2966 29-03-2010 18:22:02 14.9 C 8.92 g/m*3 14.9 C 0 km/h
2967 29-03-2010 18:34:02 14.8 C 8.87 g/m*3 14.8 C 0 km/h
2968 29-03-2010 18:46:02 14.5 C 8.83 g/m*3 14.5 C 0 km/h
2969 29-03-2010 18:58:02 14.4 C 9.02 g/m*3 14.4 C 0 km/h
2970 29-03-2010 19:10:01 14.2 C 8.91 g/m*3 14.2 C 0 km/h
2971 29-03-2010 19:22:02 13.7 C 8.76 g/m*3 13.7 C 0 km/h
2972 29-03-2010 19:34:01 13 C 8.73 g/m*3 13 C 0 km/h
2973 29-03-2010 19:46:02 12.2 C 8.52 g/m*3 12.2 C 0 km/h
2974 29-03-2010 19:58:02 11.7 C 8.37 g/m*3 11.7 C 0 km/h
2975 29-03-2010 20:10:01 11.2 C 8.21 g/m*3 11.2 C 0 km/h
Sensor: Nr:Datum:Temp:Abs-Feuchte:Windchill:Wind:
Aussen-T/F 2976 29-03-2010 20:22:01 10.8 C 8.2 g/m*3 10.8 C 0 km/h
2977 29-03-2010 20:34:02 10.6 C 8.2 g/m*3 10.6 C 0 km/h
2978 29-03-2010 20:46:02 10.5 C 8.15 g/m*3 10.5 C 0 km/h
2979 29-03-2010 20:58:02 10.4 C 8.1 g/m*3 10.4 C 0 km/h
2980 29-03-2010 21:10:01 10.3 C 8.04 g/m*3 10.3 C 0 km/h
2981 29-03-2010 21:22:02 10.2 C 7.99 g/m*3 10.2 C 0 km/h
2982 29-03-2010 21:34:02 10.3 C 8.04 g/m*3 10.3 C 0 km/h
2983 29-03-2010 21:47:02 10.3 C 8.04 g/m*3 10.3 C 0 km/h
2984 29-03-2010 21:59:02 10.2 C 7.99 g/m*3 10.2 C 0 km/h
2985 29-03-2010 22:11:02 10 C 7.89 g/m*3 10 C 0 km/h
2986 29-03-2010 22:23:03 10 C 7.89 g/m*3 10 C 0 km/h
2987 29-03-2010 22:35:03 9.9 C 7.94 g/m*3 9.9 C 0 km/h
2988 29-03-2010 22:47:03 9.8 C 7.89 g/m*3 9.8 C 0 km/h
2989 29-03-2010 22:59:03 9.9 C 8.03 g/m*3 9.9 C 0 km/h
2990 29-03-2010 23:11:03 9.9 C 7.94 g/m*3 9.9 C 0 km/h
2991 29-03-2010 23:23:03 9.9 C 7.94 g/m*3 9.9 C 0 km/h
2992 29-03-2010 23:35:03 10.1 C 7.85 g/m*3 10.1 C 0 km/h
2993 29-03-2010 23:47:03 10.1 C 7.66 g/m*3 10.1 C 0 km/h
2994 29-03-2010 23:59:03 10.2 C 7.71 g/m*3 10.2 C 0 km/h
2995 30-03-2010 00:11:03 10.2 C 7.61 g/m*3 10.2 C 0 km/h
2996 30-03-2010 00:23:03 10.3 C 7.66 g/m*3 10.3 C 0 km/h
2997 30-03-2010 00:35:03 10.6 C 7.71 g/m*3 10.6 C 0 km/h
2998 30-03-2010 00:47:03 10.7 C 7.66 g/m*3 10.7 C 0 km/h
2999 30-03-2010 00:59:03 11.1 C 7.66 g/m*3 11.1 C 0 km/h
3000 30-03-2010 01:11:03 11.3 C 7.65 g/m*3 11.3 C 0 km/h
Sensor: Nr:Datum:Temp:Abs-Feuchte:Windchill:Wind:
Aussen-T/F 3001 30-03-2010 01:23:03 11.3 C 7.65 g/m*3 11.3 C 0 km/h
3002 30-03-2010 01:35:03 11.3 C 7.55 g/m*3 11.3 C 0 km/h
3003 30-03-2010 01:47:03 11 C 7.41 g/m*3 11 C 0 km/h
3004 30-03-2010 01:59:03 11.1 C 7.35 g/m*3 11.1 C 0 km/h
3005 30-03-2010 02:11:03 11.3 C 7.24 g/m*3 11.3 C 0 km/h
3006 30-03-2010 02:23:03 11.3 C 7.24 g/m*3 11.3 C 0 km/h
3007 30-03-2010 02:35:03 11.1 C 7.25 g/m*3 11.1 C 0 km/h
3008 30-03-2010 02:47:04 11.7 C 7.22 g/m*3 11.7 C 0 km/h
3009 30-03-2010 02:59:04 11.6 C 7.17 g/m*3 11.6 C 0 km/h
3010 30-03-2010 03:11:04 11.3 C 7.14 g/m*3 11.3 C 0 km/h
3011 30-03-2010 03:23:04 11.3 C 7.24 g/m*3 11.3 C 0 km/h
3012 30-03-2010 03:35:04 10.9 C 7.16 g/m*3 10.9 C 0 km/h
3013 30-03-2010 03:47:04 10.8 C 7.22 g/m*3 10.8 C 0 km/h
3014 30-03-2010 03:59:04 11 C 7.21 g/m*3 11 C 0 km/h
3015 30-03-2010 04:11:04 11.4 C 7.29 g/m*3 11.4 C 0 km/h
3016 30-03-2010 04:23:04 11.4 C 7.19 g/m*3 11.4 C 0 km/h
3017 30-03-2010 04:35:04 11.5 C 7.13 g/m*3 11.5 C 0 km/h
3018 30-03-2010 04:47:04 11.4 C 7.08 g/m*3 11.4 C 0 km/h
3019 30-03-2010 04:59:04 11.3 C 7.14 g/m*3 11.3 C 0 km/h
3020 30-03-2010 05:11:04 11.4 C 7.29 g/m*3 11.4 C 0 km/h
3021 30-03-2010 05:23:04 11.1 C 7.05 g/m*3 11.1 C 0 km/h
3022 30-03-2010 05:35:04 11 C 7.01 g/m*3 11 C 0 km/h
3023 30-03-2010 05:47:04 10.7 C 7.07 g/m*3 10.7 C 0 km/h
3024 30-03-2010 05:59:04 10.5 C 6.98 g/m*3 10.5 C 0 km/h
3025 30-03-2010 06:11:04 10.5 C 7.08 g/m*3 10.5 C 0 km/h
Sensor: Nr:Datum:Temp:Abs-Feuchte:Windchill:Wind:
Aussen-T/F 3026 30-03-2010 06:23:04 10.3 C 7.09 g/m*3 10.3 C 0 km/h
3027 30-03-2010 06:35:04 10 C 6.95 g/m*3 10 C 0 km/h
3028 30-03-2010 06:47:04 9.8 C 7.14 g/m*3 9.8 C 0 km/h
3029 30-03-2010 06:59:04 9.8 C 7.24 g/m*3 9.8 C 0 km/h
3030 30-03-2010 07:11:01 10 C 7.14 g/m*3 10 C 0 km/h
3031 30-03-2010 07:23:02 10.2 C 7.04 g/m*3 10.2 C 0 km/h
3032 30-03-2010 07:35:02 10.5 C 6.89 g/m*3 10.5 C 0 km/h
3033 30-03-2010 07:47:02 10.6 C 6.83 g/m*3 10.6 C 0 km/h
3034 30-03-2010 07:59:02 10.7 C 6.88 g/m*3 10.7 C 0 km/h
3035 30-03-2010 08:11:02 10.7 C 6.88 g/m*3 10.7 C 0 km/h
3036 30-03-2010 08:23:02 11 C 6.91 g/m*3 11 C 0 km/h
3037 30-03-2010 08:35:02 11.1 C 6.85 g/m*3 11.1 C 0 km/h
3038 30-03-2010 08:47:01 11.4 C 6.67 g/m*3 11.4 C 0 km/h
3039 30-03-2010 08:59:01 11.4 C 6.77 g/m*3 11.4 C 0 km/h
3040 30-03-2010 09:11:02 11.8 C 6.95 g/m*3 11.8 C 0 km/h
3041 30-03-2010 09:23:01 12.2 C 6.69 g/m*3 12.2 C 0 km/h
3042 30-03-2010 09:35:02 12.6 C 6.75 g/m*3 12.6 C 0 km/h
3043 30-03-2010 09:47:02 12.9 C 6.54 g/m*3 12.9 C 0 km/h
3044 30-03-2010 09:59:02 13.1 C 6.39 g/m*3 13.1 C 0 km/h
3045 30-03-2010 10:11:02 13.2 C 6.43 g/m*3 13.2 C 0 km/h
3046 30-03-2010 10:23:01 13.1 C 5.93 g/m*3 13.1 C 0 km/h
3047 30-03-2010 10:35:02 14.2 C 6.11 g/m*3 14.2 C 0 km/h
3048 30-03-2010 10:47:02 14.4 C 5.07 g/m*3 14.4 C 0 km/h
3049 30-03-2010 10:59:02 14.1 C 4.85 g/m*3 14.1 C 0 km/h
3050 30-03-2010 11:11:02 14.1 C 4.98 g/m*3 14.1 C 0 km/h
Sensor: Nr:Datum:Temp:Abs-Feuchte:Windchill:Wind:
Aussen-T/F 3051 30-03-2010 11:23:01 15 C 4.74 g/m*3 15 C 0 km/h
3052 30-03-2010 11:35:02 15.2 C 4.67 g/m*3 15.2 C 0 km/h
3053 30-03-2010 11:47:02 15.3 C 4.57 g/m*3 15.3 C 0 km/h
3054 30-03-2010 11:59:02 15.8 C 4.71 g/m*3 15.8 C 0 km/h
3055 30-03-2010 12:11:02 16 C 4.63 g/m*3 16 C 0 km/h
3056 30-03-2010 12:23:02 16.2 C 4.55 g/m*3 16.2 C 0 km/h
3057 30-03-2010 12:35:02 16.6 C 4.66 g/m*3 16.6 C 0 km/h
3058 30-03-2010 12:47:02 16.7 C 4.55 g/m*3 16.7 C 0 km/h
3059 30-03-2010 12:59:02 17.2 C 4.69 g/m*3 17.2 C 0 km/h
3060 30-03-2010 13:11:02 17.4 C 4.59 g/m*3 17.4 C 0 km/h
3061 30-03-2010 13:23:02 17.3 C 4.71 g/m*3 17.3 C 0 km/h
3062 30-03-2010 13:35:02 17.7 C 4.83 g/m*3 17.7 C 0 km/h
3063 30-03-2010 13:47:02 18.1 C 4.79 g/m*3 18.1 C 0 km/h
3064 30-03-2010 13:59:02 18.2 C 4.66 g/m*3 18.2 C 0 km/h
3065 30-03-2010 14:11:02 18.5 C 4.9 g/m*3 18.5 C 0 km/h
3066 30-03-2010 14:23:02 18.9 C 4.7 g/m*3 18.9 C 0 km/h
3067 30-03-2010 14:35:01 18.3 C 4.53 g/m*3 18.3 C 0 km/h
3068 30-03-2010 14:47:02 18 C 4.61 g/m*3 18 C 0 km/h
3069 30-03-2010 14:59:02 17.7 C 4.68 g/m*3 17.7 C 0 km/h
3070 30-03-2010 15:11:01 17.9 C 4.58 g/m*3 17.9 C 0 km/h
3071 30-03-2010 15:23:01 17.7 C 4.68 g/m*3 17.7 C 0 km/h
3072 30-03-2010 15:35:02 18.6 C 4.62 g/m*3 18.6 C 0 km/h
3073 30-03-2010 15:47:02 18.7 C 4.48 g/m*3 18.7 C 0 km/h
3074 30-03-2010 15:59:03 18.2 C 4.51 g/m*3 18.2 C 0 km/h
3075 30-03-2010 16:11:02 18.7 C 4.64 g/m*3 18.7 C 0 km/h
Sensor: Nr:Datum:Temp:Abs-Feuchte:Windchill:Wind:
Aussen-T/F 3076 30-03-2010 16:23:02 17.5 C 5.22 g/m*3 17.5 C 0 km/h
3077 30-03-2010 16:35:02 16.4 C 5.58 g/m*3 16.4 C 0 km/h
3078 30-03-2010 16:47:01 15.9 C 5.55 g/m*3 15.9 C 0 km/h
3079 30-03-2010 16:59:01 15.6 C 5.45 g/m*3 15.6 C 0 km/h
3080 30-03-2010 17:11:02 14.9 C 5.48 g/m*3 14.9 C 0 km/h
3081 30-03-2010 17:23:01 14.4 C 5.44 g/m*3 14.4 C 0 km/h
3082 30-03-2010 17:35:02 14.2 C 5.49 g/m*3 14.2 C 0 km/h
3083 30-03-2010 17:47:02 14 C 5.43 g/m*3 14 C 0 km/h
3084 30-03-2010 17:59:02 13.8 C 5.48 g/m*3 13.8 C 0 km/h
3085 30-03-2010 18:11:02 13.6 C 5.65 g/m*3 13.6 C 0 km/h
3086 30-03-2010 18:23:02 13.3 C 5.89 g/m*3 13.3 C 0 km/h
3087 30-03-2010 18:35:02 12.9 C 6.2 g/m*3 12.9 C 0 km/h
3088 30-03-2010 18:47:02 12 C 6.39 g/m*3 12 C 0 km/h
3089 30-03-2010 18:59:02 11.6 C 6.65 g/m*3 11.6 C 0 km/h
3090 30-03-2010 19:11:02 11.5 C 6.82 g/m*3 11.5 C 0 km/h
3091 30-03-2010 19:23:02 11.1 C 6.65 g/m*3 11.1 C 0 km/h
3092 30-03-2010 19:35:02 11.3 C 6.73 g/m*3 11.3 C 0 km/h
3093 30-03-2010 19:47:01 11.4 C 6.67 g/m*3 11.4 C 0 km/h
3094 30-03-2010 19:59:01 11.3 C 6.43 g/m*3 11.3 C 0 km/h
3095 30-03-2010 20:11:02 10.9 C 6.47 g/m*3 10.9 C 0 km/h
3096 30-03-2010 20:23:01 10.5 C 6.4 g/m*3 10.5 C 0 km/h
3097 30-03-2010 20:35:01 10.6 C 6.44 g/m*3 10.6 C 0 km/h
3098 30-03-2010 20:47:01 10.7 C 6.38 g/m*3 10.7 C 0 km/h
3099 30-03-2010 20:59:01 10.7 C 6.29 g/m*3 10.7 C 0 km/h
3100 30-03-2010 21:11:02 10.4 C 6.36 g/m*3 10.4 C 0 km/h
Sensor: Nr:Datum:Temp:Abs-Feuchte:Windchill:Wind:
Aussen-T/F 3101 30-03-2010 21:23:01 10.1 C 6.24 g/m*3 10.1 C 0 km/h
3102 30-03-2010 21:35:01 10 C 6.3 g/m*3 10 C 0 km/h
3103 30-03-2010 21:47:01 9.8 C 6.31 g/m*3 9.8 C 0 km/h
3104 30-03-2010 21:59:01 9.7 C 6.27 g/m*3 9.7 C 0 km/h
3105 30-03-2010 22:11:02 9.4 C 6.24 g/m*3 9.4 C 0 km/h
3106 30-03-2010 22:23:02 9.3 C 6.29 g/m*3 9.3 C 0 km/h
3107 30-03-2010 22:36:04 9.6 C 6.32 g/m*3 9.6 C 0 km/h
3108 30-03-2010 22:48:05 9.8 C 6.12 g/m*3 9.8 C 0 km/h
3109 30-03-2010 23:00:05 10.2 C 5.8 g/m*3 10.2 C 0 km/h
3110 30-03-2010 23:12:05 10.6 C 5.76 g/m*3 10.6 C 0 km/h
3111 30-03-2010 23:24:05 7.9 C 5.83 g/m*3 7.9 C 0 km/h
3112 30-03-2010 23:36:05 7.4 C 5.49 g/m*3 7.4 C 0 km/h
3113 30-03-2010 23:48:05 7.3 C 5.37 g/m*3 7.3 C 0 km/h
3114 31-03-2010 00:00:05 7.1 C 5.07 g/m*3 7.1 C 0 km/h
3115 31-03-2010 00:12:05 7 C 4.88 g/m*3 7 C 0 km/h
3116 31-03-2010 00:24:05 6.9 C 4.93 g/m*3 6.9 C 0 km/h
3117 31-03-2010 00:36:05 6.6 C 4.83 g/m*3 6.6 C 0 km/h
3118 31-03-2010 00:48:05 6.6 C 4.76 g/m*3 6.6 C 0 km/h
3119 31-03-2010 01:00:05 6.3 C 4.74 g/m*3 6.3 C 0 km/h
3120 31-03-2010 01:12:05 6.2 C 4.71 g/m*3 6.2 C 0 km/h
3121 31-03-2010 01:24:05 6.3 C 4.74 g/m*3 6.3 C 0 km/h
3122 31-03-2010 01:36:05 6.2 C 4.63 g/m*3 6.2 C 0 km/h
3123 31-03-2010 01:48:05 6.1 C 4.6 g/m*3 6.1 C 0 km/h
3124 31-03-2010 02:00:05 6 C 4.57 g/m*3 6 C 0 km/h
3125 31-03-2010 02:12:05 6 C 4.65 g/m*3 6 C 0 km/h
Sensor: Nr:Datum:Temp:Abs-Feuchte:Windchill:Wind:
Aussen-T/F 3126 31-03-2010 02:24:05 6 C 4.65 g/m*3 6 C 0 km/h
3127 31-03-2010 02:36:05 6 C 4.65 g/m*3 6 C 0 km/h
3128 31-03-2010 02:48:05 5.9 C 4.69 g/m*3 5.9 C 0 km/h
3129 31-03-2010 03:00:06 5.7 C 4.7 g/m*3 5.7 C 0 km/h
3130 31-03-2010 03:12:06 5.8 C 4.73 g/m*3 5.8 C 0 km/h
3131 31-03-2010 03:24:06 5.8 C 4.8 g/m*3 5.8 C 0 km/h
3132 31-03-2010 03:36:06 5.8 C 4.8 g/m*3 5.8 C 0 km/h
3133 31-03-2010 03:48:06 5.5 C 4.78 g/m*3 5.5 C 0 km/h
3134 31-03-2010 04:00:06 5.5 C 4.85 g/m*3 5.5 C 0 km/h
3135 31-03-2010 04:12:06 5.3 C 4.85 g/m*3 5.3 C 0 km/h
3136 31-03-2010 04:24:06 5.3 C 4.99 g/m*3 5.3 C 0 km/h
3137 31-03-2010 04:36:06 5.6 C 5.16 g/m*3 5.6 C 0 km/h
3138 31-03-2010 04:48:06 5.8 C 5.16 g/m*3 5.8 C 0 km/h
3139 31-03-2010 05:00:06 5.7 C 5.12 g/m*3 5.7 C 0 km/h
3140 31-03-2010 05:12:06 6.1 C 5.11 g/m*3 6.1 C 0 km/h
3141 31-03-2010 05:24:06 6.5 C 4.95 g/m*3 6.5 C 0 km/h
3142 31-03-2010 05:36:06 6.6 C 4.91 g/m*3 6.6 C 0 km/h
3143 31-03-2010 05:48:06 7.1 C 4.76 g/m*3 7.1 C 0 km/h
3144 31-03-2010 06:00:06 7 C 4.65 g/m*3 7 C 0 km/h
3145 31-03-2010 06:12:06 7.1 C 4.68 g/m*3 7.1 C 0 km/h
3146 31-03-2010 06:24:06 7.3 C 4.58 g/m*3 7.3 C 0 km/h
3147 31-03-2010 06:36:06 7.3 C 4.5 g/m*3 7.3 C 0 km/h
3148 31-03-2010 06:48:06 7.3 C 4.5 g/m*3 7.3 C 0 km/h
3149 31-03-2010 07:00:07 7.3 C 4.42 g/m*3 7.3 C 0 km/h
3150 31-03-2010 07:12:04 7.3 C 4.42 g/m*3 7.3 C 0 km/h
Sensor: Nr:Datum:Temp:Abs-Feuchte:Windchill:Wind:
Aussen-T/F 3151 31-03-2010 07:24:03 7.4 C 4.21 g/m*3 7.4 C 0 km/h
3152 31-03-2010 07:36:04 7.4 C 4.06 g/m*3 7.4 C 0 km/h
3153 31-03-2010 07:48:02 7.5 C 4.08 g/m*3 7.5 C 0 km/h
3154 31-03-2010 08:00:02 7.4 C 4.14 g/m*3 7.4 C 0 km/h
3155 31-03-2010 08:12:02 7.5 C 4.24 g/m*3 7.5 C 0 km/h
3156 31-03-2010 08:24:01 7.5 C 4.24 g/m*3 7.5 C 0 km/h
3157 31-03-2010 08:36:02 7.5 C 4.24 g/m*3 7.5 C 0 km/h
3158 31-03-2010 08:48:02 7.4 C 4.14 g/m*3 7.4 C 0 km/h
3159 31-03-2010 09:00:02 7.6 C 4.27 g/m*3 7.6 C 0 km/h
3160 31-03-2010 09:12:02 7.8 C 4.41 g/m*3 7.8 C 0 km/h
3161 31-03-2010 09:24:02 7.2 C 4.71 g/m*3 7.2 C 0 km/h
3162 31-03-2010 09:36:02 7.4 C 4.85 g/m*3 7.4 C 0 km/h
3163 31-03-2010 09:48:01 7.8 C 4.9 g/m*3 7.8 C 0 km/h
3164 31-03-2010 10:00:01 6.8 C 5.05 g/m*3 6.8 C 0 km/h
3165 31-03-2010 10:12:02 6 C 5.3 g/m*3 6 C 0 km/h
3166 31-03-2010 10:24:02 6.5 C 5.55 g/m*3 6.5 C 0 km/h
3167 31-03-2010 10:36:01 7.4 C 5.33 g/m*3 7.4 C 0 km/h
3168 31-03-2010 10:48:02 8.5 C 4.7 g/m*3 8.5 C 0 km/h
3169 31-03-2010 11:00:02 9.4 C 4.16 g/m*3 9.4 C 0 km/h
3170 31-03-2010 11:12:01 10.1 C 4.26 g/m*3 10.1 C 0 km/h
3171 31-03-2010 11:24:02 10.1 C 3.78 g/m*3 10.1 C 0 km/h
3172 31-03-2010 11:36:01 10.2 C 3.81 g/m*3 10.2 C 0 km/h
3173 31-03-2010 11:48:02 10.4 C 3.76 g/m*3 10.4 C 0 km/h
3174 31-03-2010 12:00:02 10.8 C 3.85 g/m*3 10.8 C 0 km/h
3175 31-03-2010 12:12:02 10.7 C 3.54 g/m*3 10.7 C 0 km/h
Sensor: Nr:Datum:Temp:Abs-Feuchte:Windchill:Wind:
Aussen-T/F 3176 31-03-2010 12:24:02 10.2 C 3.52 g/m*3 10.2 C 0 km/h
3177 31-03-2010 12:36:02 10.3 C 3.93 g/m*3 10.3 C 0 km/h
3178 31-03-2010 12:48:02 10.6 C 3.71 g/m*3 10.6 C 0 km/h
3179 31-03-2010 13:00:03 10.9 C 3.48 g/m*3 10.9 C 0 km/h
3180 31-03-2010 13:12:01 11.6 C 3.22 g/m*3 11.6 C 0 km/h
3181 31-03-2010 13:24:01 11.4 C 3.08 g/m*3 11.4 C 0 km/h
3182 31-03-2010 13:36:02 11.8 C 3.16 g/m*3 11.8 C 0 km/h
3183 31-03-2010 13:48:02 11.8 C 3.16 g/m*3 11.8 C 0 km/h
3184 31-03-2010 14:00:02 11.6 C 3.22 g/m*3 11.6 C 0 km/h
3185 31-03-2010 14:12:02 11.5 C 3.1 g/m*3 11.5 C 0 km/h
3186 31-03-2010 14:24:02 11.8 C 3.05 g/m*3 11.8 C 0 km/h
3187 31-03-2010 14:36:02 12.3 C 3.04 g/m*3 12.3 C 0 km/h
3188 31-03-2010 14:48:02 11.9 C 3.18 g/m*3 11.9 C 0 km/h
3189 31-03-2010 15:00:02 11.2 C 3.45 g/m*3 11.2 C 0 km/h
3190 31-03-2010 15:12:02 11.9 C 4.13 g/m*3 11.9 C 0 km/h
3191 31-03-2010 15:24:02 11.7 C 3.56 g/m*3 11.7 C 0 km/h
3192 31-03-2010 15:36:02 8.6 C 5.41 g/m*3 8.6 C 0 km/h
3193 31-03-2010 15:48:01 9.3 C 6.02 g/m*3 9.3 C 0 km/h
3194 31-03-2010 16:00:01 11.2 C 5.17 g/m*3 11.2 C 0 km/h
3195 31-03-2010 16:12:01 12.2 C 4.21 g/m*3 12.2 C 0 km/h
3196 31-03-2010 16:24:01 12.7 C 4.01 g/m*3 12.7 C 0 km/h
3197 31-03-2010 16:36:01 13.6 C 3.77 g/m*3 13.6 C 0 km/h
3198 31-03-2010 16:48:01 13.4 C 3.25 g/m*3 13.4 C 0 km/h
3199 31-03-2010 17:00:01 13.4 C 3.14 g/m*3 13.4 C 0 km/h
3200 31-03-2010 17:12:01 13 C 2.84 g/m*3 13 C 0 km/h
Sensor: Nr:Datum:Temp:Abs-Feuchte:Windchill:Wind:
Aussen-T/F 3201 31-03-2010 17:24:02 12.5 C 2.86 g/m*3 12.5 C 0 km/h
3202 31-03-2010 17:36:01 13.3 C 2.66 g/m*3 13.3 C 0 km/h
3203 31-03-2010 17:48:02 12.5 C 3.3 g/m*3 12.5 C 0 km/h
3204 31-03-2010 18:00:02 11.4 C 4 g/m*3 11.4 C 0 km/h
3205 31-03-2010 18:12:02 11.9 C 3.71 g/m*3 11.9 C 0 km/h
3206 31-03-2010 18:24:02 12.2 C 3.45 g/m*3 12.2 C 0 km/h
3207 31-03-2010 18:36:02 10.3 C 3.35 g/m*3 10.3 C 0 km/h
3208 31-03-2010 18:48:02 9.3 C 4.58 g/m*3 9.3 C 0 km/h
3209 31-03-2010 19:00:02 9.6 C 4.12 g/m*3 9.6 C 0 km/h
3210 31-03-2010 19:12:02 8.4 C 4.58 g/m*3 8.4 C 0 km/h
3211 31-03-2010 19:24:02 8.1 C 4.74 g/m*3 8.1 C 0 km/h
3212 31-03-2010 19:36:01 8.2 C 4.44 g/m*3 8.2 C 0 km/h
3213 31-03-2010 19:48:02 7.9 C 4.19 g/m*3 7.9 C 0 km/h
3214 31-03-2010 20:00:02 7.5 C 4.08 g/m*3 7.5 C 0 km/h
3215 31-03-2010 20:12:01 7.3 C 4.03 g/m*3 7.3 C 0 km/h
3216 31-03-2010 20:24:02 7.1 C 3.98 g/m*3 7.1 C 0 km/h
3217 31-03-2010 20:36:02 7 C 3.95 g/m*3 7 C 0 km/h
3218 31-03-2010 20:48:02 6.9 C 4.16 g/m*3 6.9 C 0 km/h
3219 31-03-2010 21:00:03 7 C 4.26 g/m*3 7 C 0 km/h
3220 31-03-2010 21:12:02 6.2 C 4.85 g/m*3 6.2 C 0 km/h
3221 31-03-2010 21:24:02 5.7 C 4.98 g/m*3 5.7 C 0 km/h
3222 31-03-2010 21:36:02 5.6 C 4.95 g/m*3 5.6 C 0 km/h
3223 31-03-2010 21:48:02 5.5 C 4.92 g/m*3 5.5 C 0 km/h
3224 31-03-2010 22:00:02 5.6 C 4.74 g/m*3 5.6 C 0 km/h
3225 31-03-2010 22:12:01 5.3 C 4.78 g/m*3 5.3 C 0 km/h
Sensor: Nr:Datum:Temp:Abs-Feuchte:Windchill:Wind:
Aussen-T/F 3226 31-03-2010 22:25:03 5.3 C 4.71 g/m*3 5.3 C 0 km/h
3227 31-03-2010 22:37:03 5.2 C 4.68 g/m*3 5.2 C 0 km/h
3228 31-03-2010 22:49:03 5.1 C 4.65 g/m*3 5.1 C 0 km/h
3229 31-03-2010 23:01:03 5.1 C 4.65 g/m*3 5.1 C 0 km/h
3230 31-03-2010 23:13:03 5.2 C 4.54 g/m*3 5.2 C 0 km/h
3231 31-03-2010 23:25:03 5.1 C 4.51 g/m*3 5.1 C 0 km/h
3232 31-03-2010 23:37:03 5.5 C 4.28 g/m*3 5.5 C 0 km/h
3233 31-03-2010 23:49:03 5.5 C 4.21 g/m*3 5.5 C 0 km/h
3234 01-04-2010 00:01:03 5.6 C 4.1 g/m*3 5.6 C 0 km/h
3235 01-04-2010 00:13:03 5.6 C 3.96 g/m*3 5.6 C 0 km/h
3236 01-04-2010 00:25:03 5.7 C 3.77 g/m*3 5.7 C